Darstellungsparameter: Aktuell verwendete Einstellungen:
Skalierung der Graphiken ... ?
xyx+y,   Skalierungsfaktor:      Skalierung: Modus: x, Faktor: 1
Darstellungszeitraum ... ?
Vom - - bis: - -   Zeitraum: 22.02.2014 - 28.02.2014
Min/Max/Avg-Anzeige ... ?
Zeige MMA aktuell
Zeige MMA Monat
Zeige MMA alles
Zeige --A aktuell
Zeige --A Monat
Zeige --A alles
Keine MMA-Anzeige
MMA:
Keine MMA-Graphiken
MMA-Basis: 22.02.2014 - 28.02.2014
Quicknavigation für Darstellung... ?
Tage:      1T, 2T, 3T, 5T -1T -2T -3T -5T +1T +2T +3T +5T
Wochen: 1W, 2W, 3W -1W -2W -3W +1W +2W +3W
Monate: 1M, 3M, 6M -1M -3M -6M +1M +3M +6M
Jahre:    1J, 3J, 5J, 10J -1J -3J -5J -10J +1J +3J +5J +10J
Nutze für die Darstellung ... ?
Originaldaten oder Mittelwerte auf ...
Stundenbasis Tagesbasis Wochenbasis
Monatsbasis Jahresbasis      Datenbasis: Original-Daten
Darstellen als:
Statistik (Auto) Statistik J:M      Darstellung:
Zur Graphik,    zurück zur Übersicht aller Sensoren.
 
Tabellarische Datenbersicht: ?
 
Sensor: Nr:Datum:Temp:Abs-Feuchte:Windchill:Wind:
Aussen-T/F 1 22-02-2014 00:00:00 3.3 C 5.64 g/m*3 3.3 C 3.2 km/h
2 22-02-2014 00:05:00 3.2 C 5.6 g/m*3 3.2 C 3.2 km/h
3 22-02-2014 00:10:00 3.1 C 5.51 g/m*3 3.1 C 4.8 km/h
4 22-02-2014 00:15:00 3 C 5.53 g/m*3 3 C 3.2 km/h
5 22-02-2014 00:20:00 2.9 C 5.49 g/m*3 2.9 C 3.2 km/h
6 22-02-2014 00:25:00 2.8 C 5.46 g/m*3 2.8 C 1.6 km/h
7 22-02-2014 00:30:00 2.8 C 5.46 g/m*3 2.8 C 3.2 km/h
8 22-02-2014 00:35:00 2.7 C 5.48 g/m*3 2.7 C 4.8 km/h
9 22-02-2014 00:40:00 2.7 C 5.48 g/m*3 2.7 C 4.8 km/h
10 22-02-2014 00:45:00 2.7 C 5.48 g/m*3 2.7 C 4.8 km/h
11 22-02-2014 00:50:00 2.6 C 5.44 g/m*3 2.6 C 1.6 km/h
12 22-02-2014 00:55:00 2.6 C 5.44 g/m*3 2.6 C 3.2 km/h
13 22-02-2014 01:00:00 2.5 C 5.4 g/m*3 2.5 C 3.2 km/h
14 22-02-2014 01:05:00 2.5 C 5.4 g/m*3 2.5 C 1.6 km/h
15 22-02-2014 01:10:00 2.5 C 5.4 g/m*3 2.5 C 1.6 km/h
16 22-02-2014 01:15:00 2.5 C 5.4 g/m*3 2.5 C 1.6 km/h
17 22-02-2014 01:20:00 2.4 C 5.37 g/m*3 2.4 C 3.2 km/h
18 22-02-2014 01:25:00 2.3 C 5.33 g/m*3 2.3 C 3.2 km/h
19 22-02-2014 01:30:00 2.3 C 5.33 g/m*3 2.3 C 3.2 km/h
20 22-02-2014 01:35:00 2.3 C 5.39 g/m*3 2.3 C 3.2 km/h
21 22-02-2014 01:40:00 2.3 C 5.39 g/m*3 2.3 C 4.8 km/h
22 22-02-2014 01:45:00 2.2 C 5.29 g/m*3 2.2 C 3.2 km/h
23 22-02-2014 01:50:00 2.2 C 5.35 g/m*3 2.2 C 0 km/h
24 22-02-2014 01:55:00 2.2 C 5.35 g/m*3 2.2 C 0 km/h
25 22-02-2014 02:00:00 2.1 C 5.31 g/m*3 2.1 C 0 km/h
Sensor: Nr:Datum:Temp:Abs-Feuchte:Windchill:Wind:
Aussen-T/F 26 22-02-2014 02:05:00 2.1 C 5.31 g/m*3 2.1 C 0 km/h
27 22-02-2014 02:10:00 2.1 C 5.31 g/m*3 2.1 C 3.2 km/h
28 22-02-2014 02:15:00 2 C 5.28 g/m*3 2 C 1.6 km/h
29 22-02-2014 02:20:00 2 C 5.28 g/m*3 2 C 1.6 km/h
30 22-02-2014 02:25:00 1.9 C 5.24 g/m*3 1.9 C 1.6 km/h
31 22-02-2014 02:30:00 1.9 C 5.24 g/m*3 1.9 C 3.2 km/h
32 22-02-2014 02:35:00 1.9 C 5.24 g/m*3 1.9 C 3.2 km/h
33 22-02-2014 02:40:00 1.9 C 5.24 g/m*3 1.9 C 3.2 km/h
34 22-02-2014 02:45:00 1.9 C 5.24 g/m*3 1.9 C 0 km/h
35 22-02-2014 02:50:00 1.9 C 5.24 g/m*3 1.9 C 0 km/h
36 22-02-2014 02:55:00 1.9 C 5.24 g/m*3 1.9 C 3.2 km/h
37 22-02-2014 03:00:00 1.9 C 5.24 g/m*3 1.9 C 0 km/h
38 22-02-2014 03:05:00 1.8 C 5.21 g/m*3 1.8 C 0 km/h
39 22-02-2014 03:10:00 1.8 C 5.21 g/m*3 1.8 C 0 km/h
40 22-02-2014 03:15:00 1.7 C 5.17 g/m*3 1.7 C 1.6 km/h
41 22-02-2014 03:20:00 1.7 C 5.17 g/m*3 1.7 C 3.2 km/h
42 22-02-2014 03:25:00 1.6 C 5.14 g/m*3 1.6 C 0 km/h
43 22-02-2014 03:30:00 1.6 C 5.14 g/m*3 1.6 C 1.6 km/h
44 22-02-2014 03:35:00 1.6 C 5.14 g/m*3 1.6 C 3.2 km/h
45 22-02-2014 03:40:00 1.6 C 5.14 g/m*3 1.6 C 0 km/h
46 22-02-2014 03:45:00 1.6 C 5.14 g/m*3 1.6 C 3.2 km/h
47 22-02-2014 03:50:00 1.6 C 5.14 g/m*3 1.6 C 3.2 km/h
48 22-02-2014 03:55:00 1.6 C 5.14 g/m*3 1.6 C 3.2 km/h
49 22-02-2014 04:00:00 1.5 C 5.1 g/m*3 1.5 C 3.2 km/h
50 22-02-2014 04:05:00 1.4 C 5.07 g/m*3 1.4 C 4.8 km/h
Sensor: Nr:Datum:Temp:Abs-Feuchte:Windchill:Wind:
Aussen-T/F 51 22-02-2014 04:10:00 1.5 C 5.1 g/m*3 1.5 C 3.2 km/h
52 22-02-2014 04:15:00 1.4 C 5.07 g/m*3 1.4 C 0 km/h
53 22-02-2014 04:20:00 1.4 C 5.07 g/m*3 1.4 C 0 km/h
54 22-02-2014 04:25:00 1.3 C 5.03 g/m*3 1.3 C 0 km/h
55 22-02-2014 04:30:00 1.3 C 5.03 g/m*3 1.3 C 1.6 km/h
56 22-02-2014 04:35:00 1.3 C 5.03 g/m*3 1.3 C 3.2 km/h
57 22-02-2014 04:40:00 1.3 C 5.03 g/m*3 1.3 C 1.6 km/h
58 22-02-2014 04:45:00 1.3 C 5.03 g/m*3 1.3 C 0 km/h
59 22-02-2014 04:50:00 1.2 C 5 g/m*3 1.2 C 0 km/h
60 22-02-2014 04:55:00 1.1 C 4.96 g/m*3 1.1 C 0 km/h
61 22-02-2014 05:00:00 1.1 C 4.96 g/m*3 1.1 C 0 km/h
62 22-02-2014 05:05:00 1 C 4.93 g/m*3 1 C 0 km/h
63 22-02-2014 05:10:00 1.1 C 4.96 g/m*3 1.1 C 0 km/h
64 22-02-2014 05:15:00 1.1 C 4.96 g/m*3 1.1 C 3.2 km/h
65 22-02-2014 05:20:00 1.1 C 4.96 g/m*3 1.1 C 1.6 km/h
66 22-02-2014 05:25:00 1.1 C 4.96 g/m*3 1.1 C 0 km/h
67 22-02-2014 05:30:00 1.1 C 4.96 g/m*3 1.1 C 1.6 km/h
68 22-02-2014 05:35:00 1.2 C 5.05 g/m*3 1.2 C 1.6 km/h
69 22-02-2014 05:40:00 1.2 C 5.05 g/m*3 1.2 C 1.6 km/h
70 22-02-2014 05:45:00 1.4 C 5.12 g/m*3 1.4 C 1.6 km/h
71 22-02-2014 05:50:00 1.4 C 5.12 g/m*3 1.4 C 1.6 km/h
72 22-02-2014 05:55:00 1.5 C 5.16 g/m*3 1.5 C 1.6 km/h
73 22-02-2014 06:00:00 1.7 C 5.23 g/m*3 1.7 C 1.6 km/h
74 22-02-2014 06:05:00 1.8 C 5.26 g/m*3 1.8 C 1.6 km/h
75 22-02-2014 06:10:00 1.8 C 5.26 g/m*3 1.8 C 1.6 km/h
Sensor: Nr:Datum:Temp:Abs-Feuchte:Windchill:Wind:
Aussen-T/F 76 22-02-2014 06:15:00 1.8 C 5.26 g/m*3 1.8 C 1.6 km/h
77 22-02-2014 06:20:00 1.8 C 5.26 g/m*3 1.8 C 0 km/h
78 22-02-2014 06:25:00 1.9 C 5.3 g/m*3 1.9 C 4.8 km/h
79 22-02-2014 06:30:00 2 C 5.33 g/m*3 -0.42 C 8.1 km/h
80 22-02-2014 06:35:00 2.2 C 5.41 g/m*3 -0.18 C 8.1 km/h
81 22-02-2014 06:40:00 2.3 C 5.44 g/m*3 2.3 C 4.8 km/h
82 22-02-2014 06:45:00 2.3 C 5.39 g/m*3 2.3 C 3.2 km/h
83 22-02-2014 06:50:00 2.4 C 5.42 g/m*3 2.4 C 0 km/h
84 22-02-2014 06:55:00 2.6 C 5.5 g/m*3 2.6 C 0 km/h
85 22-02-2014 07:00:00 2.6 C 5.5 g/m*3 2.6 C 0 km/h
86 22-02-2014 07:05:00 2.6 C 5.5 g/m*3 2.6 C 1.6 km/h
87 22-02-2014 07:10:00 2.7 C 5.54 g/m*3 2.7 C 3.2 km/h
88 22-02-2014 07:15:00 2.8 C 5.57 g/m*3 2.8 C 1.6 km/h
89 22-02-2014 07:20:00 2.9 C 5.61 g/m*3 2.9 C 3.2 km/h
90 22-02-2014 07:25:00 3.2 C 5.66 g/m*3 3.2 C 4.8 km/h
91 22-02-2014 07:30:00 3.6 C 5.76 g/m*3 1.98 C 6.4 km/h
92 22-02-2014 07:35:00 3.7 C 5.73 g/m*3 2.09 C 6.4 km/h
93 22-02-2014 07:40:00 3.8 C 5.71 g/m*3 3.8 C 3.2 km/h
94 22-02-2014 07:45:00 3.9 C 5.68 g/m*3 3.9 C 1.6 km/h
95 22-02-2014 07:50:00 3.9 C 5.68 g/m*3 3.9 C 0 km/h
96 22-02-2014 07:55:00 3.9 C 5.68 g/m*3 3.9 C 0 km/h
97 22-02-2014 08:00:00 3.9 C 5.75 g/m*3 3.9 C 3.2 km/h
98 22-02-2014 08:05:00 3.8 C 5.71 g/m*3 3.8 C 1.6 km/h
99 22-02-2014 08:10:00 3.8 C 5.71 g/m*3 3.8 C 1.6 km/h
100 22-02-2014 08:15:00 3.8 C 5.71 g/m*3 3.8 C 0 km/h
Sensor: Nr:Datum:Temp:Abs-Feuchte:Windchill:Wind:
Aussen-T/F 101 22-02-2014 08:20:00 3.8 C 5.77 g/m*3 3.8 C 0 km/h
102 22-02-2014 08:25:00 3.8 C 5.77 g/m*3 3.8 C 0 km/h
103 22-02-2014 08:30:00 3.9 C 5.75 g/m*3 3.9 C 0 km/h
104 22-02-2014 08:35:00 3.9 C 5.75 g/m*3 3.9 C 0 km/h
105 22-02-2014 08:40:00 4 C 5.79 g/m*3 4 C 0 km/h
106 22-02-2014 08:45:00 4.1 C 5.82 g/m*3 4.1 C 0 km/h
107 22-02-2014 08:50:00 4.1 C 5.82 g/m*3 4.1 C 0 km/h
108 22-02-2014 08:55:00 4.3 C 5.84 g/m*3 4.3 C 3.2 km/h
109 22-02-2014 09:00:00 4.4 C 5.88 g/m*3 4.4 C 0 km/h
110 22-02-2014 09:05:00 4.6 C 5.89 g/m*3 4.6 C 0 km/h
111 22-02-2014 09:10:00 4.7 C 5.93 g/m*3 4.7 C 1.6 km/h
112 22-02-2014 09:15:00 4.8 C 5.9 g/m*3 3.36 C 6.4 km/h
113 22-02-2014 09:20:00 4.9 C 5.87 g/m*3 4.9 C 1.6 km/h
114 22-02-2014 09:25:00 5.1 C 6.02 g/m*3 3.71 C 6.4 km/h
115 22-02-2014 09:30:00 5.2 C 5.99 g/m*3 5.2 C 4.8 km/h
116 22-02-2014 09:35:00 5.2 C 5.99 g/m*3 5.2 C 4.8 km/h
117 22-02-2014 09:40:00 5.3 C 6.03 g/m*3 3.46 C 8.1 km/h
118 22-02-2014 09:45:00 5.4 C 6 g/m*3 5.4 C 4.8 km/h
119 22-02-2014 09:50:00 5.4 C 6 g/m*3 3.2 C 9.7 km/h
120 22-02-2014 09:55:00 5.6 C 6.01 g/m*3 5.6 C 4.8 km/h
121 22-02-2014 10:00:00 5.7 C 6.05 g/m*3 2.95 C 12.9 km/h
122 22-02-2014 10:05:00 5.9 C 6.13 g/m*3 3.8 C 9.7 km/h
123 22-02-2014 10:10:00 6.1 C 6.14 g/m*3 4.86 C 6.4 km/h
124 22-02-2014 10:15:00 6.2 C 6.18 g/m*3 6.2 C 3.2 km/h
125 22-02-2014 10:20:00 6.2 C 6.1 g/m*3 4.98 C 6.4 km/h
Sensor: Nr:Datum:Temp:Abs-Feuchte:Windchill:Wind:
Aussen-T/F 126 22-02-2014 10:25:00 6.3 C 6.14 g/m*3 6.3 C 4.8 km/h
127 22-02-2014 10:30:00 6.3 C 6.14 g/m*3 6.3 C 4.8 km/h
128 22-02-2014 10:35:00 6.3 C 6.07 g/m*3 3.96 C 11.3 km/h
129 22-02-2014 10:40:00 6.4 C 6.11 g/m*3 4.39 C 9.7 km/h
130 22-02-2014 10:45:00 6.4 C 6.11 g/m*3 6.4 C 4.8 km/h
131 22-02-2014 10:50:00 6.5 C 6.07 g/m*3 4.87 C 8.1 km/h
132 22-02-2014 10:55:00 6.6 C 6.11 g/m*3 6.6 C 3.2 km/h
133 22-02-2014 11:00:00 6.6 C 6.19 g/m*3 4.63 C 9.7 km/h
134 22-02-2014 11:05:00 6.6 C 6.11 g/m*3 5.44 C 6.4 km/h
135 22-02-2014 11:10:00 6.7 C 6.08 g/m*3 4.17 C 12.9 km/h
136 22-02-2014 11:15:00 6.7 C 6.08 g/m*3 6.7 C 4.8 km/h
137 22-02-2014 11:20:00 6.8 C 6.04 g/m*3 4.56 C 11.3 km/h
138 22-02-2014 11:25:00 6.9 C 6.08 g/m*3 4.99 C 9.7 km/h
139 22-02-2014 11:30:00 7.1 C 6.16 g/m*3 5.58 C 8.1 km/h
140 22-02-2014 11:35:00 7.2 C 6.2 g/m*3 5.69 C 8.1 km/h
141 22-02-2014 11:40:00 7.2 C 6.2 g/m*3 5.35 C 9.7 km/h
142 22-02-2014 11:45:00 7.3 C 6.16 g/m*3 4.23 C 17.7 km/h
143 22-02-2014 11:50:00 7.4 C 6.2 g/m*3 4.78 C 14.5 km/h
144 22-02-2014 11:55:00 7.6 C 6.44 g/m*3 5.82 C 9.7 km/h
145 22-02-2014 12:00:00 7.7 C 6.41 g/m*3 6.28 C 8.1 km/h
146 22-02-2014 12:05:00 7.7 C 6.32 g/m*3 5.94 C 9.7 km/h
147 22-02-2014 12:10:00 7.7 C 6.32 g/m*3 5.94 C 9.7 km/h
148 22-02-2014 12:15:00 7.6 C 6.36 g/m*3 6.16 C 8.1 km/h
149 22-02-2014 12:20:00 7.6 C 6.44 g/m*3 6.6 C 6.4 km/h
150 22-02-2014 12:25:00 7.4 C 6.36 g/m*3 4.78 C 14.5 km/h
Sensor: Nr:Datum:Temp:Abs-Feuchte:Windchill:Wind:
Aussen-T/F 151 22-02-2014 12:30:00 7.4 C 6.36 g/m*3 5.93 C 8.1 km/h
152 22-02-2014 12:35:00 7.4 C 6.36 g/m*3 5.28 C 11.3 km/h
153 22-02-2014 12:40:00 7.4 C 6.36 g/m*3 4.78 C 14.5 km/h
154 22-02-2014 12:45:00 7.4 C 6.36 g/m*3 5.28 C 11.3 km/h
155 22-02-2014 12:50:00 7.3 C 6.24 g/m*3 3.87 C 20.9 km/h
156 22-02-2014 12:55:00 7.2 C 6.28 g/m*3 4.77 C 12.9 km/h
157 22-02-2014 13:00:00 7.2 C 6.28 g/m*3 5.35 C 9.7 km/h
158 22-02-2014 13:05:00 7.1 C 6.32 g/m*3 4.41 C 14.5 km/h
159 22-02-2014 13:10:00 7.1 C 6.32 g/m*3 4.41 C 14.5 km/h
160 22-02-2014 13:15:00 7.1 C 6.32 g/m*3 4.41 C 14.5 km/h
161 22-02-2014 13:20:00 7.1 C 6.4 g/m*3 4.92 C 11.3 km/h
162 22-02-2014 13:25:00 7.2 C 6.28 g/m*3 5.04 C 11.3 km/h
163 22-02-2014 13:30:00 7.3 C 6.4 g/m*3 4.9 C 12.9 km/h
164 22-02-2014 13:35:00 7.4 C 6.36 g/m*3 5.58 C 9.7 km/h
165 22-02-2014 13:40:00 7.4 C 6.44 g/m*3 5.58 C 9.7 km/h
166 22-02-2014 13:45:00 7.4 C 6.36 g/m*3 5.93 C 8.1 km/h
167 22-02-2014 13:50:00 7.5 C 6.4 g/m*3 4.68 C 16.1 km/h
168 22-02-2014 13:55:00 7.6 C 6.44 g/m*3 5.26 C 12.9 km/h
169 22-02-2014 14:00:00 7.6 C 6.36 g/m*3 5.26 C 12.9 km/h
170 22-02-2014 14:05:00 7.6 C 6.36 g/m*3 4.81 C 16.1 km/h
171 22-02-2014 14:10:00 7.5 C 6.32 g/m*3 4.9 C 14.5 km/h
172 22-02-2014 14:15:00 7.6 C 6.44 g/m*3 5.26 C 12.9 km/h
173 22-02-2014 14:20:00 7.5 C 6.4 g/m*3 5.14 C 12.9 km/h
174 22-02-2014 14:25:00 7.4 C 6.36 g/m*3 4.78 C 14.5 km/h
175 22-02-2014 14:30:00 7.5 C 6.4 g/m*3 5.14 C 12.9 km/h
Sensor: Nr:Datum:Temp:Abs-Feuchte:Windchill:Wind:
Aussen-T/F 176 22-02-2014 14:35:00 7.6 C 6.44 g/m*3 5.02 C 14.5 km/h
177 22-02-2014 14:40:00 7.6 C 6.44 g/m*3 6.6 C 6.4 km/h
178 22-02-2014 14:45:00 7.6 C 6.44 g/m*3 5.26 C 12.9 km/h
179 22-02-2014 14:50:00 7.6 C 6.44 g/m*3 6.6 C 6.4 km/h
180 22-02-2014 14:55:00 7.7 C 6.49 g/m*3 6.28 C 8.1 km/h
181 22-02-2014 15:00:00 7.6 C 6.44 g/m*3 5.53 C 11.3 km/h
182 22-02-2014 15:05:00 7.6 C 6.44 g/m*3 6.16 C 8.1 km/h
183 22-02-2014 15:10:00 7.6 C 6.36 g/m*3 5.53 C 11.3 km/h
184 22-02-2014 15:15:00 7.8 C 6.53 g/m*3 5.77 C 11.3 km/h
185 22-02-2014 15:20:00 7.8 C 6.45 g/m*3 5.27 C 14.5 km/h
186 22-02-2014 15:25:00 7.8 C 6.45 g/m*3 5.51 C 12.9 km/h
187 22-02-2014 15:30:00 7.8 C 6.45 g/m*3 5.77 C 11.3 km/h
188 22-02-2014 15:35:00 7.8 C 6.45 g/m*3 5.77 C 11.3 km/h
189 22-02-2014 15:40:00 7.8 C 6.37 g/m*3 6.4 C 8.1 km/h
190 22-02-2014 15:45:00 7.8 C 6.45 g/m*3 6.83 C 6.4 km/h
191 22-02-2014 15:50:00 7.9 C 6.41 g/m*3 6.52 C 8.1 km/h
192 22-02-2014 15:55:00 7.9 C 6.41 g/m*3 5.63 C 12.9 km/h
193 22-02-2014 16:00:00 7.8 C 6.45 g/m*3 6.06 C 9.7 km/h
194 22-02-2014 16:05:00 7.8 C 6.45 g/m*3 5.51 C 12.9 km/h
195 22-02-2014 16:10:00 7.8 C 6.45 g/m*3 5.77 C 11.3 km/h
196 22-02-2014 16:15:00 7.8 C 6.37 g/m*3 7.8 C 4.8 km/h
197 22-02-2014 16:20:00 7.8 C 6.45 g/m*3 6.4 C 8.1 km/h
198 22-02-2014 16:25:00 7.8 C 6.45 g/m*3 6.83 C 6.4 km/h
199 22-02-2014 16:30:00 7.8 C 6.45 g/m*3 6.06 C 9.7 km/h
200 22-02-2014 16:35:00 7.8 C 6.45 g/m*3 6.83 C 6.4 km/h
Sensor: Nr:Datum:Temp:Abs-Feuchte:Windchill:Wind:
Aussen-T/F 201 22-02-2014 16:40:00 7.8 C 6.45 g/m*3 6.4 C 8.1 km/h
202 22-02-2014 16:45:00 7.7 C 6.49 g/m*3 5.94 C 9.7 km/h
203 22-02-2014 16:50:00 7.7 C 6.49 g/m*3 7.7 C 4.8 km/h
204 22-02-2014 16:55:00 7.7 C 6.49 g/m*3 7.7 C 3.2 km/h
205 22-02-2014 17:00:00 7.7 C 6.49 g/m*3 6.71 C 6.4 km/h
206 22-02-2014 17:05:00 7.6 C 6.44 g/m*3 6.6 C 6.4 km/h
207 22-02-2014 17:10:00 7.6 C 6.44 g/m*3 7.6 C 4.8 km/h
208 22-02-2014 17:15:00 7.5 C 6.4 g/m*3 6.48 C 6.4 km/h
209 22-02-2014 17:20:00 7.4 C 6.36 g/m*3 6.37 C 6.4 km/h
210 22-02-2014 17:25:00 7.4 C 6.36 g/m*3 5.58 C 9.7 km/h
211 22-02-2014 17:30:00 7.3 C 6.4 g/m*3 5.47 C 9.7 km/h
212 22-02-2014 17:35:00 7.3 C 6.4 g/m*3 5.81 C 8.1 km/h
213 22-02-2014 17:40:00 7.2 C 6.36 g/m*3 5.69 C 8.1 km/h
214 22-02-2014 17:45:00 7.2 C 6.44 g/m*3 5.69 C 8.1 km/h
215 22-02-2014 17:50:00 7.1 C 6.4 g/m*3 7.1 C 4.8 km/h
216 22-02-2014 17:55:00 7.1 C 6.4 g/m*3 7.1 C 3.2 km/h
217 22-02-2014 18:00:00 7 C 6.35 g/m*3 7 C 4.8 km/h
218 22-02-2014 18:05:00 7 C 6.43 g/m*3 7 C 3.2 km/h
219 22-02-2014 18:10:00 6.9 C 6.39 g/m*3 6.9 C 4.8 km/h
220 22-02-2014 18:15:00 6.9 C 6.39 g/m*3 6.9 C 4.8 km/h
221 22-02-2014 18:20:00 6.8 C 6.35 g/m*3 6.8 C 3.2 km/h
222 22-02-2014 18:25:00 6.8 C 6.35 g/m*3 5.22 C 8.1 km/h
223 22-02-2014 18:30:00 6.7 C 6.31 g/m*3 5.56 C 6.4 km/h
224 22-02-2014 18:35:00 6.7 C 6.31 g/m*3 5.56 C 6.4 km/h
225 22-02-2014 18:40:00 6.6 C 6.27 g/m*3 6.6 C 3.2 km/h
Sensor: Nr:Datum:Temp:Abs-Feuchte:Windchill:Wind:
Aussen-T/F 226 22-02-2014 18:45:00 6.6 C 6.27 g/m*3 6.6 C 1.6 km/h
227 22-02-2014 18:50:00 6.5 C 6.22 g/m*3 6.5 C 1.6 km/h
228 22-02-2014 18:55:00 6.4 C 6.26 g/m*3 6.4 C 0 km/h
229 22-02-2014 19:00:00 6.3 C 6.29 g/m*3 6.3 C 0 km/h
230 22-02-2014 19:05:00 6.2 C 6.18 g/m*3 4.52 C 8.1 km/h
231 22-02-2014 19:10:00 6.3 C 6.22 g/m*3 3.68 C 12.9 km/h
232 22-02-2014 19:15:00 6.3 C 6.14 g/m*3 5.1 C 6.4 km/h
233 22-02-2014 19:20:00 6.3 C 6.14 g/m*3 5.1 C 6.4 km/h
234 22-02-2014 19:25:00 6.4 C 6.18 g/m*3 5.21 C 6.4 km/h
235 22-02-2014 19:30:00 6.4 C 6.18 g/m*3 4.75 C 8.1 km/h
236 22-02-2014 19:35:00 6.4 C 6.11 g/m*3 4.39 C 9.7 km/h
237 22-02-2014 19:40:00 6.4 C 6.18 g/m*3 4.39 C 9.7 km/h
238 22-02-2014 19:45:00 6.4 C 6.18 g/m*3 4.75 C 8.1 km/h
239 22-02-2014 19:50:00 6.4 C 6.18 g/m*3 5.21 C 6.4 km/h
240 22-02-2014 19:55:00 6.3 C 6.22 g/m*3 6.3 C 3.2 km/h
241 22-02-2014 20:00:00 6.3 C 6.14 g/m*3 6.3 C 1.6 km/h
242 22-02-2014 20:05:00 6.2 C 6.18 g/m*3 6.2 C 0 km/h
243 22-02-2014 20:10:00 6.2 C 6.18 g/m*3 4.98 C 6.4 km/h
244 22-02-2014 20:15:00 6.2 C 6.25 g/m*3 6.2 C 1.6 km/h
245 22-02-2014 20:20:00 6.2 C 6.18 g/m*3 6.2 C 1.6 km/h
246 22-02-2014 20:25:00 6.1 C 6.21 g/m*3 6.1 C 1.6 km/h
247 22-02-2014 20:30:00 6.1 C 6.28 g/m*3 6.1 C 1.6 km/h
248 22-02-2014 20:35:00 6 C 6.17 g/m*3 6 C 3.2 km/h
249 22-02-2014 20:40:00 6 C 6.17 g/m*3 6 C 4.8 km/h
250 22-02-2014 20:45:00 6 C 6.24 g/m*3 6 C 4.8 km/h
Sensor: Nr:Datum:Temp:Abs-Feuchte:Windchill:Wind:
Aussen-T/F 251 22-02-2014 20:50:00 6 C 6.24 g/m*3 6 C 3.2 km/h
252 22-02-2014 20:55:00 6 C 6.24 g/m*3 6 C 0 km/h
253 22-02-2014 21:00:00 5.9 C 6.2 g/m*3 5.9 C 3.2 km/h
254 22-02-2014 21:05:00 5.9 C 6.2 g/m*3 5.9 C 3.2 km/h
255 22-02-2014 21:10:00 5.9 C 6.27 g/m*3 5.9 C 0 km/h
256 22-02-2014 21:15:00 5.8 C 6.3 g/m*3 5.8 C 0 km/h
257 22-02-2014 21:20:00 5.8 C 6.3 g/m*3 5.8 C 0 km/h
258 22-02-2014 21:25:00 5.7 C 6.26 g/m*3 5.7 C 0 km/h
259 22-02-2014 21:30:00 5.7 C 6.19 g/m*3 5.7 C 1.6 km/h
260 22-02-2014 21:35:00 5.7 C 6.26 g/m*3 5.7 C 1.6 km/h
261 22-02-2014 21:40:00 5.7 C 6.26 g/m*3 5.7 C 1.6 km/h
262 22-02-2014 21:45:00 5.7 C 6.26 g/m*3 5.7 C 0 km/h
263 22-02-2014 21:50:00 5.6 C 6.22 g/m*3 5.6 C 1.6 km/h
264 22-02-2014 21:55:00 5.6 C 6.15 g/m*3 5.6 C 1.6 km/h
265 22-02-2014 22:00:00 5.7 C 6.26 g/m*3 5.7 C 1.6 km/h
266 22-02-2014 22:05:00 5.7 C 6.26 g/m*3 5.7 C 0 km/h
267 22-02-2014 22:10:00 5.6 C 6.22 g/m*3 5.6 C 0 km/h
268 22-02-2014 22:15:00 5.6 C 6.22 g/m*3 5.6 C 0 km/h
269 22-02-2014 22:20:00 5.6 C 6.22 g/m*3 5.6 C 0 km/h
270 22-02-2014 22:25:00 5.6 C 6.22 g/m*3 5.6 C 0 km/h
271 22-02-2014 22:30:00 5.6 C 6.22 g/m*3 5.6 C 0 km/h
272 22-02-2014 22:35:00 5.5 C 6.18 g/m*3 5.5 C 0 km/h
273 22-02-2014 22:40:00 5.4 C 6.14 g/m*3 5.4 C 1.6 km/h
274 22-02-2014 22:45:00 5.4 C 6.21 g/m*3 5.4 C 0 km/h
275 22-02-2014 22:50:00 5.4 C 6.21 g/m*3 5.4 C 0 km/h
Sensor: Nr:Datum:Temp:Abs-Feuchte:Windchill:Wind:
Aussen-T/F 276 22-02-2014 22:55:00 5.3 C 6.17 g/m*3 5.3 C 0 km/h
277 22-02-2014 23:00:00 5.3 C 6.17 g/m*3 5.3 C 0 km/h
278 22-02-2014 23:05:00 5.3 C 6.17 g/m*3 5.3 C 0 km/h
279 22-02-2014 23:10:00 5.3 C 6.17 g/m*3 5.3 C 0 km/h
280 22-02-2014 23:15:00 5.2 C 6.13 g/m*3 5.2 C 0 km/h
281 22-02-2014 23:20:00 5.2 C 6.06 g/m*3 5.2 C 0 km/h
282 22-02-2014 23:25:00 5.2 C 6.13 g/m*3 5.2 C 0 km/h
283 22-02-2014 23:30:00 5.2 C 6.06 g/m*3 5.2 C 1.6 km/h
284 22-02-2014 23:35:00 5.3 C 6.1 g/m*3 5.3 C 1.6 km/h
285 22-02-2014 23:40:00 5.3 C 6.1 g/m*3 5.3 C 0 km/h
286 22-02-2014 23:45:00 5.4 C 6.14 g/m*3 5.4 C 3.2 km/h
287 22-02-2014 23:50:00 5.3 C 6.1 g/m*3 5.3 C 0 km/h
288 22-02-2014 23:55:00 5.4 C 6.21 g/m*3 5.4 C 0 km/h
289 23-02-2014 00:00:00 5.3 C 6.1 g/m*3 5.3 C 1.6 km/h
290 23-02-2014 00:05:00 5.4 C 6.07 g/m*3 5.4 C 1.6 km/h
291 23-02-2014 00:10:00 5.4 C 6.07 g/m*3 5.4 C 1.6 km/h
292 23-02-2014 00:15:00 5.5 C 6.11 g/m*3 5.5 C 0 km/h
293 23-02-2014 00:20:00 5.5 C 6.04 g/m*3 5.5 C 1.6 km/h
294 23-02-2014 00:25:00 5.6 C 6.15 g/m*3 5.6 C 1.6 km/h
295 23-02-2014 00:30:00 5.6 C 6.08 g/m*3 5.6 C 1.6 km/h
296 23-02-2014 00:35:00 5.6 C 6.01 g/m*3 5.6 C 1.6 km/h
297 23-02-2014 00:40:00 5.6 C 6.01 g/m*3 5.6 C 1.6 km/h
298 23-02-2014 00:45:00 5.7 C 6.05 g/m*3 5.7 C 4.8 km/h
299 23-02-2014 00:50:00 5.7 C 6.05 g/m*3 5.7 C 4.8 km/h
300 23-02-2014 00:55:00 5.7 C 6.05 g/m*3 5.7 C 0 km/h
Sensor: Nr:Datum:Temp:Abs-Feuchte:Windchill:Wind:
Aussen-T/F 301 23-02-2014 01:00:00 5.7 C 5.98 g/m*3 5.7 C 0 km/h
302 23-02-2014 01:05:00 5.6 C 6.08 g/m*3 5.6 C 0 km/h
303 23-02-2014 01:10:00 5.4 C 5.93 g/m*3 5.4 C 1.6 km/h
304 23-02-2014 01:15:00 4.9 C 5.81 g/m*3 4.9 C 3.2 km/h
305 23-02-2014 01:20:00 4.7 C 5.73 g/m*3 4.7 C 3.2 km/h
306 23-02-2014 01:25:00 4.3 C 5.64 g/m*3 4.3 C 1.6 km/h
307 23-02-2014 01:30:00 4 C 5.59 g/m*3 4 C 3.2 km/h
308 23-02-2014 01:35:00 3.8 C 5.58 g/m*3 3.8 C 3.2 km/h
309 23-02-2014 01:40:00 3.6 C 5.57 g/m*3 3.6 C 4.8 km/h
310 23-02-2014 01:45:00 3.5 C 5.53 g/m*3 3.5 C 4.8 km/h
311 23-02-2014 01:50:00 3.4 C 5.56 g/m*3 3.4 C 3.2 km/h
312 23-02-2014 01:55:00 3.3 C 5.52 g/m*3 3.3 C 3.2 km/h
313 23-02-2014 02:00:00 3.3 C 5.52 g/m*3 3.3 C 3.2 km/h
314 23-02-2014 02:05:00 3.2 C 5.48 g/m*3 3.2 C 1.6 km/h
315 23-02-2014 02:10:00 3.1 C 5.45 g/m*3 3.1 C 1.6 km/h
316 23-02-2014 02:15:00 3.1 C 5.45 g/m*3 3.1 C 3.2 km/h
317 23-02-2014 02:20:00 3 C 5.41 g/m*3 3 C 1.6 km/h
318 23-02-2014 02:25:00 2.9 C 5.43 g/m*3 2.9 C 3.2 km/h
319 23-02-2014 02:30:00 2.9 C 5.37 g/m*3 2.9 C 3.2 km/h
320 23-02-2014 02:35:00 2.9 C 5.37 g/m*3 2.9 C 3.2 km/h
321 23-02-2014 02:40:00 2.9 C 5.37 g/m*3 2.9 C 4.8 km/h
322 23-02-2014 02:45:00 3 C 5.41 g/m*3 3 C 4.8 km/h
323 23-02-2014 02:50:00 3.1 C 5.45 g/m*3 3.1 C 3.2 km/h
324 23-02-2014 02:55:00 3.1 C 5.39 g/m*3 1.4 C 6.4 km/h
325 23-02-2014 03:00:00 3.1 C 5.39 g/m*3 1.4 C 6.4 km/h
Sensor: Nr:Datum:Temp:Abs-Feuchte:Windchill:Wind:
Aussen-T/F 326 23-02-2014 03:05:00 3.1 C 5.39 g/m*3 1.4 C 6.4 km/h
327 23-02-2014 03:10:00 3.1 C 5.39 g/m*3 3.1 C 4.8 km/h
328 23-02-2014 03:15:00 2.9 C 5.32 g/m*3 2.9 C 3.2 km/h
329 23-02-2014 03:20:00 2.9 C 5.37 g/m*3 2.9 C 3.2 km/h
330 23-02-2014 03:25:00 2.8 C 5.34 g/m*3 2.8 C 3.2 km/h
331 23-02-2014 03:30:00 2.8 C 5.34 g/m*3 2.8 C 4.8 km/h
332 23-02-2014 03:35:00 2.8 C 5.34 g/m*3 2.8 C 4.8 km/h
333 23-02-2014 03:40:00 2.8 C 5.34 g/m*3 2.8 C 3.2 km/h
334 23-02-2014 03:45:00 2.8 C 5.34 g/m*3 2.8 C 4.8 km/h
335 23-02-2014 03:50:00 2.8 C 5.34 g/m*3 2.8 C 3.2 km/h
336 23-02-2014 03:55:00 2.7 C 5.3 g/m*3 2.7 C 0 km/h
337 23-02-2014 04:00:00 2.6 C 5.27 g/m*3 2.6 C 0 km/h
338 23-02-2014 04:05:00 2.5 C 5.23 g/m*3 2.5 C 1.6 km/h
339 23-02-2014 04:10:00 2.4 C 5.2 g/m*3 2.4 C 0 km/h
340 23-02-2014 04:15:00 2.2 C 5.13 g/m*3 2.2 C 0 km/h
341 23-02-2014 04:20:00 2.1 C 5.09 g/m*3 2.1 C 0 km/h
342 23-02-2014 04:25:00 2.1 C 5.15 g/m*3 2.1 C 0 km/h
343 23-02-2014 04:30:00 2.1 C 5.15 g/m*3 2.1 C 0 km/h
344 23-02-2014 04:35:00 2 C 5.11 g/m*3 2 C 0 km/h
345 23-02-2014 04:40:00 1.9 C 5.08 g/m*3 1.9 C 0 km/h
346 23-02-2014 04:45:00 2.1 C 5.2 g/m*3 2.1 C 3.2 km/h
347 23-02-2014 04:50:00 2.1 C 5.2 g/m*3 2.1 C 3.2 km/h
348 23-02-2014 04:55:00 2.2 C 5.24 g/m*3 2.2 C 0 km/h
349 23-02-2014 05:00:00 2.2 C 5.24 g/m*3 2.2 C 0 km/h
350 23-02-2014 05:05:00 2.2 C 5.24 g/m*3 2.2 C 0 km/h
Sensor: Nr:Datum:Temp:Abs-Feuchte:Windchill:Wind:
Aussen-T/F 351 23-02-2014 05:10:00 2.1 C 5.2 g/m*3 2.1 C 0 km/h
352 23-02-2014 05:15:00 2.1 C 5.2 g/m*3 2.1 C 0 km/h
353 23-02-2014 05:20:00 2.1 C 5.2 g/m*3 2.1 C 0 km/h
354 23-02-2014 05:25:00 2.1 C 5.2 g/m*3 2.1 C 0 km/h
355 23-02-2014 05:30:00 2.1 C 5.2 g/m*3 2.1 C 0 km/h
356 23-02-2014 05:35:00 2 C 5.17 g/m*3 2 C 0 km/h
357 23-02-2014 05:40:00 1.9 C 5.13 g/m*3 1.9 C 1.6 km/h
358 23-02-2014 05:45:00 1.9 C 5.13 g/m*3 1.9 C 3.2 km/h
359 23-02-2014 05:50:00 2 C 5.17 g/m*3 2 C 1.6 km/h
360 23-02-2014 05:55:00 2.1 C 5.26 g/m*3 2.1 C 3.2 km/h
361 23-02-2014 06:00:00 2.2 C 5.24 g/m*3 2.2 C 0 km/h
362 23-02-2014 06:05:00 2.3 C 5.33 g/m*3 2.3 C 1.6 km/h
363 23-02-2014 06:10:00 2.4 C 5.31 g/m*3 2.4 C 1.6 km/h
364 23-02-2014 06:15:00 2.4 C 5.31 g/m*3 2.4 C 3.2 km/h
365 23-02-2014 06:20:00 2.7 C 5.48 g/m*3 2.7 C 1.6 km/h
366 23-02-2014 06:25:00 2.9 C 5.49 g/m*3 2.9 C 3.2 km/h
367 23-02-2014 06:30:00 3.1 C 5.57 g/m*3 3.1 C 3.2 km/h
368 23-02-2014 06:35:00 3.2 C 5.6 g/m*3 3.2 C 1.6 km/h
369 23-02-2014 06:40:00 3.3 C 5.58 g/m*3 3.3 C 4.8 km/h
370 23-02-2014 06:45:00 3.4 C 5.56 g/m*3 3.4 C 1.6 km/h
371 23-02-2014 06:50:00 3.5 C 5.6 g/m*3 3.5 C 4.8 km/h
372 23-02-2014 06:55:00 3.6 C 5.63 g/m*3 3.6 C 3.2 km/h
373 23-02-2014 07:00:00 3.6 C 5.57 g/m*3 3.6 C 3.2 km/h
374 23-02-2014 07:05:00 3.6 C 5.57 g/m*3 3.6 C 3.2 km/h
375 23-02-2014 07:10:00 3.6 C 5.57 g/m*3 3.6 C 4.8 km/h
Sensor: Nr:Datum:Temp:Abs-Feuchte:Windchill:Wind:
Aussen-T/F 376 23-02-2014 07:15:00 3.6 C 5.57 g/m*3 3.6 C 1.6 km/h
377 23-02-2014 07:20:00 3.6 C 5.57 g/m*3 3.6 C 3.2 km/h
378 23-02-2014 07:25:00 3.7 C 5.61 g/m*3 3.7 C 3.2 km/h
379 23-02-2014 07:30:00 3.7 C 5.61 g/m*3 3.7 C 3.2 km/h
380 23-02-2014 07:35:00 3.7 C 5.67 g/m*3 3.7 C 3.2 km/h
381 23-02-2014 07:40:00 3.8 C 5.71 g/m*3 3.8 C 3.2 km/h
382 23-02-2014 07:45:00 3.8 C 5.65 g/m*3 3.8 C 3.2 km/h
383 23-02-2014 07:50:00 3.9 C 5.68 g/m*3 3.9 C 0 km/h
384 23-02-2014 07:55:00 4.1 C 5.76 g/m*3 4.1 C 1.6 km/h
385 23-02-2014 08:00:00 4.2 C 5.8 g/m*3 4.2 C 3.2 km/h
386 23-02-2014 08:05:00 4.3 C 5.84 g/m*3 4.3 C 0 km/h
387 23-02-2014 08:10:00 4.3 C 5.9 g/m*3 4.3 C 0 km/h
388 23-02-2014 08:15:00 4.3 C 5.84 g/m*3 4.3 C 1.6 km/h
389 23-02-2014 08:20:00 4.4 C 5.94 g/m*3 4.4 C 0 km/h
390 23-02-2014 08:25:00 4.6 C 6.02 g/m*3 4.6 C 0 km/h
391 23-02-2014 08:30:00 4.7 C 6 g/m*3 4.7 C 0 km/h
392 23-02-2014 08:35:00 4.7 C 6.06 g/m*3 4.7 C 0 km/h
393 23-02-2014 08:40:00 4.8 C 6.1 g/m*3 4.8 C 0 km/h
394 23-02-2014 08:45:00 4.8 C 6.1 g/m*3 4.8 C 1.6 km/h
395 23-02-2014 09:25:00 6 C 6.1 g/m*3 6 C 1.6 km/h
396 23-02-2014 09:30:00 6 C 6.1 g/m*3 6 C 1.6 km/h
397 23-02-2014 09:35:00 6 C 6.1 g/m*3 6 C 0 km/h
398 23-02-2014 12:40:00 10.1 C 9.46 g/m*3 9.48 C 6.4 km/h
399 23-02-2014 12:45:00 10.2 C 6.38 g/m*3 9.6 C 6.4 km/h
400 23-02-2014 12:50:00 10.1 C 6.34 g/m*3 9.48 C 6.4 km/h
Sensor: Nr:Datum:Temp:Abs-Feuchte:Windchill:Wind:
Aussen-T/F 401 23-02-2014 12:55:00 10.1 C 6.34 g/m*3 8.8 C 9.7 km/h
402 23-02-2014 13:00:00 10.2 C 6.57 g/m*3 9.22 C 8.1 km/h
403 23-02-2014 13:05:00 10.2 C 6.66 g/m*3 9.6 C 6.4 km/h
404 23-02-2014 13:10:00 10.2 C 6.57 g/m*3 9.22 C 8.1 km/h
405 23-02-2014 13:15:00 10.3 C 6.51 g/m*3 8.78 C 11.3 km/h
406 23-02-2014 13:20:00 10.2 C 6.57 g/m*3 8.66 C 11.3 km/h
407 23-02-2014 13:25:00 10.2 C 6.57 g/m*3 8.66 C 11.3 km/h
408 23-02-2014 13:30:00 10.3 C 6.61 g/m*3 9.04 C 9.7 km/h
409 23-02-2014 13:35:00 10.4 C 6.46 g/m*3 9.16 C 9.7 km/h
410 23-02-2014 13:40:00 10.6 C 6.34 g/m*3 9.14 C 11.3 km/h
411 23-02-2014 13:45:00 10.7 C 6.29 g/m*3 8.48 C 17.7 km/h
412 23-02-2014 13:50:00 10.8 C 6.23 g/m*3 9.38 C 11.3 km/h
413 23-02-2014 13:55:00 10.8 C 6.42 g/m*3 9.64 C 9.7 km/h
414 23-02-2014 14:00:00 10.9 C 6.27 g/m*3 10.41 C 6.4 km/h
415 23-02-2014 14:05:00 10.9 C 6.37 g/m*3 9.08 C 14.5 km/h
416 23-02-2014 14:10:00 10.7 C 6.58 g/m*3 8.84 C 14.5 km/h
417 23-02-2014 14:15:00 10.6 C 6.73 g/m*3 8.92 C 12.9 km/h
418 23-02-2014 14:20:00 10.4 C 6.84 g/m*3 8.67 C 12.9 km/h
419 23-02-2014 14:25:00 10.3 C 6.9 g/m*3 8.55 C 12.9 km/h
420 23-02-2014 14:30:00 10.2 C 6.85 g/m*3 8.92 C 9.7 km/h
421 23-02-2014 14:35:00 10.1 C 6.81 g/m*3 7.91 C 16.1 km/h
422 23-02-2014 14:40:00 10.1 C 6.81 g/m*3 8.8 C 9.7 km/h
423 23-02-2014 14:45:00 10 C 6.77 g/m*3 8.42 C 11.3 km/h
424 23-02-2014 14:50:00 10 C 6.77 g/m*3 8.42 C 11.3 km/h
425 23-02-2014 14:55:00 10 C 6.86 g/m*3 7.98 C 14.5 km/h
Sensor: Nr:Datum:Temp:Abs-Feuchte:Windchill:Wind:
Aussen-T/F 426 23-02-2014 15:00:00 9.9 C 6.82 g/m*3 8.3 C 11.3 km/h
427 23-02-2014 15:05:00 9.7 C 6.73 g/m*3 7.82 C 12.9 km/h
428 23-02-2014 15:10:00 9.7 C 6.82 g/m*3 8.33 C 9.7 km/h
429 23-02-2014 15:15:00 9.6 C 6.78 g/m*3 8.91 C 6.4 km/h
430 23-02-2014 15:20:00 9.6 C 6.78 g/m*3 8.52 C 8.1 km/h
431 23-02-2014 15:25:00 9.6 C 6.78 g/m*3 9.6 C 3.2 km/h
432 23-02-2014 15:30:00 9.7 C 6.73 g/m*3 8.63 C 8.1 km/h
433 23-02-2014 15:35:00 9.7 C 6.82 g/m*3 8.63 C 8.1 km/h
434 23-02-2014 15:40:00 9.8 C 6.77 g/m*3 8.75 C 8.1 km/h
435 23-02-2014 15:45:00 9.8 C 6.77 g/m*3 9.14 C 6.4 km/h
436 23-02-2014 15:50:00 9.9 C 6.82 g/m*3 8.87 C 8.1 km/h
437 23-02-2014 15:55:00 9.9 C 6.72 g/m*3 8.87 C 8.1 km/h
438 23-02-2014 16:00:00 9.9 C 6.63 g/m*3 8.56 C 9.7 km/h
439 23-02-2014 16:05:00 10 C 6.67 g/m*3 10 C 4.8 km/h
440 23-02-2014 16:10:00 10 C 6.58 g/m*3 10 C 4.8 km/h
441 23-02-2014 16:15:00 10.1 C 6.62 g/m*3 9.1 C 8.1 km/h
442 23-02-2014 16:20:00 10.1 C 6.62 g/m*3 10.1 C 4.8 km/h
443 23-02-2014 16:25:00 10.1 C 6.62 g/m*3 9.48 C 6.4 km/h
444 23-02-2014 16:30:00 10 C 6.48 g/m*3 9.37 C 6.4 km/h
445 23-02-2014 16:35:00 10 C 6.58 g/m*3 9.37 C 6.4 km/h
446 23-02-2014 16:40:00 9.9 C 6.54 g/m*3 9.9 C 3.2 km/h
447 23-02-2014 16:45:00 9.9 C 6.63 g/m*3 9.9 C 0 km/h
448 23-02-2014 16:50:00 9.9 C 6.63 g/m*3 9.9 C 3.2 km/h
449 23-02-2014 16:55:00 9.9 C 6.72 g/m*3 9.9 C 0 km/h
450 23-02-2014 17:00:00 9.8 C 6.49 g/m*3 9.8 C 0 km/h
Sensor: Nr:Datum:Temp:Abs-Feuchte:Windchill:Wind:
Aussen-T/F 451 23-02-2014 17:05:00 9.8 C 6.49 g/m*3 9.8 C 0 km/h
452 23-02-2014 17:10:00 9.8 C 6.68 g/m*3 9.8 C 0 km/h
453 23-02-2014 17:15:00 9.8 C 6.68 g/m*3 9.8 C 1.6 km/h
454 23-02-2014 17:20:00 9.7 C 6.91 g/m*3 9.7 C 0 km/h
455 23-02-2014 17:25:00 9.6 C 6.78 g/m*3 9.6 C 0 km/h
456 23-02-2014 17:30:00 9.4 C 6.87 g/m*3 9.4 C 0 km/h
457 23-02-2014 17:35:00 9.3 C 6.83 g/m*3 9.3 C 0 km/h
458 23-02-2014 17:40:00 9.1 C 6.74 g/m*3 9.1 C 0 km/h
459 23-02-2014 17:45:00 8.9 C 6.83 g/m*3 8.9 C 1.6 km/h
460 23-02-2014 17:50:00 8.9 C 6.57 g/m*3 8.9 C 3.2 km/h
461 23-02-2014 17:55:00 8.8 C 6.61 g/m*3 8.8 C 1.6 km/h
462 23-02-2014 18:00:00 8.8 C 6.61 g/m*3 8.8 C 1.6 km/h
463 23-02-2014 18:05:00 8.8 C 6.44 g/m*3 8.8 C 3.2 km/h
464 23-02-2014 18:10:00 8.8 C 6.27 g/m*3 8.8 C 0 km/h
465 23-02-2014 18:15:00 8.8 C 6.27 g/m*3 8.8 C 1.6 km/h
466 23-02-2014 18:20:00 8.8 C 6.53 g/m*3 8.8 C 1.6 km/h
467 23-02-2014 18:25:00 8.6 C 6.62 g/m*3 8.6 C 0 km/h
468 23-02-2014 18:30:00 8.3 C 6.57 g/m*3 8.3 C 3.2 km/h
469 23-02-2014 18:35:00 8.1 C 6.66 g/m*3 8.1 C 3.2 km/h
470 23-02-2014 18:40:00 8 C 6.61 g/m*3 8 C 3.2 km/h
471 23-02-2014 18:45:00 7.9 C 6.41 g/m*3 7.9 C 1.6 km/h
472 23-02-2014 18:50:00 7.9 C 6.57 g/m*3 7.9 C 3.2 km/h
473 23-02-2014 18:55:00 7.8 C 6.45 g/m*3 7.8 C 1.6 km/h
474 23-02-2014 19:00:00 7.8 C 6.53 g/m*3 7.8 C 3.2 km/h
475 23-02-2014 19:05:00 7.7 C 6.57 g/m*3 7.7 C 3.2 km/h
Sensor: Nr:Datum:Temp:Abs-Feuchte:Windchill:Wind:
Aussen-T/F 476 23-02-2014 19:10:00 7.6 C 6.61 g/m*3 7.6 C 4.8 km/h
477 23-02-2014 19:15:00 7.5 C 6.56 g/m*3 7.5 C 4.8 km/h
478 23-02-2014 19:20:00 7.4 C 6.52 g/m*3 7.4 C 4.8 km/h
479 23-02-2014 19:25:00 7.4 C 6.52 g/m*3 7.4 C 3.2 km/h
480 23-02-2014 19:30:00 7.5 C 6.48 g/m*3 7.5 C 4.8 km/h
481 23-02-2014 19:35:00 7.5 C 6.56 g/m*3 7.5 C 3.2 km/h
482 23-02-2014 19:40:00 7.5 C 6.56 g/m*3 7.5 C 3.2 km/h
483 23-02-2014 19:45:00 7.4 C 6.52 g/m*3 7.4 C 3.2 km/h
484 23-02-2014 19:50:00 7.4 C 6.52 g/m*3 7.4 C 3.2 km/h
485 23-02-2014 19:55:00 7.4 C 6.6 g/m*3 7.4 C 4.8 km/h
486 23-02-2014 20:00:00 7.3 C 6.56 g/m*3 7.3 C 3.2 km/h
487 23-02-2014 20:05:00 7.2 C 6.52 g/m*3 7.2 C 4.8 km/h
488 23-02-2014 20:10:00 6.9 C 6.39 g/m*3 6.9 C 4.8 km/h
489 23-02-2014 20:15:00 6.6 C 6.34 g/m*3 6.6 C 3.2 km/h
490 23-02-2014 20:20:00 6.3 C 6.22 g/m*3 6.3 C 4.8 km/h
491 23-02-2014 20:25:00 6.2 C 6.18 g/m*3 6.2 C 4.8 km/h
492 23-02-2014 20:30:00 6.1 C 6.21 g/m*3 6.1 C 4.8 km/h
493 23-02-2014 20:35:00 6 C 6.17 g/m*3 6 C 4.8 km/h
494 23-02-2014 20:40:00 5.8 C 6.09 g/m*3 5.8 C 4.8 km/h
495 23-02-2014 20:45:00 5.8 C 6.16 g/m*3 5.8 C 4.8 km/h
496 23-02-2014 20:50:00 5.7 C 6.12 g/m*3 5.7 C 4.8 km/h
497 23-02-2014 20:55:00 5.7 C 6.12 g/m*3 5.7 C 4.8 km/h
498 23-02-2014 21:00:00 5.6 C 6.08 g/m*3 5.6 C 4.8 km/h
499 23-02-2014 21:05:00 5.6 C 6.08 g/m*3 5.6 C 4.8 km/h
500 23-02-2014 21:10:00 5.7 C 6.12 g/m*3 5.7 C 4.8 km/h
Sensor: Nr:Datum:Temp:Abs-Feuchte:Windchill:Wind:
Aussen-T/F 501 23-02-2014 21:15:00 5.6 C 6.08 g/m*3 5.6 C 4.8 km/h
502 23-02-2014 21:20:00 5.6 C 6.08 g/m*3 5.6 C 4.8 km/h
503 23-02-2014 21:25:00 5.5 C 6.04 g/m*3 5.5 C 4.8 km/h
504 23-02-2014 21:30:00 5.4 C 6.07 g/m*3 5.4 C 3.2 km/h
505 23-02-2014 21:35:00 5.3 C 6.03 g/m*3 5.3 C 4.8 km/h
506 23-02-2014 21:40:00 5.2 C 5.99 g/m*3 5.2 C 4.8 km/h
507 23-02-2014 21:45:00 5.1 C 5.95 g/m*3 5.1 C 4.8 km/h
508 23-02-2014 21:50:00 5.1 C 5.95 g/m*3 3.71 C 6.4 km/h
509 23-02-2014 21:55:00 5.1 C 6.02 g/m*3 5.1 C 3.2 km/h
510 23-02-2014 22:00:00 4.9 C 5.94 g/m*3 4.9 C 4.8 km/h
511 23-02-2014 22:05:00 4.9 C 5.94 g/m*3 4.9 C 4.8 km/h
512 23-02-2014 22:10:00 4.8 C 5.9 g/m*3 4.8 C 4.8 km/h
513 23-02-2014 22:15:00 4.8 C 5.9 g/m*3 4.8 C 3.2 km/h
514 23-02-2014 22:20:00 4.8 C 5.9 g/m*3 4.8 C 3.2 km/h
515 23-02-2014 22:25:00 4.8 C 5.9 g/m*3 3.36 C 6.4 km/h
516 23-02-2014 22:30:00 4.8 C 5.9 g/m*3 4.8 C 4.8 km/h
517 23-02-2014 22:35:00 4.7 C 5.86 g/m*3 4.7 C 4.8 km/h
518 23-02-2014 22:40:00 4.6 C 5.82 g/m*3 4.6 C 3.2 km/h
519 23-02-2014 22:45:00 4.4 C 5.81 g/m*3 4.4 C 3.2 km/h
520 23-02-2014 22:50:00 4.3 C 5.77 g/m*3 4.3 C 4.8 km/h
521 23-02-2014 22:55:00 4.3 C 5.77 g/m*3 4.3 C 3.2 km/h
522 23-02-2014 23:00:00 4.2 C 5.73 g/m*3 4.2 C 3.2 km/h
523 23-02-2014 23:05:00 4.1 C 5.76 g/m*3 4.1 C 3.2 km/h
524 23-02-2014 23:10:00 4 C 5.72 g/m*3 4 C 3.2 km/h
525 23-02-2014 23:15:00 3.9 C 5.68 g/m*3 3.9 C 3.2 km/h
Sensor: Nr:Datum:Temp:Abs-Feuchte:Windchill:Wind:
Aussen-T/F 526 23-02-2014 23:20:00 3.8 C 5.65 g/m*3 3.8 C 4.8 km/h
527 23-02-2014 23:25:00 3.8 C 5.71 g/m*3 3.8 C 4.8 km/h
528 23-02-2014 23:30:00 3.7 C 5.67 g/m*3 3.7 C 3.2 km/h
529 23-02-2014 23:35:00 3.7 C 5.67 g/m*3 3.7 C 1.6 km/h
530 23-02-2014 23:40:00 3.6 C 5.63 g/m*3 3.6 C 3.2 km/h
531 23-02-2014 23:45:00 3.6 C 5.69 g/m*3 3.6 C 1.6 km/h
532 23-02-2014 23:50:00 3.6 C 5.63 g/m*3 3.6 C 3.2 km/h
533 23-02-2014 23:55:00 3.6 C 5.63 g/m*3 3.6 C 3.2 km/h
534 24-02-2014 00:00:00 3.5 C 5.6 g/m*3 3.5 C 4.8 km/h
535 24-02-2014 00:05:00 3.5 C 5.66 g/m*3 3.5 C 4.8 km/h
536 24-02-2014 00:10:00 3.4 C 5.62 g/m*3 3.4 C 3.2 km/h
537 24-02-2014 00:15:00 3.4 C 5.62 g/m*3 3.4 C 1.6 km/h
538 24-02-2014 00:20:00 3.3 C 5.58 g/m*3 3.3 C 1.6 km/h
539 24-02-2014 00:25:00 3.3 C 5.58 g/m*3 3.3 C 3.2 km/h
540 24-02-2014 00:30:00 3.3 C 5.58 g/m*3 3.3 C 3.2 km/h
541 24-02-2014 00:35:00 3.2 C 5.54 g/m*3 3.2 C 3.2 km/h
542 24-02-2014 00:40:00 3.2 C 5.54 g/m*3 3.2 C 3.2 km/h
543 24-02-2014 00:45:00 3.1 C 5.57 g/m*3 3.1 C 3.2 km/h
544 24-02-2014 00:50:00 3.1 C 5.51 g/m*3 3.1 C 4.8 km/h
545 24-02-2014 00:55:00 3.1 C 5.51 g/m*3 3.1 C 3.2 km/h
546 24-02-2014 01:00:00 2.9 C 5.43 g/m*3 2.9 C 4.8 km/h
547 24-02-2014 01:05:00 2.9 C 5.49 g/m*3 2.9 C 4.8 km/h
548 24-02-2014 01:10:00 2.9 C 5.49 g/m*3 2.9 C 3.2 km/h
549 24-02-2014 01:15:00 2.8 C 5.46 g/m*3 2.8 C 3.2 km/h
550 24-02-2014 01:20:00 2.8 C 5.46 g/m*3 2.8 C 3.2 km/h
Sensor: Nr:Datum:Temp:Abs-Feuchte:Windchill:Wind:
Aussen-T/F 551 24-02-2014 01:25:00 2.8 C 5.46 g/m*3 2.8 C 3.2 km/h
552 24-02-2014 01:30:00 2.8 C 5.46 g/m*3 1.05 C 6.4 km/h
553 24-02-2014 01:35:00 2.9 C 5.49 g/m*3 1.17 C 6.4 km/h
554 24-02-2014 01:40:00 2.9 C 5.49 g/m*3 2.9 C 4.8 km/h
555 24-02-2014 01:45:00 2.9 C 5.49 g/m*3 2.9 C 3.2 km/h
556 24-02-2014 01:50:00 2.8 C 5.46 g/m*3 2.8 C 3.2 km/h
557 24-02-2014 01:55:00 2.7 C 5.42 g/m*3 2.7 C 3.2 km/h
558 24-02-2014 02:00:00 2.6 C 5.32 g/m*3 2.6 C 1.6 km/h
559 24-02-2014 02:05:00 2.4 C 5.31 g/m*3 2.4 C 0 km/h
560 24-02-2014 02:10:00 2.3 C 5.27 g/m*3 2.3 C 1.6 km/h
561 24-02-2014 02:15:00 2.2 C 5.24 g/m*3 2.2 C 0 km/h
562 24-02-2014 02:20:00 2.2 C 5.24 g/m*3 2.2 C 0 km/h
563 24-02-2014 02:25:00 2.1 C 5.2 g/m*3 2.1 C 0 km/h
564 24-02-2014 02:30:00 2 C 5.22 g/m*3 2 C 0 km/h
565 24-02-2014 02:35:00 1.9 C 5.19 g/m*3 1.9 C 0 km/h
566 24-02-2014 02:40:00 1.8 C 5.15 g/m*3 1.8 C 0 km/h
567 24-02-2014 02:45:00 1.8 C 5.15 g/m*3 1.8 C 0 km/h
568 24-02-2014 02:50:00 1.7 C 5.12 g/m*3 1.7 C 0 km/h
569 24-02-2014 02:55:00 1.7 C 5.12 g/m*3 1.7 C 0 km/h
570 24-02-2014 03:00:00 1.6 C 5.08 g/m*3 1.6 C 0 km/h
571 24-02-2014 03:05:00 1.6 C 5.08 g/m*3 1.6 C 0 km/h
572 24-02-2014 03:10:00 1.4 C 5.01 g/m*3 1.4 C 0 km/h
573 24-02-2014 03:15:00 1.4 C 5.01 g/m*3 1.4 C 0 km/h
574 24-02-2014 03:20:00 1.4 C 5.01 g/m*3 1.4 C 0 km/h
575 24-02-2014 03:25:00 1.3 C 4.98 g/m*3 1.3 C 0 km/h
Sensor: Nr:Datum:Temp:Abs-Feuchte:Windchill:Wind:
Aussen-T/F 576 24-02-2014 03:30:00 1.2 C 4.95 g/m*3 1.2 C 0 km/h
577 24-02-2014 03:35:00 1.2 C 5 g/m*3 1.2 C 0 km/h
578 24-02-2014 03:40:00 1.1 C 4.91 g/m*3 1.1 C 0 km/h
579 24-02-2014 03:45:00 1.1 C 4.96 g/m*3 1.1 C 0 km/h
580 24-02-2014 03:50:00 1.1 C 4.96 g/m*3 1.1 C 0 km/h
581 24-02-2014 03:55:00 1.1 C 4.96 g/m*3 1.1 C 0 km/h
582 24-02-2014 04:00:00 0.9 C 4.9 g/m*3 0.9 C 0 km/h
583 24-02-2014 04:05:00 0.9 C 4.9 g/m*3 0.9 C 0 km/h
584 24-02-2014 04:10:00 0.8 C 4.86 g/m*3 0.8 C 0 km/h
585 24-02-2014 04:15:00 0.7 C 4.83 g/m*3 0.7 C 0 km/h
586 24-02-2014 04:20:00 0.6 C 4.8 g/m*3 0.6 C 0 km/h
587 24-02-2014 04:25:00 0.6 C 4.8 g/m*3 0.6 C 0 km/h
588 24-02-2014 04:30:00 0.6 C 4.8 g/m*3 0.6 C 0 km/h
589 24-02-2014 04:35:00 0.5 C 4.76 g/m*3 0.5 C 0 km/h
590 24-02-2014 04:40:00 0.5 C 4.76 g/m*3 0.5 C 0 km/h
591 24-02-2014 04:45:00 0.5 C 4.76 g/m*3 0.5 C 0 km/h
592 24-02-2014 04:50:00 0.4 C 4.73 g/m*3 0.4 C 0 km/h
593 24-02-2014 04:55:00 0.4 C 4.73 g/m*3 0.4 C 0 km/h
594 24-02-2014 05:00:00 0.3 C 4.7 g/m*3 0.3 C 0 km/h
595 24-02-2014 05:05:00 0.3 C 4.75 g/m*3 0.3 C 0 km/h
596 24-02-2014 05:10:00 0.3 C 4.75 g/m*3 0.3 C 0 km/h
597 24-02-2014 05:15:00 0.2 C 4.72 g/m*3 0.2 C 0 km/h
598 24-02-2014 05:20:00 0.2 C 4.67 g/m*3 0.2 C 0 km/h
599 24-02-2014 05:25:00 0.2 C 4.67 g/m*3 0.2 C 0 km/h
600 24-02-2014 05:30:00 0.1 C 4.68 g/m*3 0.1 C 0 km/h
Sensor: Nr:Datum:Temp:Abs-Feuchte:Windchill:Wind:
Aussen-T/F 601 24-02-2014 05:35:00 0.1 C 4.68 g/m*3 0.1 C 0 km/h
602 24-02-2014 05:40:00 0.1 C 4.68 g/m*3 0.1 C 0 km/h
603 24-02-2014 05:45:00 0.1 C 4.68 g/m*3 0.1 C 0 km/h
604 24-02-2014 05:50:00 0 C 4.65 g/m*3 0 C 0 km/h
605 24-02-2014 05:55:00 0 C 4.65 g/m*3 0 C 0 km/h
606 24-02-2014 06:00:00 -0.1 C 4.62 g/m*3 -0.1 C 0 km/h
607 24-02-2014 06:05:00 -0.1 C 4.62 g/m*3 -0.1 C 1.6 km/h
608 24-02-2014 06:10:00 -0.1 C 4.62 g/m*3 -0.1 C 3.2 km/h
609 24-02-2014 06:15:00 -0.1 C 4.62 g/m*3 -0.1 C 0 km/h
610 24-02-2014 06:20:00 -0.2 C 4.59 g/m*3 -0.2 C 0 km/h
611 24-02-2014 06:25:00 -0.3 C 4.56 g/m*3 -0.3 C 0 km/h
612 24-02-2014 06:30:00 -0.3 C 4.56 g/m*3 -0.3 C 0 km/h
613 24-02-2014 06:35:00 -0.4 C 4.52 g/m*3 -0.4 C 0 km/h
614 24-02-2014 06:40:00 -0.5 C 4.49 g/m*3 -0.5 C 0 km/h
615 24-02-2014 06:45:00 -0.5 C 4.49 g/m*3 -0.5 C 3.2 km/h
616 24-02-2014 06:50:00 -0.4 C 4.52 g/m*3 -0.4 C 1.6 km/h
617 24-02-2014 06:55:00 -0.5 C 4.49 g/m*3 -0.5 C 0 km/h
618 24-02-2014 07:00:00 -0.6 C 4.46 g/m*3 -0.6 C 0 km/h
619 24-02-2014 07:05:00 -0.6 C 4.46 g/m*3 -0.6 C 0 km/h
620 24-02-2014 07:10:00 -0.6 C 4.46 g/m*3 -0.6 C 0 km/h
621 24-02-2014 07:15:00 -0.6 C 4.46 g/m*3 -0.6 C 0 km/h
622 24-02-2014 07:20:00 -0.6 C 4.46 g/m*3 -0.6 C 0 km/h
623 24-02-2014 07:25:00 -0.6 C 4.46 g/m*3 -0.6 C 1.6 km/h
624 24-02-2014 07:30:00 -0.5 C 4.49 g/m*3 -0.5 C 0 km/h
625 24-02-2014 07:35:00 -0.6 C 4.46 g/m*3 -0.6 C 1.6 km/h
Sensor: Nr:Datum:Temp:Abs-Feuchte:Windchill:Wind:
Aussen-T/F 626 24-02-2014 07:40:00 -0.5 C 4.49 g/m*3 -0.5 C 1.6 km/h
627 24-02-2014 07:45:00 -0.5 C 4.49 g/m*3 -0.5 C 0 km/h
628 24-02-2014 07:50:00 -0.5 C 4.49 g/m*3 -0.5 C 0 km/h
629 24-02-2014 07:55:00 -0.5 C 4.49 g/m*3 -0.5 C 0 km/h
630 24-02-2014 08:00:00 -0.4 C 4.52 g/m*3 -2.64 C 6.4 km/h
631 24-02-2014 08:05:00 -0.4 C 4.52 g/m*3 -0.4 C 3.2 km/h
632 24-02-2014 08:10:00 -0.4 C 4.57 g/m*3 -0.4 C 1.6 km/h
633 24-02-2014 08:15:00 -0.1 C 4.67 g/m*3 -2.89 C 8.1 km/h
634 24-02-2014 08:20:00 0.2 C 4.77 g/m*3 0.2 C 3.2 km/h
635 24-02-2014 08:25:00 0.5 C 4.86 g/m*3 0.5 C 4.8 km/h
636 24-02-2014 08:30:00 0.7 C 4.93 g/m*3 0.7 C 4.8 km/h
637 24-02-2014 08:35:00 1.2 C 5.1 g/m*3 -0.8 C 6.4 km/h
638 24-02-2014 08:40:00 1.5 C 5.26 g/m*3 -0.45 C 6.4 km/h
639 24-02-2014 08:45:00 1.6 C 5.25 g/m*3 1.6 C 0 km/h
640 24-02-2014 08:50:00 1.6 C 5.25 g/m*3 1.6 C 0 km/h
641 24-02-2014 08:55:00 1.7 C 5.28 g/m*3 1.7 C 3.2 km/h
642 24-02-2014 09:00:00 1.8 C 5.32 g/m*3 1.8 C 4.8 km/h
643 24-02-2014 09:05:00 2.2 C 5.46 g/m*3 0.36 C 6.4 km/h
644 24-02-2014 09:10:00 2.4 C 5.54 g/m*3 -0.37 C 9.7 km/h
645 24-02-2014 09:15:00 3.2 C 5.79 g/m*3 -0.1 C 12.9 km/h
646 24-02-2014 09:20:00 4.2 C 5.8 g/m*3 1.43 C 11.3 km/h
647 24-02-2014 09:25:00 4.9 C 5.74 g/m*3 2.99 C 8.1 km/h
648 24-02-2014 09:30:00 5.3 C 5.68 g/m*3 3.46 C 8.1 km/h
649 24-02-2014 09:35:00 5.6 C 5.66 g/m*3 3.81 C 8.1 km/h
650 24-02-2014 09:40:00 5.7 C 5.62 g/m*3 4.4 C 6.4 km/h
Sensor: Nr:Datum:Temp:Abs-Feuchte:Windchill:Wind:
Aussen-T/F 651 24-02-2014 09:45:00 6 C 5.66 g/m*3 4.28 C 8.1 km/h
652 24-02-2014 09:50:00 6.1 C 5.63 g/m*3 4.86 C 6.4 km/h
653 24-02-2014 09:55:00 6.1 C 5.7 g/m*3 6.1 C 3.2 km/h
654 24-02-2014 10:00:00 6 C 5.66 g/m*3 6 C 3.2 km/h
655 24-02-2014 10:05:00 5.9 C 5.7 g/m*3 4.63 C 6.4 km/h
656 24-02-2014 10:10:00 5.8 C 5.8 g/m*3 4.52 C 6.4 km/h
657 24-02-2014 10:15:00 5.8 C 5.73 g/m*3 4.05 C 8.1 km/h
658 24-02-2014 10:20:00 6 C 5.73 g/m*3 3.92 C 9.7 km/h
659 24-02-2014 10:25:00 6.2 C 5.81 g/m*3 4.15 C 9.7 km/h
660 24-02-2014 10:30:00 6.3 C 5.77 g/m*3 4.64 C 8.1 km/h
661 24-02-2014 10:35:00 6.4 C 5.89 g/m*3 6.4 C 3.2 km/h
662 24-02-2014 10:40:00 6.6 C 5.74 g/m*3 4.99 C 8.1 km/h
663 24-02-2014 10:45:00 6.8 C 6.04 g/m*3 6.8 C 4.8 km/h
664 24-02-2014 10:50:00 6.8 C 5.89 g/m*3 4.56 C 11.3 km/h
665 24-02-2014 10:55:00 7.2 C 6.12 g/m*3 5.69 C 8.1 km/h
666 24-02-2014 11:00:00 7.4 C 5.88 g/m*3 6.37 C 6.4 km/h
667 24-02-2014 11:05:00 7.4 C 5.96 g/m*3 7.4 C 4.8 km/h
668 24-02-2014 11:10:00 7.6 C 5.96 g/m*3 6.6 C 6.4 km/h
669 24-02-2014 11:15:00 7.3 C 6.16 g/m*3 7.3 C 1.6 km/h
670 24-02-2014 11:20:00 7.1 C 6.08 g/m*3 7.1 C 4.8 km/h
671 24-02-2014 11:25:00 7.3 C 6.16 g/m*3 7.3 C 3.2 km/h
672 24-02-2014 11:30:00 7.4 C 6.12 g/m*3 7.4 C 4.8 km/h
673 24-02-2014 11:35:00 7.7 C 6.41 g/m*3 7.7 C 3.2 km/h
674 24-02-2014 11:40:00 7.8 C 6.37 g/m*3 7.8 C 4.8 km/h
675 24-02-2014 11:45:00 7.9 C 6.49 g/m*3 6.52 C 8.1 km/h
Sensor: Nr:Datum:Temp:Abs-Feuchte:Windchill:Wind:
Aussen-T/F 676 24-02-2014 11:50:00 8.2 C 6.28 g/m*3 6.54 C 9.7 km/h
677 24-02-2014 11:55:00 8.7 C 6.14 g/m*3 6.85 C 11.3 km/h
678 24-02-2014 12:00:00 9.2 C 5.98 g/m*3 8.05 C 8.1 km/h
679 24-02-2014 12:05:00 9.6 C 6.23 g/m*3 8.52 C 8.1 km/h
680 24-02-2014 12:10:00 10 C 6.11 g/m*3 8.68 C 9.7 km/h
681 24-02-2014 12:15:00 10.3 C 6.13 g/m*3 9.72 C 6.4 km/h
682 24-02-2014 12:20:00 10.4 C 6.17 g/m*3 9.83 C 6.4 km/h
683 24-02-2014 12:25:00 10.7 C 6.38 g/m*3 9.81 C 8.1 km/h
684 24-02-2014 12:30:00 10.6 C 6.54 g/m*3 10.6 C 4.8 km/h
685 24-02-2014 12:35:00 10.6 C 6.15 g/m*3 10.06 C 6.4 km/h
686 24-02-2014 12:40:00 11.1 C 6.45 g/m*3 11.1 C 3.2 km/h
687 24-02-2014 12:45:00 11.5 C 6.3 g/m*3 11.5 C 3.2 km/h
688 24-02-2014 12:50:00 11.9 C 6.88 g/m*3 11.9 C 4.8 km/h
689 24-02-2014 12:55:00 12 C 6.71 g/m*3 12 C 3.2 km/h
690 24-02-2014 13:00:00 12.2 C 7.12 g/m*3 12.2 C 4.8 km/h
691 24-02-2014 13:05:00 12.4 C 6.23 g/m*3 12.4 C 6.4 km/h
692 24-02-2014 13:10:00 12.6 C 5.97 g/m*3 12.6 C 9.7 km/h
693 24-02-2014 13:15:00 12.8 C 6.27 g/m*3 12.8 C 9.7 km/h
694 24-02-2014 13:20:00 13 C 6.35 g/m*3 13 C 8.1 km/h
695 24-02-2014 13:25:00 13.3 C 6.47 g/m*3 13.3 C 4.8 km/h
696 24-02-2014 13:30:00 13.3 C 6.7 g/m*3 13.3 C 8.1 km/h
697 24-02-2014 13:35:00 13.4 C 6.28 g/m*3 13.4 C 6.4 km/h
698 24-02-2014 13:40:00 13.3 C 6.12 g/m*3 13.3 C 12.9 km/h
699 24-02-2014 13:45:00 13.2 C 6.43 g/m*3 13.2 C 9.7 km/h
700 24-02-2014 13:50:00 13.2 C 6.54 g/m*3 13.2 C 6.4 km/h
Sensor: Nr:Datum:Temp:Abs-Feuchte:Windchill:Wind:
Aussen-T/F 701 24-02-2014 13:55:00 13.1 C 6.28 g/m*3 13.1 C 6.4 km/h
702 24-02-2014 14:00:00 13.2 C 6.43 g/m*3 13.2 C 12.9 km/h
703 24-02-2014 14:05:00 13.2 C 6.32 g/m*3 13.2 C 8.1 km/h
704 24-02-2014 14:10:00 13.3 C 6.35 g/m*3 13.3 C 8.1 km/h
705 24-02-2014 14:15:00 13.3 C 6.01 g/m*3 13.3 C 4.8 km/h
706 24-02-2014 14:20:00 13.4 C 6.28 g/m*3 13.4 C 9.7 km/h
707 24-02-2014 14:25:00 13.6 C 6.24 g/m*3 13.6 C 6.4 km/h
708 24-02-2014 14:30:00 13.7 C 6.39 g/m*3 13.7 C 6.4 km/h
709 24-02-2014 14:35:00 13.8 C 6.43 g/m*3 13.8 C 12.9 km/h
710 24-02-2014 14:40:00 13.8 C 6.43 g/m*3 13.8 C 3.2 km/h
711 24-02-2014 14:45:00 13.9 C 6.47 g/m*3 13.9 C 3.2 km/h
712 24-02-2014 14:50:00 14 C 6.39 g/m*3 14 C 8.1 km/h
713 24-02-2014 14:55:00 13.9 C 6.59 g/m*3 13.9 C 4.8 km/h
714 24-02-2014 15:00:00 13.9 C 6.71 g/m*3 13.9 C 4.8 km/h
715 24-02-2014 15:05:00 13.9 C 6.35 g/m*3 13.9 C 8.1 km/h
716 24-02-2014 15:10:00 13.7 C 6.87 g/m*3 13.7 C 1.6 km/h
717 24-02-2014 15:15:00 13.5 C 6.43 g/m*3 13.5 C 4.8 km/h
718 24-02-2014 15:20:00 13.8 C 6.2 g/m*3 13.8 C 9.7 km/h
719 24-02-2014 15:25:00 14 C 5.91 g/m*3 14 C 22.5 km/h
720 24-02-2014 15:30:00 14.1 C 6.07 g/m*3 14.1 C 22.5 km/h
721 24-02-2014 15:35:00 14.2 C 6.35 g/m*3 14.2 C 9.7 km/h
722 24-02-2014 15:40:00 14.3 C 6.63 g/m*3 14.3 C 4.8 km/h
723 24-02-2014 15:45:00 14.3 C 6.39 g/m*3 14.3 C 4.8 km/h
724 24-02-2014 15:50:00 14.2 C 6.35 g/m*3 14.2 C 9.7 km/h
725 24-02-2014 15:55:00 14 C 6.51 g/m*3 14 C 6.4 km/h
Sensor: Nr:Datum:Temp:Abs-Feuchte:Windchill:Wind:
Aussen-T/F 726 24-02-2014 16:00:00 13.9 C 6.23 g/m*3 13.9 C 4.8 km/h
727 24-02-2014 16:05:00 13.8 C 6.31 g/m*3 13.8 C 6.4 km/h
728 24-02-2014 16:10:00 13.7 C 6.39 g/m*3 13.7 C 6.4 km/h
729 24-02-2014 16:15:00 13.6 C 6.24 g/m*3 13.6 C 6.4 km/h
730 24-02-2014 16:20:00 13.6 C 6.71 g/m*3 13.6 C 3.2 km/h
731 24-02-2014 16:25:00 13.5 C 6.43 g/m*3 13.5 C 6.4 km/h
732 24-02-2014 16:30:00 13.3 C 6.47 g/m*3 13.3 C 6.4 km/h
733 24-02-2014 16:35:00 13.2 C 6.32 g/m*3 13.2 C 4.8 km/h
734 24-02-2014 16:40:00 13 C 6.35 g/m*3 13 C 4.8 km/h
735 24-02-2014 16:45:00 12.9 C 6.31 g/m*3 12.9 C 6.4 km/h
736 24-02-2014 16:50:00 12.8 C 6.38 g/m*3 12.8 C 6.4 km/h
737 24-02-2014 16:55:00 12.8 C 6.38 g/m*3 12.8 C 3.2 km/h
738 24-02-2014 17:00:00 12.7 C 6.35 g/m*3 12.7 C 9.7 km/h
739 24-02-2014 17:05:00 12.6 C 6.31 g/m*3 12.6 C 4.8 km/h
740 24-02-2014 17:10:00 12.6 C 6.42 g/m*3 12.6 C 3.2 km/h
741 24-02-2014 17:15:00 12.3 C 6.19 g/m*3 12.3 C 3.2 km/h
742 24-02-2014 17:20:00 12.2 C 6.26 g/m*3 12.2 C 3.2 km/h
743 24-02-2014 17:25:00 12.1 C 6.33 g/m*3 12.1 C 4.8 km/h
744 24-02-2014 17:30:00 11.8 C 6.31 g/m*3 11.8 C 4.8 km/h
745 24-02-2014 17:35:00 11.7 C 6.17 g/m*3 11.7 C 8.1 km/h
746 24-02-2014 17:40:00 11.3 C 6.43 g/m*3 11.3 C 1.6 km/h
747 24-02-2014 17:45:00 11 C 6.61 g/m*3 10.52 C 6.4 km/h
748 24-02-2014 17:50:00 10.3 C 6.61 g/m*3 10.3 C 4.8 km/h
749 24-02-2014 17:55:00 9.7 C 6.55 g/m*3 9.7 C 3.2 km/h
750 24-02-2014 18:00:00 9.2 C 6.52 g/m*3 9.2 C 4.8 km/h
Sensor: Nr:Datum:Temp:Abs-Feuchte:Windchill:Wind:
Aussen-T/F 751 24-02-2014 18:05:00 8.8 C 6.53 g/m*3 8.8 C 4.8 km/h
752 24-02-2014 18:10:00 8.6 C 6.44 g/m*3 8.6 C 1.6 km/h
753 24-02-2014 18:15:00 8.3 C 6.41 g/m*3 7.41 C 6.4 km/h
754 24-02-2014 18:20:00 8.1 C 6.41 g/m*3 8.1 C 4.8 km/h
755 24-02-2014 18:25:00 7.8 C 6.37 g/m*3 7.8 C 4.8 km/h
756 24-02-2014 18:30:00 7.7 C 6.41 g/m*3 6.71 C 6.4 km/h
757 24-02-2014 18:35:00 7.4 C 6.28 g/m*3 7.4 C 4.8 km/h
758 24-02-2014 18:40:00 7.3 C 6.32 g/m*3 7.3 C 3.2 km/h
759 24-02-2014 18:45:00 7.3 C 6.32 g/m*3 7.3 C 4.8 km/h
760 24-02-2014 18:50:00 7.2 C 6.28 g/m*3 7.2 C 4.8 km/h
761 24-02-2014 18:55:00 7.1 C 6.32 g/m*3 7.1 C 4.8 km/h
762 24-02-2014 19:00:00 7 C 6.28 g/m*3 7 C 4.8 km/h
763 24-02-2014 19:05:00 7 C 6.28 g/m*3 7 C 4.8 km/h
764 24-02-2014 19:10:00 6.9 C 6.31 g/m*3 5.79 C 6.4 km/h
765 24-02-2014 19:15:00 6.8 C 6.27 g/m*3 5.67 C 6.4 km/h
766 24-02-2014 19:20:00 6.8 C 6.27 g/m*3 6.8 C 4.8 km/h
767 24-02-2014 19:25:00 6.8 C 6.27 g/m*3 5.67 C 6.4 km/h
768 24-02-2014 19:30:00 6.9 C 6.31 g/m*3 6.9 C 4.8 km/h
769 24-02-2014 19:35:00 6.8 C 6.27 g/m*3 5.22 C 8.1 km/h
770 24-02-2014 19:40:00 6.7 C 6.23 g/m*3 5.56 C 6.4 km/h
771 24-02-2014 19:45:00 6.7 C 6.23 g/m*3 5.56 C 6.4 km/h
772 24-02-2014 19:50:00 6.6 C 6.27 g/m*3 4.99 C 8.1 km/h
773 24-02-2014 19:55:00 6.7 C 6.23 g/m*3 5.56 C 6.4 km/h
774 24-02-2014 20:00:00 6.6 C 6.27 g/m*3 6.6 C 4.8 km/h
775 24-02-2014 20:05:00 6.5 C 6.22 g/m*3 5.33 C 6.4 km/h
Sensor: Nr:Datum:Temp:Abs-Feuchte:Windchill:Wind:
Aussen-T/F 776 24-02-2014 20:10:00 6.5 C 6.22 g/m*3 5.33 C 6.4 km/h
777 24-02-2014 20:15:00 6.4 C 6.26 g/m*3 5.21 C 6.4 km/h
778 24-02-2014 20:20:00 6.3 C 6.22 g/m*3 5.1 C 6.4 km/h
779 24-02-2014 20:25:00 6.2 C 6.18 g/m*3 6.2 C 4.8 km/h
780 24-02-2014 20:30:00 6.2 C 6.18 g/m*3 6.2 C 4.8 km/h
781 24-02-2014 20:35:00 6.2 C 6.18 g/m*3 6.2 C 4.8 km/h
782 24-02-2014 20:40:00 6.2 C 6.25 g/m*3 6.2 C 4.8 km/h
783 24-02-2014 20:45:00 6.2 C 6.18 g/m*3 6.2 C 4.8 km/h
784 24-02-2014 20:50:00 6.2 C 6.18 g/m*3 6.2 C 4.8 km/h
785 24-02-2014 20:55:00 6.2 C 6.18 g/m*3 6.2 C 3.2 km/h
786 24-02-2014 21:00:00 6.1 C 6.14 g/m*3 6.1 C 4.8 km/h
787 24-02-2014 21:05:00 6.1 C 6.14 g/m*3 6.1 C 4.8 km/h
788 24-02-2014 21:10:00 6.1 C 6.14 g/m*3 6.1 C 4.8 km/h
789 24-02-2014 21:15:00 6.1 C 6.14 g/m*3 6.1 C 4.8 km/h
790 24-02-2014 21:20:00 6 C 6.1 g/m*3 6 C 4.8 km/h
791 24-02-2014 21:25:00 6 C 6.1 g/m*3 6 C 1.6 km/h
792 24-02-2014 21:30:00 5.9 C 5.98 g/m*3 5.9 C 1.6 km/h
793 24-02-2014 21:35:00 5.8 C 6.02 g/m*3 5.8 C 0 km/h
794 24-02-2014 21:40:00 5.6 C 6.08 g/m*3 5.6 C 3.2 km/h
795 24-02-2014 21:45:00 5.3 C 5.96 g/m*3 5.3 C 3.2 km/h
796 24-02-2014 21:50:00 5.2 C 5.92 g/m*3 5.2 C 3.2 km/h
797 24-02-2014 21:55:00 5.1 C 5.95 g/m*3 5.1 C 4.8 km/h
798 24-02-2014 22:00:00 5.1 C 6.02 g/m*3 5.1 C 3.2 km/h
799 24-02-2014 22:05:00 5 C 5.98 g/m*3 5 C 0 km/h
800 24-02-2014 22:10:00 5.1 C 6.02 g/m*3 5.1 C 0 km/h
Sensor: Nr:Datum:Temp:Abs-Feuchte:Windchill:Wind:
Aussen-T/F 801 24-02-2014 22:15:00 5 C 5.98 g/m*3 5 C 0 km/h
802 24-02-2014 22:20:00 4.9 C 5.94 g/m*3 4.9 C 1.6 km/h
803 24-02-2014 22:25:00 4.9 C 5.94 g/m*3 4.9 C 0 km/h
804 24-02-2014 22:30:00 4.9 C 5.94 g/m*3 4.9 C 1.6 km/h
805 24-02-2014 22:35:00 4.8 C 5.9 g/m*3 4.8 C 0 km/h
806 24-02-2014 22:40:00 4.8 C 5.9 g/m*3 4.8 C 0 km/h
807 24-02-2014 22:45:00 4.8 C 5.9 g/m*3 4.8 C 0 km/h
808 24-02-2014 22:50:00 4.7 C 5.8 g/m*3 4.7 C 0 km/h
809 24-02-2014 22:55:00 4.7 C 5.8 g/m*3 4.7 C 0 km/h
810 24-02-2014 23:00:00 4.5 C 5.78 g/m*3 4.5 C 0 km/h
811 24-02-2014 23:05:00 4.4 C 5.81 g/m*3 4.4 C 0 km/h
812 24-02-2014 23:10:00 4.4 C 5.81 g/m*3 4.4 C 3.2 km/h
813 24-02-2014 23:15:00 4.4 C 5.81 g/m*3 4.4 C 1.6 km/h
814 24-02-2014 23:20:00 4.4 C 5.81 g/m*3 4.4 C 0 km/h
815 24-02-2014 23:25:00 4.4 C 5.81 g/m*3 4.4 C 1.6 km/h
816 24-02-2014 23:30:00 4.5 C 5.78 g/m*3 4.5 C 0 km/h
817 24-02-2014 23:35:00 4.4 C 5.75 g/m*3 4.4 C 0 km/h
818 24-02-2014 23:40:00 4.3 C 5.71 g/m*3 4.3 C 0 km/h
819 24-02-2014 23:45:00 4.2 C 5.67 g/m*3 4.2 C 0 km/h
820 24-02-2014 23:50:00 4 C 5.59 g/m*3 4 C 0 km/h
821 24-02-2014 23:55:00 4 C 5.66 g/m*3 4 C 0 km/h
822 25-02-2014 00:00:00 4 C 5.72 g/m*3 4 C 3.2 km/h
823 25-02-2014 00:05:00 4 C 5.72 g/m*3 4 C 1.6 km/h
824 25-02-2014 00:10:00 3.9 C 5.62 g/m*3 3.9 C 1.6 km/h
825 25-02-2014 00:15:00 4 C 5.72 g/m*3 4 C 1.6 km/h
Sensor: Nr:Datum:Temp:Abs-Feuchte:Windchill:Wind:
Aussen-T/F 826 25-02-2014 00:20:00 3.9 C 5.68 g/m*3 3.9 C 3.2 km/h
827 25-02-2014 00:25:00 3.9 C 5.68 g/m*3 3.9 C 1.6 km/h
828 25-02-2014 00:30:00 3.8 C 5.65 g/m*3 3.8 C 0 km/h
829 25-02-2014 00:35:00 3.7 C 5.55 g/m*3 3.7 C 0 km/h
830 25-02-2014 00:40:00 3.6 C 5.57 g/m*3 3.6 C 0 km/h
831 25-02-2014 00:45:00 3.6 C 5.57 g/m*3 3.6 C 0 km/h
832 25-02-2014 00:50:00 3.6 C 5.57 g/m*3 3.6 C 0 km/h
833 25-02-2014 00:55:00 3.5 C 5.6 g/m*3 3.5 C 0 km/h
834 25-02-2014 01:00:00 3.4 C 5.56 g/m*3 3.4 C 0 km/h
835 25-02-2014 01:05:00 3.4 C 5.56 g/m*3 3.4 C 0 km/h
836 25-02-2014 01:10:00 3.5 C 5.6 g/m*3 3.5 C 0 km/h
837 25-02-2014 01:15:00 3.4 C 5.56 g/m*3 3.4 C 0 km/h
838 25-02-2014 01:20:00 3.3 C 5.52 g/m*3 3.3 C 0 km/h
839 25-02-2014 01:25:00 3.3 C 5.52 g/m*3 3.3 C 0 km/h
840 25-02-2014 01:30:00 3.2 C 5.48 g/m*3 3.2 C 0 km/h
841 25-02-2014 01:35:00 3.1 C 5.51 g/m*3 3.1 C 0 km/h
842 25-02-2014 01:40:00 3.1 C 5.51 g/m*3 3.1 C 0 km/h
843 25-02-2014 01:45:00 3.1 C 5.51 g/m*3 3.1 C 0 km/h
844 25-02-2014 01:50:00 3.1 C 5.51 g/m*3 3.1 C 0 km/h
845 25-02-2014 01:55:00 3 C 5.47 g/m*3 3 C 0 km/h
846 25-02-2014 02:00:00 2.9 C 5.43 g/m*3 2.9 C 0 km/h
847 25-02-2014 02:05:00 2.8 C 5.4 g/m*3 2.8 C 0 km/h
848 25-02-2014 02:10:00 2.8 C 5.4 g/m*3 2.8 C 1.6 km/h
849 25-02-2014 02:15:00 2.8 C 5.4 g/m*3 2.8 C 1.6 km/h
850 25-02-2014 02:20:00 2.8 C 5.4 g/m*3 2.8 C 0 km/h
Sensor: Nr:Datum:Temp:Abs-Feuchte:Windchill:Wind:
Aussen-T/F 851 25-02-2014 02:25:00 2.7 C 5.42 g/m*3 2.7 C 0 km/h
852 25-02-2014 02:30:00 2.7 C 5.42 g/m*3 2.7 C 0 km/h
853 25-02-2014 02:35:00 2.7 C 5.42 g/m*3 2.7 C 0 km/h
854 25-02-2014 02:40:00 2.7 C 5.42 g/m*3 2.7 C 1.6 km/h
855 25-02-2014 02:45:00 2.6 C 5.38 g/m*3 2.6 C 0 km/h
856 25-02-2014 02:50:00 2.6 C 5.38 g/m*3 2.6 C 0 km/h
857 25-02-2014 02:55:00 2.6 C 5.38 g/m*3 2.6 C 0 km/h
858 25-02-2014 03:00:00 2.4 C 5.31 g/m*3 2.4 C 0 km/h
859 25-02-2014 03:05:00 2.3 C 5.27 g/m*3 2.3 C 0 km/h
860 25-02-2014 03:10:00 2.3 C 5.27 g/m*3 2.3 C 1.6 km/h
861 25-02-2014 03:15:00 2.3 C 5.27 g/m*3 2.3 C 0 km/h
862 25-02-2014 03:20:00 2.2 C 5.29 g/m*3 2.2 C 0 km/h
863 25-02-2014 03:25:00 2.2 C 5.24 g/m*3 2.2 C 0 km/h
864 25-02-2014 03:30:00 2.1 C 5.26 g/m*3 2.1 C 0 km/h
865 25-02-2014 03:35:00 2.1 C 5.26 g/m*3 2.1 C 0 km/h
866 25-02-2014 03:40:00 2.1 C 5.26 g/m*3 2.1 C 0 km/h
867 25-02-2014 03:45:00 2.1 C 5.26 g/m*3 2.1 C 0 km/h
868 25-02-2014 03:50:00 2 C 5.22 g/m*3 2 C 0 km/h
869 25-02-2014 03:55:00 2 C 5.22 g/m*3 2 C 0 km/h
870 25-02-2014 04:00:00 1.9 C 5.19 g/m*3 1.9 C 0 km/h
871 25-02-2014 04:05:00 1.9 C 5.19 g/m*3 1.9 C 0 km/h
872 25-02-2014 04:10:00 1.9 C 5.19 g/m*3 1.9 C 0 km/h
873 25-02-2014 04:15:00 1.8 C 5.15 g/m*3 1.8 C 0 km/h
874 25-02-2014 04:20:00 1.8 C 5.15 g/m*3 1.8 C 0 km/h
875 25-02-2014 04:25:00 1.8 C 5.15 g/m*3 1.8 C 0 km/h
Sensor: Nr:Datum:Temp:Abs-Feuchte:Windchill:Wind:
Aussen-T/F 876 25-02-2014 04:30:00 1.7 C 5.12 g/m*3 1.7 C 0 km/h
877 25-02-2014 04:35:00 1.7 C 5.17 g/m*3 1.7 C 0 km/h
878 25-02-2014 04:40:00 1.7 C 5.17 g/m*3 1.7 C 0 km/h
879 25-02-2014 04:45:00 1.6 C 5.14 g/m*3 1.6 C 0 km/h
880 25-02-2014 04:50:00 1.6 C 5.14 g/m*3 1.6 C 0 km/h
881 25-02-2014 04:55:00 1.6 C 5.14 g/m*3 1.6 C 0 km/h
882 25-02-2014 05:00:00 1.5 C 5.1 g/m*3 1.5 C 0 km/h
883 25-02-2014 05:05:00 1.5 C 5.1 g/m*3 1.5 C 0 km/h
884 25-02-2014 05:10:00 1.6 C 5.14 g/m*3 1.6 C 0 km/h
885 25-02-2014 05:15:00 1.6 C 5.14 g/m*3 1.6 C 0 km/h
886 25-02-2014 05:20:00 1.6 C 5.14 g/m*3 1.6 C 0 km/h
887 25-02-2014 05:25:00 1.6 C 5.14 g/m*3 1.6 C 0 km/h
888 25-02-2014 05:30:00 1.6 C 5.14 g/m*3 1.6 C 0 km/h
889 25-02-2014 05:35:00 1.6 C 5.14 g/m*3 1.6 C 0 km/h
890 25-02-2014 05:40:00 1.6 C 5.14 g/m*3 1.6 C 0 km/h
891 25-02-2014 05:45:00 1.6 C 5.14 g/m*3 1.6 C 0 km/h
892 25-02-2014 05:50:00 1.5 C 5.1 g/m*3 1.5 C 0 km/h
893 25-02-2014 05:55:00 1.4 C 5.07 g/m*3 1.4 C 0 km/h
894 25-02-2014 06:00:00 1.4 C 5.07 g/m*3 1.4 C 0 km/h
895 25-02-2014 06:05:00 1.5 C 5.1 g/m*3 1.5 C 0 km/h
896 25-02-2014 06:10:00 1.5 C 5.16 g/m*3 1.5 C 0 km/h
897 25-02-2014 06:15:00 1.4 C 5.07 g/m*3 1.4 C 0 km/h
898 25-02-2014 06:20:00 1.3 C 5.03 g/m*3 1.3 C 0 km/h
899 25-02-2014 06:25:00 1.2 C 5 g/m*3 1.2 C 0 km/h
900 25-02-2014 06:30:00 1.2 C 5 g/m*3 1.2 C 0 km/h
Sensor: Nr:Datum:Temp:Abs-Feuchte:Windchill:Wind:
Aussen-T/F 901 25-02-2014 06:35:00 1.2 C 5 g/m*3 1.2 C 0 km/h
902 25-02-2014 06:40:00 1.1 C 4.96 g/m*3 1.1 C 0 km/h
903 25-02-2014 06:45:00 1.1 C 4.96 g/m*3 1.1 C 0 km/h
904 25-02-2014 06:50:00 1.1 C 5.02 g/m*3 1.1 C 0 km/h
905 25-02-2014 06:55:00 1.2 C 5.05 g/m*3 1.2 C 0 km/h
906 25-02-2014 07:00:00 1.3 C 5.09 g/m*3 1.3 C 0 km/h
907 25-02-2014 07:05:00 1.3 C 5.09 g/m*3 1.3 C 1.6 km/h
908 25-02-2014 07:10:00 1.4 C 5.12 g/m*3 1.4 C 0 km/h
909 25-02-2014 07:15:00 1.4 C 5.12 g/m*3 1.4 C 0 km/h
910 25-02-2014 07:20:00 1.4 C 5.12 g/m*3 1.4 C 0 km/h
911 25-02-2014 07:25:00 1.5 C 5.16 g/m*3 1.5 C 0 km/h
912 25-02-2014 07:30:00 1.5 C 5.16 g/m*3 1.5 C 0 km/h
913 25-02-2014 07:35:00 1.6 C 5.19 g/m*3 1.6 C 0 km/h
914 25-02-2014 07:40:00 1.6 C 5.19 g/m*3 1.6 C 0 km/h
915 25-02-2014 07:45:00 1.6 C 5.19 g/m*3 1.6 C 1.6 km/h
916 25-02-2014 07:50:00 1.7 C 5.23 g/m*3 1.7 C 1.6 km/h
917 25-02-2014 07:55:00 1.7 C 5.23 g/m*3 1.7 C 0 km/h
918 25-02-2014 08:00:00 1.7 C 5.23 g/m*3 1.7 C 0 km/h
919 25-02-2014 08:05:00 1.7 C 5.23 g/m*3 1.7 C 0 km/h
920 25-02-2014 08:10:00 1.8 C 5.26 g/m*3 1.8 C 1.6 km/h
921 25-02-2014 08:15:00 1.8 C 5.26 g/m*3 1.8 C 0 km/h
922 25-02-2014 08:20:00 1.8 C 5.26 g/m*3 1.8 C 0 km/h
923 25-02-2014 08:25:00 1.9 C 5.3 g/m*3 1.9 C 0 km/h
924 25-02-2014 08:30:00 1.9 C 5.3 g/m*3 1.9 C 0 km/h
925 25-02-2014 08:35:00 2.1 C 5.37 g/m*3 2.1 C 3.2 km/h
Sensor: Nr:Datum:Temp:Abs-Feuchte:Windchill:Wind:
Aussen-T/F 926 25-02-2014 08:40:00 2.1 C 5.37 g/m*3 2.1 C 0 km/h
927 25-02-2014 08:45:00 2.2 C 5.41 g/m*3 2.2 C 0 km/h
928 25-02-2014 08:50:00 2.3 C 5.44 g/m*3 2.3 C 0 km/h
929 25-02-2014 08:55:00 2.3 C 5.44 g/m*3 2.3 C 0 km/h
930 25-02-2014 09:00:00 2.4 C 5.48 g/m*3 2.4 C 0 km/h
931 25-02-2014 09:05:00 2.4 C 5.48 g/m*3 2.4 C 0 km/h
932 25-02-2014 09:10:00 2.5 C 5.52 g/m*3 2.5 C 0 km/h
933 25-02-2014 09:15:00 2.6 C 5.56 g/m*3 2.6 C 0 km/h
934 25-02-2014 09:20:00 2.8 C 5.69 g/m*3 2.8 C 0 km/h
935 25-02-2014 09:25:00 3 C 5.71 g/m*3 3 C 0 km/h
936 25-02-2014 09:30:00 3.2 C 5.85 g/m*3 3.2 C 0 km/h
937 25-02-2014 09:35:00 3.5 C 5.96 g/m*3 3.5 C 3.2 km/h
938 25-02-2014 09:40:00 3.8 C 6.09 g/m*3 3.8 C 3.2 km/h
939 25-02-2014 09:45:00 4.2 C 6.25 g/m*3 4.2 C 0 km/h
940 25-02-2014 09:50:00 4.5 C 6.31 g/m*3 4.5 C 3.2 km/h
941 25-02-2014 09:55:00 4.8 C 6.44 g/m*3 4.8 C 1.6 km/h
942 25-02-2014 10:00:00 5.1 C 6.5 g/m*3 5.1 C 3.2 km/h
943 25-02-2014 10:05:00 5.5 C 6.67 g/m*3 5.5 C 3.2 km/h
944 25-02-2014 10:10:00 5.9 C 6.78 g/m*3 5.9 C 1.6 km/h
945 25-02-2014 10:15:00 6.4 C 6.93 g/m*3 6.4 C 0 km/h
946 25-02-2014 10:20:00 6.8 C 6.96 g/m*3 6.8 C 1.6 km/h
947 25-02-2014 10:25:00 7.3 C 6.87 g/m*3 7.3 C 1.6 km/h
948 25-02-2014 10:30:00 7.9 C 6.74 g/m*3 6.94 C 6.4 km/h
949 25-02-2014 10:35:00 8.6 C 6.79 g/m*3 7.34 C 8.1 km/h
950 25-02-2014 10:40:00 9.1 C 6.65 g/m*3 9.1 C 4.8 km/h
Sensor: Nr:Datum:Temp:Abs-Feuchte:Windchill:Wind:
Aussen-T/F 951 25-02-2014 10:45:00 9.3 C 7.01 g/m*3 9.3 C 0 km/h
952 25-02-2014 10:50:00 9.5 C 6.55 g/m*3 9.5 C 4.8 km/h
953 25-02-2014 10:55:00 9.6 C 6.5 g/m*3 9.6 C 4.8 km/h
954 25-02-2014 11:00:00 9.7 C 6.45 g/m*3 8.63 C 8.1 km/h
955 25-02-2014 11:05:00 9.8 C 6.49 g/m*3 9.14 C 6.4 km/h
956 25-02-2014 11:10:00 9.8 C 6.4 g/m*3 9.14 C 6.4 km/h
957 25-02-2014 11:15:00 9.9 C 6.44 g/m*3 9.9 C 3.2 km/h
958 25-02-2014 11:20:00 10 C 6.67 g/m*3 10 C 3.2 km/h
959 25-02-2014 11:25:00 10.2 C 6.47 g/m*3 9.22 C 8.1 km/h
960 25-02-2014 11:30:00 10.4 C 6.55 g/m*3 10.4 C 4.8 km/h
961 25-02-2014 11:35:00 10.6 C 6.54 g/m*3 10.06 C 6.4 km/h
962 25-02-2014 11:40:00 10.7 C 6.68 g/m*3 10.18 C 6.4 km/h
963 25-02-2014 11:45:00 10.8 C 6.62 g/m*3 10.8 C 4.8 km/h
964 25-02-2014 11:50:00 11.1 C 6.65 g/m*3 11.1 C 11.3 km/h
965 25-02-2014 11:55:00 11.2 C 6.59 g/m*3 11.2 C 4.8 km/h
966 25-02-2014 12:00:00 11.3 C 6.73 g/m*3 11.3 C 3.2 km/h
967 25-02-2014 12:05:00 11.3 C 6.63 g/m*3 11.3 C 6.4 km/h
968 25-02-2014 12:10:00 11.4 C 6.67 g/m*3 11.4 C 6.4 km/h
969 25-02-2014 12:15:00 11.7 C 7.01 g/m*3 11.7 C 3.2 km/h
970 25-02-2014 12:20:00 11.8 C 6.63 g/m*3 11.8 C 6.4 km/h
971 25-02-2014 12:25:00 11.8 C 6.74 g/m*3 11.8 C 20.9 km/h
972 25-02-2014 12:30:00 11.7 C 6.59 g/m*3 11.7 C 14.5 km/h
973 25-02-2014 12:35:00 11.7 C 6.8 g/m*3 11.7 C 6.4 km/h
974 25-02-2014 12:40:00 11.7 C 6.8 g/m*3 11.7 C 3.2 km/h
975 25-02-2014 12:45:00 11.6 C 6.65 g/m*3 11.6 C 9.7 km/h
Sensor: Nr:Datum:Temp:Abs-Feuchte:Windchill:Wind:
Aussen-T/F 976 25-02-2014 12:50:00 11.4 C 6.67 g/m*3 11.4 C 4.8 km/h
977 25-02-2014 12:55:00 11.3 C 6.63 g/m*3 11.3 C 4.8 km/h
978 25-02-2014 13:00:00 11.2 C 6.59 g/m*3 11.2 C 4.8 km/h
979 25-02-2014 13:05:00 11.1 C 6.75 g/m*3 11.1 C 4.8 km/h
980 25-02-2014 13:10:00 11.1 C 6.75 g/m*3 11.1 C 4.8 km/h
981 25-02-2014 13:15:00 11.1 C 6.75 g/m*3 11.1 C 3.2 km/h
982 25-02-2014 13:20:00 11 C 6.81 g/m*3 10.52 C 6.4 km/h
983 25-02-2014 13:25:00 11 C 6.71 g/m*3 10.52 C 6.4 km/h
984 25-02-2014 13:30:00 10.9 C 6.76 g/m*3 10.9 C 4.8 km/h
985 25-02-2014 13:35:00 10.9 C 6.96 g/m*3 10.9 C 0 km/h
986 25-02-2014 13:40:00 10.9 C 6.76 g/m*3 10.9 C 3.2 km/h
987 25-02-2014 13:45:00 10.9 C 6.96 g/m*3 10.9 C 3.2 km/h
988 25-02-2014 13:50:00 10.8 C 6.82 g/m*3 10.8 C 3.2 km/h
989 25-02-2014 13:55:00 10.9 C 6.76 g/m*3 10.9 C 3.2 km/h
990 25-02-2014 14:00:00 10.9 C 6.86 g/m*3 10.9 C 0 km/h
991 25-02-2014 14:05:00 11.1 C 6.75 g/m*3 11.1 C 4.8 km/h
992 25-02-2014 14:10:00 11.2 C 6.89 g/m*3 11.2 C 4.8 km/h
993 25-02-2014 14:15:00 11.3 C 6.83 g/m*3 11.3 C 4.8 km/h
994 25-02-2014 14:20:00 11.5 C 6.82 g/m*3 11.5 C 4.8 km/h
995 25-02-2014 14:25:00 11.7 C 6.8 g/m*3 11.7 C 6.4 km/h
996 25-02-2014 14:30:00 11.8 C 6.84 g/m*3 11.8 C 8.1 km/h
997 25-02-2014 14:35:00 11.8 C 6.84 g/m*3 11.8 C 8.1 km/h
998 25-02-2014 14:40:00 11.8 C 6.84 g/m*3 11.8 C 9.7 km/h
999 25-02-2014 14:45:00 11.8 C 6.95 g/m*3 11.8 C 4.8 km/h
1000 25-02-2014 14:50:00 11.7 C 6.8 g/m*3 11.7 C 6.4 km/h
Sensor: Nr:Datum:Temp:Abs-Feuchte:Windchill:Wind:
Aussen-T/F 1001 25-02-2014 14:55:00 11.7 C 6.9 g/m*3 11.7 C 6.4 km/h
1002 25-02-2014 15:00:00 11.6 C 6.86 g/m*3 11.6 C 4.8 km/h
1003 25-02-2014 15:05:00 11.5 C 6.82 g/m*3 11.5 C 11.3 km/h
1004 25-02-2014 15:10:00 11.5 C 6.82 g/m*3 11.5 C 8.1 km/h
1005 25-02-2014 15:15:00 11.4 C 6.88 g/m*3 11.4 C 3.2 km/h
1006 25-02-2014 15:20:00 11.4 C 6.77 g/m*3 11.4 C 9.7 km/h
1007 25-02-2014 15:25:00 11.4 C 6.88 g/m*3 11.4 C 4.8 km/h
1008 25-02-2014 15:30:00 11.5 C 6.92 g/m*3 11.5 C 4.8 km/h
1009 25-02-2014 15:35:00 11.6 C 6.96 g/m*3 11.6 C 6.4 km/h
1010 25-02-2014 15:40:00 11.7 C 7.01 g/m*3 11.7 C 9.7 km/h
1011 25-02-2014 15:45:00 11.8 C 6.95 g/m*3 11.8 C 9.7 km/h
1012 25-02-2014 15:50:00 11.8 C 6.95 g/m*3 11.8 C 9.7 km/h
1013 25-02-2014 15:55:00 11.7 C 6.9 g/m*3 11.7 C 6.4 km/h
1014 25-02-2014 16:00:00 11.8 C 6.84 g/m*3 11.8 C 14.5 km/h
1015 25-02-2014 16:05:00 11.8 C 7.05 g/m*3 11.8 C 12.9 km/h
1016 25-02-2014 16:10:00 11.8 C 6.84 g/m*3 11.8 C 9.7 km/h
1017 25-02-2014 16:15:00 11.8 C 6.84 g/m*3 11.8 C 6.4 km/h
1018 25-02-2014 16:20:00 11.9 C 6.88 g/m*3 11.9 C 8.1 km/h
1019 25-02-2014 16:25:00 11.9 C 6.99 g/m*3 11.9 C 3.2 km/h
1020 25-02-2014 16:30:00 12.1 C 6.97 g/m*3 12.1 C 8.1 km/h
1021 25-02-2014 16:35:00 12.2 C 7.12 g/m*3 12.2 C 9.7 km/h
1022 25-02-2014 16:40:00 12.2 C 7.01 g/m*3 12.2 C 4.8 km/h
1023 25-02-2014 16:45:00 12.2 C 7.01 g/m*3 12.2 C 4.8 km/h
1024 25-02-2014 16:50:00 12.2 C 7.12 g/m*3 12.2 C 3.2 km/h
1025 25-02-2014 16:55:00 12.1 C 6.86 g/m*3 12.1 C 8.1 km/h
Sensor: Nr:Datum:Temp:Abs-Feuchte:Windchill:Wind:
Aussen-T/F 1026 25-02-2014 17:00:00 12.1 C 7.08 g/m*3 12.1 C 6.4 km/h
1027 25-02-2014 17:05:00 11.9 C 6.88 g/m*3 11.9 C 6.4 km/h
1028 25-02-2014 17:10:00 11.8 C 6.95 g/m*3 11.8 C 9.7 km/h
1029 25-02-2014 17:15:00 11.7 C 7.01 g/m*3 11.7 C 4.8 km/h
1030 25-02-2014 17:20:00 11.6 C 6.86 g/m*3 11.6 C 4.8 km/h
1031 25-02-2014 17:25:00 11.5 C 6.92 g/m*3 11.5 C 12.9 km/h
1032 25-02-2014 17:30:00 11.4 C 6.88 g/m*3 11.4 C 8.1 km/h
1033 25-02-2014 17:35:00 11.4 C 6.88 g/m*3 11.4 C 6.4 km/h
1034 25-02-2014 17:40:00 11.2 C 6.99 g/m*3 11.2 C 1.6 km/h
1035 25-02-2014 17:45:00 11.1 C 6.85 g/m*3 11.1 C 4.8 km/h
1036 25-02-2014 17:50:00 11.1 C 6.95 g/m*3 11.1 C 1.6 km/h
1037 25-02-2014 17:55:00 10.9 C 6.96 g/m*3 10.9 C 4.8 km/h
1038 25-02-2014 18:00:00 10.7 C 6.88 g/m*3 10.7 C 3.2 km/h
1039 25-02-2014 18:05:00 10.3 C 6.9 g/m*3 10.3 C 1.6 km/h
1040 25-02-2014 18:10:00 9.9 C 6.82 g/m*3 9.9 C 1.6 km/h
1041 25-02-2014 18:15:00 9.6 C 6.78 g/m*3 9.6 C 3.2 km/h
1042 25-02-2014 18:20:00 9.3 C 6.92 g/m*3 9.3 C 3.2 km/h
1043 25-02-2014 18:25:00 9.2 C 6.79 g/m*3 9.2 C 3.2 km/h
1044 25-02-2014 18:30:00 9.3 C 6.56 g/m*3 9.3 C 3.2 km/h
1045 25-02-2014 18:35:00 9.7 C 6.73 g/m*3 9.02 C 6.4 km/h
1046 25-02-2014 18:40:00 9.8 C 6.68 g/m*3 9.8 C 4.8 km/h
1047 25-02-2014 18:45:00 9.7 C 6.82 g/m*3 9.7 C 1.6 km/h
1048 25-02-2014 18:50:00 9.5 C 6.64 g/m*3 8.79 C 6.4 km/h
1049 25-02-2014 18:55:00 9.6 C 6.78 g/m*3 9.6 C 3.2 km/h
1050 25-02-2014 19:00:00 9.3 C 6.83 g/m*3 9.3 C 3.2 km/h
Sensor: Nr:Datum:Temp:Abs-Feuchte:Windchill:Wind:
Aussen-T/F 1051 25-02-2014 19:05:00 8.9 C 6.57 g/m*3 8.9 C 1.6 km/h
1052 25-02-2014 19:10:00 8.7 C 6.66 g/m*3 8.7 C 1.6 km/h
1053 25-02-2014 19:15:00 8.5 C 6.66 g/m*3 8.5 C 3.2 km/h
1054 25-02-2014 19:20:00 8.5 C 6.66 g/m*3 8.5 C 3.2 km/h
1055 25-02-2014 19:25:00 8.5 C 6.66 g/m*3 8.5 C 3.2 km/h
1056 25-02-2014 19:30:00 8.4 C 6.7 g/m*3 8.4 C 4.8 km/h
1057 25-02-2014 19:35:00 8.3 C 6.66 g/m*3 8.3 C 3.2 km/h
1058 25-02-2014 19:40:00 8.2 C 6.7 g/m*3 8.2 C 3.2 km/h
1059 25-02-2014 19:45:00 8.1 C 6.74 g/m*3 8.1 C 3.2 km/h
1060 25-02-2014 19:50:00 8.1 C 6.74 g/m*3 8.1 C 3.2 km/h
1061 25-02-2014 19:55:00 8 C 6.7 g/m*3 8 C 1.6 km/h
1062 25-02-2014 20:00:00 8.1 C 6.74 g/m*3 8.1 C 3.2 km/h
1063 25-02-2014 20:05:00 8.2 C 6.78 g/m*3 8.2 C 1.6 km/h
1064 25-02-2014 20:10:00 8.3 C 6.74 g/m*3 8.3 C 1.6 km/h
1065 25-02-2014 20:15:00 8.3 C 6.83 g/m*3 8.3 C 1.6 km/h
1066 25-02-2014 20:20:00 8.3 C 6.83 g/m*3 8.3 C 1.6 km/h
1067 25-02-2014 20:25:00 8.3 C 6.83 g/m*3 8.3 C 0 km/h
1068 25-02-2014 20:30:00 8.3 C 6.83 g/m*3 8.3 C 3.2 km/h
1069 25-02-2014 20:35:00 8.3 C 6.91 g/m*3 8.3 C 4.8 km/h
1070 25-02-2014 20:40:00 8.3 C 6.83 g/m*3 8.3 C 0 km/h
1071 25-02-2014 20:45:00 8.3 C 6.83 g/m*3 8.3 C 0 km/h
1072 25-02-2014 20:50:00 8.2 C 6.78 g/m*3 8.2 C 1.6 km/h
1073 25-02-2014 20:55:00 8.2 C 6.78 g/m*3 8.2 C 1.6 km/h
1074 25-02-2014 21:00:00 8.2 C 6.78 g/m*3 8.2 C 4.8 km/h
1075 25-02-2014 21:05:00 8.1 C 6.82 g/m*3 8.1 C 4.8 km/h
Sensor: Nr:Datum:Temp:Abs-Feuchte:Windchill:Wind:
Aussen-T/F 1076 25-02-2014 21:10:00 8 C 6.78 g/m*3 8 C 3.2 km/h
1077 25-02-2014 21:15:00 8 C 6.78 g/m*3 8 C 1.6 km/h
1078 25-02-2014 21:20:00 7.9 C 6.74 g/m*3 7.9 C 4.8 km/h
1079 25-02-2014 21:25:00 7.9 C 6.74 g/m*3 7.9 C 3.2 km/h
1080 25-02-2014 21:30:00 7.9 C 6.74 g/m*3 7.9 C 1.6 km/h
1081 25-02-2014 21:35:00 7.9 C 6.74 g/m*3 7.9 C 1.6 km/h
1082 25-02-2014 21:40:00 7.8 C 6.77 g/m*3 7.8 C 3.2 km/h
1083 25-02-2014 21:45:00 7.9 C 6.74 g/m*3 7.9 C 3.2 km/h
1084 25-02-2014 21:50:00 8.1 C 6.74 g/m*3 8.1 C 3.2 km/h
1085 25-02-2014 21:55:00 8.1 C 6.74 g/m*3 8.1 C 1.6 km/h
1086 25-02-2014 22:00:00 8.1 C 6.74 g/m*3 8.1 C 0 km/h
1087 25-02-2014 22:05:00 7.9 C 6.74 g/m*3 7.9 C 1.6 km/h
1088 25-02-2014 22:10:00 7.9 C 6.74 g/m*3 7.9 C 3.2 km/h
1089 25-02-2014 22:15:00 7.9 C 6.74 g/m*3 7.9 C 1.6 km/h
1090 25-02-2014 22:20:00 7.9 C 6.74 g/m*3 7.9 C 3.2 km/h
1091 25-02-2014 22:25:00 7.9 C 6.82 g/m*3 6.94 C 6.4 km/h
1092 25-02-2014 22:30:00 7.8 C 6.77 g/m*3 7.8 C 1.6 km/h
1093 25-02-2014 22:35:00 7.7 C 6.73 g/m*3 6.71 C 6.4 km/h
1094 25-02-2014 22:40:00 7.7 C 6.81 g/m*3 7.7 C 4.8 km/h
1095 25-02-2014 22:45:00 7.7 C 6.81 g/m*3 7.7 C 4.8 km/h
1096 25-02-2014 22:50:00 7.8 C 6.77 g/m*3 7.8 C 1.6 km/h
1097 25-02-2014 22:55:00 8.1 C 6.82 g/m*3 8.1 C 3.2 km/h
1098 25-02-2014 23:00:00 8 C 6.86 g/m*3 8 C 4.8 km/h
1099 25-02-2014 23:05:00 8 C 6.94 g/m*3 8 C 1.6 km/h
1100 25-02-2014 23:10:00 8 C 6.94 g/m*3 8 C 4.8 km/h
Sensor: Nr:Datum:Temp:Abs-Feuchte:Windchill:Wind:
Aussen-T/F 1101 25-02-2014 23:15:00 8.1 C 6.99 g/m*3 8.1 C 1.6 km/h
1102 25-02-2014 23:20:00 8 C 7.03 g/m*3 8 C 1.6 km/h
1103 25-02-2014 23:25:00 7.9 C 6.98 g/m*3 7.9 C 1.6 km/h
1104 25-02-2014 23:30:00 7.9 C 6.98 g/m*3 7.9 C 4.8 km/h
1105 25-02-2014 23:35:00 7.8 C 6.86 g/m*3 7.8 C 4.8 km/h
1106 25-02-2014 23:40:00 7.8 C 6.86 g/m*3 7.8 C 3.2 km/h
1107 25-02-2014 23:45:00 7.7 C 6.81 g/m*3 7.7 C 4.8 km/h
1108 25-02-2014 23:50:00 7.6 C 6.85 g/m*3 7.6 C 4.8 km/h
1109 25-02-2014 23:55:00 7.6 C 6.85 g/m*3 7.6 C 3.2 km/h
1110 26-02-2014 00:00:00 7.6 C 6.85 g/m*3 7.6 C 3.2 km/h
1111 26-02-2014 00:05:00 7.4 C 6.76 g/m*3 7.4 C 4.8 km/h
1112 26-02-2014 00:10:00 7.4 C 6.76 g/m*3 7.4 C 4.8 km/h
1113 26-02-2014 00:15:00 7.4 C 6.76 g/m*3 7.4 C 3.2 km/h
1114 26-02-2014 00:20:00 7.4 C 6.84 g/m*3 7.4 C 4.8 km/h
1115 26-02-2014 00:25:00 7.3 C 6.79 g/m*3 7.3 C 4.8 km/h
1116 26-02-2014 00:30:00 7.3 C 6.79 g/m*3 7.3 C 4.8 km/h
1117 26-02-2014 00:35:00 7.3 C 6.79 g/m*3 7.3 C 3.2 km/h
1118 26-02-2014 00:40:00 7.2 C 6.75 g/m*3 7.2 C 4.8 km/h
1119 26-02-2014 00:45:00 7.2 C 6.75 g/m*3 7.2 C 3.2 km/h
1120 26-02-2014 00:50:00 7.3 C 6.79 g/m*3 7.3 C 3.2 km/h
1121 26-02-2014 00:55:00 7.4 C 6.84 g/m*3 7.4 C 3.2 km/h
1122 26-02-2014 01:00:00 7.4 C 6.84 g/m*3 7.4 C 3.2 km/h
1123 26-02-2014 01:05:00 7.5 C 6.88 g/m*3 7.5 C 3.2 km/h
1124 26-02-2014 01:10:00 7.6 C 6.93 g/m*3 7.6 C 3.2 km/h
1125 26-02-2014 01:15:00 7.6 C 6.93 g/m*3 7.6 C 3.2 km/h
Sensor: Nr:Datum:Temp:Abs-Feuchte:Windchill:Wind:
Aussen-T/F 1126 26-02-2014 01:20:00 7.6 C 6.93 g/m*3 7.6 C 3.2 km/h
1127 26-02-2014 01:25:00 7.5 C 6.88 g/m*3 7.5 C 3.2 km/h
1128 26-02-2014 01:30:00 7.4 C 6.84 g/m*3 7.4 C 3.2 km/h
1129 26-02-2014 01:35:00 7.5 C 6.88 g/m*3 7.5 C 3.2 km/h
1130 26-02-2014 01:40:00 7.6 C 6.93 g/m*3 7.6 C 3.2 km/h
1131 26-02-2014 01:45:00 7.6 C 6.93 g/m*3 7.6 C 0 km/h
1132 26-02-2014 01:50:00 7.7 C 6.97 g/m*3 7.7 C 1.6 km/h
1133 26-02-2014 01:55:00 7.7 C 6.97 g/m*3 7.7 C 1.6 km/h
1134 26-02-2014 02:00:00 7.8 C 7.02 g/m*3 7.8 C 1.6 km/h
1135 26-02-2014 02:05:00 7.8 C 7.02 g/m*3 7.8 C 1.6 km/h
1136 26-02-2014 02:10:00 7.9 C 7.06 g/m*3 7.9 C 3.2 km/h
1137 26-02-2014 02:15:00 8.1 C 6.99 g/m*3 8.1 C 3.2 km/h
1138 26-02-2014 02:20:00 8.2 C 7.12 g/m*3 8.2 C 1.6 km/h
1139 26-02-2014 02:25:00 8.3 C 7.16 g/m*3 8.3 C 1.6 km/h
1140 26-02-2014 02:30:00 8.3 C 7.08 g/m*3 8.3 C 3.2 km/h
1141 26-02-2014 02:35:00 8.3 C 7.08 g/m*3 8.3 C 3.2 km/h
1142 26-02-2014 02:40:00 8.3 C 7.08 g/m*3 8.3 C 3.2 km/h
1143 26-02-2014 02:45:00 8.3 C 7.08 g/m*3 8.3 C 3.2 km/h
1144 26-02-2014 02:50:00 8.2 C 7.12 g/m*3 8.2 C 1.6 km/h
1145 26-02-2014 02:55:00 8.1 C 6.99 g/m*3 8.1 C 1.6 km/h
1146 26-02-2014 03:00:00 8 C 7.03 g/m*3 8 C 1.6 km/h
1147 26-02-2014 03:05:00 7.9 C 6.98 g/m*3 7.9 C 4.8 km/h
1148 26-02-2014 03:10:00 7.8 C 6.94 g/m*3 7.8 C 3.2 km/h
1149 26-02-2014 03:15:00 7.8 C 6.94 g/m*3 7.8 C 3.2 km/h
1150 26-02-2014 03:20:00 7.8 C 6.94 g/m*3 7.8 C 3.2 km/h
Sensor: Nr:Datum:Temp:Abs-Feuchte:Windchill:Wind:
Aussen-T/F 1151 26-02-2014 03:25:00 7.7 C 6.97 g/m*3 7.7 C 1.6 km/h
1152 26-02-2014 03:30:00 7.6 C 6.93 g/m*3 7.6 C 4.8 km/h
1153 26-02-2014 03:35:00 7.6 C 6.93 g/m*3 7.6 C 4.8 km/h
1154 26-02-2014 03:40:00 7.6 C 7.01 g/m*3 7.6 C 4.8 km/h
1155 26-02-2014 03:45:00 7.6 C 7.01 g/m*3 7.6 C 4.8 km/h
1156 26-02-2014 03:50:00 7.6 C 7.01 g/m*3 7.6 C 3.2 km/h
1157 26-02-2014 03:55:00 7.6 C 7.01 g/m*3 7.6 C 3.2 km/h
1158 26-02-2014 04:00:00 7.6 C 7.01 g/m*3 7.6 C 3.2 km/h
1159 26-02-2014 04:05:00 7.7 C 7.05 g/m*3 7.7 C 1.6 km/h
1160 26-02-2014 04:10:00 7.7 C 6.97 g/m*3 7.7 C 3.2 km/h
1161 26-02-2014 04:15:00 7.8 C 7.02 g/m*3 7.8 C 3.2 km/h
1162 26-02-2014 04:20:00 7.9 C 7.06 g/m*3 7.9 C 1.6 km/h
1163 26-02-2014 04:25:00 7.9 C 7.06 g/m*3 7.9 C 3.2 km/h
1164 26-02-2014 04:30:00 7.9 C 7.06 g/m*3 7.9 C 3.2 km/h
1165 26-02-2014 04:35:00 7.9 C 7.06 g/m*3 7.9 C 4.8 km/h
1166 26-02-2014 04:40:00 7.9 C 7.06 g/m*3 7.9 C 1.6 km/h
1167 26-02-2014 04:45:00 8 C 7.11 g/m*3 8 C 3.2 km/h
1168 26-02-2014 04:50:00 8.2 C 6.95 g/m*3 8.2 C 3.2 km/h
1169 26-02-2014 04:55:00 8.3 C 6.91 g/m*3 8.3 C 1.6 km/h
1170 26-02-2014 05:00:00 8.3 C 6.91 g/m*3 8.3 C 4.8 km/h
1171 26-02-2014 05:05:00 8.4 C 7.04 g/m*3 8.4 C 3.2 km/h
1172 26-02-2014 05:10:00 8.3 C 7.08 g/m*3 8.3 C 1.6 km/h
1173 26-02-2014 05:15:00 8.3 C 7 g/m*3 8.3 C 1.6 km/h
1174 26-02-2014 05:20:00 8.4 C 6.96 g/m*3 8.4 C 4.8 km/h
1175 26-02-2014 05:25:00 8.6 C 7.05 g/m*3 8.6 C 3.2 km/h
Sensor: Nr:Datum:Temp:Abs-Feuchte:Windchill:Wind:
Aussen-T/F 1176 26-02-2014 05:30:00 8.5 C 7.09 g/m*3 8.5 C 0 km/h
1177 26-02-2014 05:35:00 8.4 C 6.96 g/m*3 7.52 C 6.4 km/h
1178 26-02-2014 05:40:00 8.6 C 6.96 g/m*3 7.34 C 8.1 km/h
1179 26-02-2014 05:45:00 8.7 C 7.01 g/m*3 7.13 C 9.7 km/h
1180 26-02-2014 05:50:00 8.8 C 7.14 g/m*3 7.25 C 9.7 km/h
1181 26-02-2014 05:55:00 8.8 C 7.14 g/m*3 6.72 C 12.9 km/h
1182 26-02-2014 06:00:00 8.7 C 7.09 g/m*3 7.87 C 6.4 km/h
1183 26-02-2014 06:05:00 8.7 C 7.09 g/m*3 7.87 C 6.4 km/h
1184 26-02-2014 06:10:00 8.6 C 7.13 g/m*3 8.6 C 4.8 km/h
1185 26-02-2014 06:15:00 8.6 C 7.13 g/m*3 8.6 C 1.6 km/h
1186 26-02-2014 06:20:00 8.4 C 7.13 g/m*3 8.4 C 0 km/h
1187 26-02-2014 06:25:00 8.2 C 7.12 g/m*3 8.2 C 4.8 km/h
1188 26-02-2014 06:30:00 8 C 6.94 g/m*3 8 C 1.6 km/h
1189 26-02-2014 06:35:00 7.8 C 6.94 g/m*3 7.8 C 3.2 km/h
1190 26-02-2014 06:40:00 7.7 C 6.97 g/m*3 7.7 C 3.2 km/h
1191 26-02-2014 06:45:00 7.7 C 6.97 g/m*3 6.71 C 6.4 km/h
1192 26-02-2014 06:50:00 7.6 C 6.93 g/m*3 6.16 C 8.1 km/h
1193 26-02-2014 06:55:00 7.5 C 6.8 g/m*3 7.5 C 3.2 km/h
1194 26-02-2014 07:00:00 7.3 C 6.79 g/m*3 7.3 C 3.2 km/h
1195 26-02-2014 07:05:00 7.1 C 6.71 g/m*3 7.1 C 1.6 km/h
1196 26-02-2014 07:10:00 6.9 C 6.7 g/m*3 6.9 C 1.6 km/h
1197 26-02-2014 07:15:00 6.9 C 6.77 g/m*3 6.9 C 3.2 km/h
1198 26-02-2014 07:20:00 6.8 C 6.65 g/m*3 6.8 C 1.6 km/h
1199 26-02-2014 07:25:00 6.8 C 6.65 g/m*3 6.8 C 3.2 km/h
1200 26-02-2014 07:30:00 6.8 C 6.73 g/m*3 6.8 C 1.6 km/h
Sensor: Nr:Datum:Temp:Abs-Feuchte:Windchill:Wind:
Aussen-T/F 1201 26-02-2014 07:35:00 6.7 C 6.69 g/m*3 6.7 C 0 km/h
1202 26-02-2014 07:40:00 6.7 C 6.69 g/m*3 6.7 C 0 km/h
1203 26-02-2014 07:45:00 6.7 C 6.76 g/m*3 6.7 C 0 km/h
1204 26-02-2014 07:50:00 6.7 C 6.76 g/m*3 6.7 C 0 km/h
1205 26-02-2014 07:55:00 6.8 C 6.73 g/m*3 6.8 C 0 km/h
1206 26-02-2014 08:00:00 6.8 C 6.81 g/m*3 6.8 C 0 km/h
1207 26-02-2014 08:05:00 6.9 C 6.85 g/m*3 6.9 C 0 km/h
1208 26-02-2014 08:10:00 6.9 C 6.85 g/m*3 6.9 C 0 km/h
1209 26-02-2014 08:15:00 7.1 C 7.02 g/m*3 7.1 C 0 km/h
1210 26-02-2014 08:20:00 7.2 C 6.99 g/m*3 7.2 C 1.6 km/h
1211 26-02-2014 08:25:00 7.3 C 6.95 g/m*3 7.3 C 3.2 km/h
1212 26-02-2014 08:30:00 7.5 C 6.96 g/m*3 7.5 C 1.6 km/h
1213 26-02-2014 08:35:00 7.7 C 7.05 g/m*3 7.7 C 4.8 km/h
1214 26-02-2014 08:40:00 7.8 C 7.02 g/m*3 7.8 C 4.8 km/h
1215 26-02-2014 08:45:00 7.8 C 6.94 g/m*3 7.8 C 3.2 km/h
1216 26-02-2014 08:50:00 7.9 C 6.98 g/m*3 6.52 C 8.1 km/h
1217 26-02-2014 08:55:00 7.8 C 6.94 g/m*3 7.8 C 3.2 km/h
1218 26-02-2014 09:00:00 7.8 C 6.94 g/m*3 7.8 C 3.2 km/h
1219 26-02-2014 09:05:00 7.7 C 6.89 g/m*3 7.7 C 0 km/h
1220 26-02-2014 09:10:00 7.4 C 6.84 g/m*3 7.4 C 0 km/h
1221 26-02-2014 09:15:00 7.3 C 6.87 g/m*3 7.3 C 0 km/h
1222 26-02-2014 09:20:00 7.2 C 6.83 g/m*3 7.2 C 0 km/h
1223 26-02-2014 09:25:00 7.2 C 6.91 g/m*3 7.2 C 0 km/h
1224 26-02-2014 09:30:00 7.2 C 6.91 g/m*3 7.2 C 0 km/h
1225 26-02-2014 09:35:00 7.2 C 6.91 g/m*3 7.2 C 1.6 km/h
Sensor: Nr:Datum:Temp:Abs-Feuchte:Windchill:Wind:
Aussen-T/F 1226 26-02-2014 09:40:00 7.3 C 6.95 g/m*3 7.3 C 1.6 km/h
1227 26-02-2014 09:45:00 7.4 C 7 g/m*3 7.4 C 1.6 km/h
1228 26-02-2014 09:50:00 7.6 C 7.01 g/m*3 7.6 C 4.8 km/h
1229 26-02-2014 09:55:00 7.7 C 7.05 g/m*3 7.7 C 1.6 km/h
1230 26-02-2014 10:00:00 7.8 C 7.02 g/m*3 7.8 C 0 km/h
1231 26-02-2014 10:05:00 7.8 C 7.02 g/m*3 7.8 C 4.8 km/h
1232 26-02-2014 10:10:00 8 C 7.11 g/m*3 6.3 C 9.7 km/h
1233 26-02-2014 10:15:00 8.1 C 7.07 g/m*3 6.75 C 8.1 km/h
1234 26-02-2014 10:20:00 8.3 C 7.16 g/m*3 8.3 C 4.8 km/h
1235 26-02-2014 10:25:00 8.4 C 7.21 g/m*3 7.52 C 6.4 km/h
1236 26-02-2014 10:30:00 8.7 C 7.35 g/m*3 7.13 C 9.7 km/h
1237 26-02-2014 10:35:00 8.9 C 7.36 g/m*3 7.37 C 9.7 km/h
1238 26-02-2014 10:40:00 9.1 C 7.36 g/m*3 7.33 C 11.3 km/h
1239 26-02-2014 10:45:00 9.1 C 7.28 g/m*3 7.93 C 8.1 km/h
1240 26-02-2014 10:50:00 9.2 C 7.23 g/m*3 7.73 C 9.7 km/h
1241 26-02-2014 10:55:00 9.2 C 7.23 g/m*3 7.46 C 11.3 km/h
1242 26-02-2014 11:00:00 9.3 C 7.28 g/m*3 7.33 C 12.9 km/h
1243 26-02-2014 11:05:00 9.4 C 7.15 g/m*3 7.24 C 14.5 km/h
1244 26-02-2014 11:10:00 9.4 C 7.15 g/m*3 8.68 C 6.4 km/h
1245 26-02-2014 11:15:00 9.5 C 7.01 g/m*3 8.4 C 8.1 km/h
1246 26-02-2014 11:20:00 9.6 C 6.96 g/m*3 9.6 C 4.8 km/h
1247 26-02-2014 11:25:00 9.6 C 6.96 g/m*3 7.7 C 12.9 km/h
1248 26-02-2014 11:30:00 9.7 C 7.01 g/m*3 8.63 C 8.1 km/h
1249 26-02-2014 11:35:00 9.8 C 7.05 g/m*3 9.14 C 6.4 km/h
1250 26-02-2014 11:40:00 9.9 C 7.1 g/m*3 8.87 C 8.1 km/h
Sensor: Nr:Datum:Temp:Abs-Feuchte:Windchill:Wind:
Aussen-T/F 1251 26-02-2014 11:45:00 9.9 C 7 g/m*3 8.87 C 8.1 km/h
1252 26-02-2014 11:50:00 10 C 7.05 g/m*3 8.68 C 9.7 km/h
1253 26-02-2014 11:55:00 10 C 7.05 g/m*3 8.68 C 9.7 km/h
1254 26-02-2014 12:00:00 10.1 C 7.09 g/m*3 8.8 C 9.7 km/h
1255 26-02-2014 12:05:00 10.1 C 7.19 g/m*3 9.48 C 6.4 km/h
1256 26-02-2014 12:10:00 10.1 C 7.09 g/m*3 9.48 C 6.4 km/h
1257 26-02-2014 12:15:00 10.1 C 7.09 g/m*3 10.1 C 4.8 km/h
1258 26-02-2014 12:20:00 10.2 C 7.14 g/m*3 9.6 C 6.4 km/h
1259 26-02-2014 12:25:00 10.2 C 7.04 g/m*3 9.22 C 8.1 km/h
1260 26-02-2014 12:30:00 10.2 C 7.14 g/m*3 9.6 C 6.4 km/h
1261 26-02-2014 12:35:00 10.3 C 7.18 g/m*3 9.72 C 6.4 km/h
1262 26-02-2014 12:40:00 10.3 C 7.18 g/m*3 9.34 C 8.1 km/h
1263 26-02-2014 12:45:00 10.4 C 7.04 g/m*3 8.9 C 11.3 km/h
1264 26-02-2014 12:50:00 10.5 C 7.18 g/m*3 9.02 C 11.3 km/h
1265 26-02-2014 12:55:00 10.6 C 7.12 g/m*3 10.06 C 6.4 km/h
1266 26-02-2014 13:00:00 10.6 C 7.22 g/m*3 10.6 C 4.8 km/h
1267 26-02-2014 13:05:00 10.6 C 7.22 g/m*3 10.06 C 6.4 km/h
1268 26-02-2014 13:10:00 10.7 C 7.07 g/m*3 9.52 C 9.7 km/h
1269 26-02-2014 13:15:00 10.8 C 7.12 g/m*3 9.93 C 8.1 km/h
1270 26-02-2014 13:20:00 10.8 C 7.02 g/m*3 10.29 C 6.4 km/h
1271 26-02-2014 13:25:00 10.8 C 6.92 g/m*3 9.93 C 8.1 km/h
1272 26-02-2014 13:30:00 10.8 C 6.92 g/m*3 9.93 C 8.1 km/h
1273 26-02-2014 13:35:00 10.9 C 6.96 g/m*3 9.76 C 9.7 km/h
1274 26-02-2014 13:40:00 10.9 C 6.86 g/m*3 10.9 C 4.8 km/h
1275 26-02-2014 13:45:00 10.9 C 7.06 g/m*3 10.41 C 6.4 km/h
Sensor: Nr:Datum:Temp:Abs-Feuchte:Windchill:Wind:
Aussen-T/F 1276 26-02-2014 13:50:00 11.1 C 7.05 g/m*3 11.1 C 4.8 km/h
1277 26-02-2014 13:55:00 11.1 C 6.95 g/m*3 11.1 C 6.4 km/h
1278 26-02-2014 14:00:00 11.1 C 6.95 g/m*3 11.1 C 6.4 km/h
1279 26-02-2014 14:05:00 11.2 C 6.99 g/m*3 11.2 C 8.1 km/h
1280 26-02-2014 14:10:00 11.4 C 7.19 g/m*3 11.4 C 9.7 km/h
1281 26-02-2014 14:15:00 11.4 C 6.98 g/m*3 11.4 C 6.4 km/h
1282 26-02-2014 14:20:00 11.4 C 7.19 g/m*3 11.4 C 6.4 km/h
1283 26-02-2014 14:25:00 11.4 C 7.08 g/m*3 11.4 C 9.7 km/h
1284 26-02-2014 14:30:00 11.4 C 6.98 g/m*3 11.4 C 9.7 km/h
1285 26-02-2014 14:35:00 11.3 C 6.94 g/m*3 11.3 C 8.1 km/h
1286 26-02-2014 14:40:00 11.3 C 6.94 g/m*3 11.3 C 9.7 km/h
1287 26-02-2014 14:45:00 11.2 C 6.89 g/m*3 11.2 C 8.1 km/h
1288 26-02-2014 14:50:00 11.2 C 6.99 g/m*3 11.2 C 6.4 km/h
1289 26-02-2014 14:55:00 11.1 C 6.95 g/m*3 11.1 C 4.8 km/h
1290 26-02-2014 15:00:00 11 C 7.01 g/m*3 9.4 C 12.9 km/h
1291 26-02-2014 15:05:00 10.9 C 6.76 g/m*3 10.41 C 6.4 km/h
1292 26-02-2014 15:10:00 10.8 C 7.02 g/m*3 9.93 C 8.1 km/h
1293 26-02-2014 15:15:00 10.8 C 7.12 g/m*3 9.93 C 8.1 km/h
1294 26-02-2014 15:20:00 10.8 C 7.12 g/m*3 10.8 C 4.8 km/h
1295 26-02-2014 15:25:00 10.8 C 7.12 g/m*3 10.8 C 3.2 km/h
1296 26-02-2014 15:30:00 10.7 C 6.88 g/m*3 10.7 C 3.2 km/h
1297 26-02-2014 15:35:00 10.7 C 6.78 g/m*3 9.81 C 8.1 km/h
1298 26-02-2014 15:40:00 10.6 C 6.83 g/m*3 10.6 C 4.8 km/h
1299 26-02-2014 15:45:00 10.6 C 6.83 g/m*3 10.06 C 6.4 km/h
1300 26-02-2014 15:50:00 10.5 C 6.79 g/m*3 10.5 C 4.8 km/h
Sensor: Nr:Datum:Temp:Abs-Feuchte:Windchill:Wind:
Aussen-T/F 1301 26-02-2014 15:55:00 10.4 C 6.75 g/m*3 10.4 C 1.6 km/h
1302 26-02-2014 16:00:00 10.4 C 6.75 g/m*3 10.4 C 0 km/h
1303 26-02-2014 16:05:00 10.3 C 6.7 g/m*3 10.3 C 3.2 km/h
1304 26-02-2014 16:10:00 10.3 C 6.7 g/m*3 10.3 C 1.6 km/h
1305 26-02-2014 16:15:00 10.3 C 6.8 g/m*3 10.3 C 4.8 km/h
1306 26-02-2014 16:20:00 10.3 C 6.8 g/m*3 10.3 C 0 km/h
1307 26-02-2014 16:25:00 10.4 C 7.23 g/m*3 10.4 C 4.8 km/h
1308 26-02-2014 16:30:00 10.5 C 7.18 g/m*3 10.5 C 3.2 km/h
1309 26-02-2014 16:35:00 10.5 C 7.18 g/m*3 10.5 C 1.6 km/h
1310 26-02-2014 16:40:00 10.5 C 7.18 g/m*3 10.5 C 4.8 km/h
1311 26-02-2014 16:45:00 10.5 C 7.18 g/m*3 10.5 C 3.2 km/h
1312 26-02-2014 16:50:00 10.5 C 7.18 g/m*3 10.5 C 3.2 km/h
1313 26-02-2014 16:55:00 10.4 C 7.13 g/m*3 10.4 C 3.2 km/h
1314 26-02-2014 17:00:00 10.3 C 7.09 g/m*3 10.3 C 1.6 km/h
1315 26-02-2014 17:05:00 10.3 C 7.18 g/m*3 10.3 C 0 km/h
1316 26-02-2014 17:10:00 10.2 C 7.14 g/m*3 10.2 C 0 km/h
1317 26-02-2014 17:15:00 10.1 C 7.09 g/m*3 10.1 C 0 km/h
1318 26-02-2014 17:20:00 10 C 7.24 g/m*3 10 C 0 km/h
1319 26-02-2014 17:25:00 9.9 C 7.19 g/m*3 9.9 C 0 km/h
1320 26-02-2014 17:30:00 9.8 C 7.14 g/m*3 9.8 C 0 km/h
1321 26-02-2014 17:35:00 9.7 C 7.28 g/m*3 9.7 C 0 km/h
1322 26-02-2014 17:40:00 9.6 C 7.24 g/m*3 9.6 C 0 km/h
1323 26-02-2014 17:45:00 9.5 C 7.19 g/m*3 9.5 C 0 km/h
1324 26-02-2014 17:50:00 9.3 C 7.1 g/m*3 9.3 C 3.2 km/h
1325 26-02-2014 17:55:00 9.2 C 7.14 g/m*3 9.2 C 3.2 km/h
Sensor: Nr:Datum:Temp:Abs-Feuchte:Windchill:Wind:
Aussen-T/F 1326 26-02-2014 18:00:00 9.2 C 7.14 g/m*3 9.2 C 3.2 km/h
1327 26-02-2014 18:05:00 9.1 C 7.19 g/m*3 9.1 C 3.2 km/h
1328 26-02-2014 18:10:00 8.9 C 7.18 g/m*3 8.9 C 3.2 km/h
1329 26-02-2014 18:15:00 8.8 C 7.14 g/m*3 8.8 C 3.2 km/h
1330 26-02-2014 18:20:00 8.8 C 7.14 g/m*3 8.8 C 3.2 km/h
1331 26-02-2014 18:25:00 8.7 C 7.09 g/m*3 8.7 C 3.2 km/h
1332 26-02-2014 18:30:00 8.7 C 7.09 g/m*3 8.7 C 3.2 km/h
1333 26-02-2014 18:35:00 8.6 C 7.05 g/m*3 8.6 C 3.2 km/h
1334 26-02-2014 18:40:00 8.6 C 7.05 g/m*3 8.6 C 3.2 km/h
1335 26-02-2014 18:45:00 8.6 C 7.05 g/m*3 8.6 C 4.8 km/h
1336 26-02-2014 18:50:00 8.4 C 7.04 g/m*3 8.4 C 3.2 km/h
1337 26-02-2014 18:55:00 8.4 C 7.04 g/m*3 8.4 C 3.2 km/h
1338 26-02-2014 19:00:00 8.3 C 7 g/m*3 8.3 C 3.2 km/h
1339 26-02-2014 19:05:00 8.3 C 7 g/m*3 8.3 C 3.2 km/h
1340 26-02-2014 19:10:00 8.3 C 7 g/m*3 8.3 C 3.2 km/h
1341 26-02-2014 19:15:00 8.3 C 7 g/m*3 8.3 C 3.2 km/h
1342 26-02-2014 19:20:00 8.2 C 6.95 g/m*3 8.2 C 3.2 km/h
1343 26-02-2014 19:25:00 8.2 C 7.03 g/m*3 8.2 C 4.8 km/h
1344 26-02-2014 19:30:00 8.1 C 6.99 g/m*3 8.1 C 1.6 km/h
1345 26-02-2014 19:35:00 8 C 7.03 g/m*3 8 C 3.2 km/h
1346 26-02-2014 19:40:00 7.9 C 6.9 g/m*3 7.9 C 3.2 km/h
1347 26-02-2014 19:45:00 7.9 C 6.98 g/m*3 7.9 C 3.2 km/h
1348 26-02-2014 19:50:00 7.8 C 6.94 g/m*3 7.8 C 4.8 km/h
1349 26-02-2014 19:55:00 7.8 C 6.94 g/m*3 7.8 C 3.2 km/h
1350 26-02-2014 20:00:00 7.7 C 6.89 g/m*3 7.7 C 0 km/h
Sensor: Nr:Datum:Temp:Abs-Feuchte:Windchill:Wind:
Aussen-T/F 1351 26-02-2014 20:05:00 7.7 C 6.89 g/m*3 7.7 C 1.6 km/h
1352 26-02-2014 20:10:00 7.6 C 6.85 g/m*3 7.6 C 1.6 km/h
1353 26-02-2014 20:15:00 7.6 C 6.93 g/m*3 7.6 C 0 km/h
1354 26-02-2014 20:20:00 7.5 C 6.88 g/m*3 7.5 C 1.6 km/h
1355 26-02-2014 20:25:00 7.5 C 6.88 g/m*3 7.5 C 0 km/h
1356 26-02-2014 20:30:00 7.4 C 6.84 g/m*3 7.4 C 0 km/h
1357 26-02-2014 20:35:00 7.4 C 6.92 g/m*3 7.4 C 3.2 km/h
1358 26-02-2014 20:40:00 7.4 C 6.92 g/m*3 7.4 C 1.6 km/h
1359 26-02-2014 20:45:00 7.4 C 6.92 g/m*3 7.4 C 3.2 km/h
1360 26-02-2014 20:50:00 7.4 C 6.92 g/m*3 7.4 C 1.6 km/h
1361 26-02-2014 22:00:00 7.4 C 6.84 g/m*3 7.4 C 4.8 km/h
1362 26-02-2014 22:05:00 7.4 C 6.92 g/m*3 7.4 C 1.6 km/h
1363 26-02-2014 22:10:00 7.4 C 6.84 g/m*3 7.4 C 0 km/h
1364 26-02-2014 22:15:00 7.4 C 6.84 g/m*3 7.4 C 4.8 km/h
1365 26-02-2014 22:20:00 7.5 C 6.88 g/m*3 7.5 C 3.2 km/h
1366 26-02-2014 22:25:00 7.6 C 6.77 g/m*3 7.6 C 0 km/h
1367 26-02-2014 22:30:00 7.6 C 6.93 g/m*3 7.6 C 0 km/h
1368 26-02-2014 22:35:00 7.5 C 6.8 g/m*3 7.5 C 3.2 km/h
1369 26-02-2014 22:40:00 7.5 C 6.8 g/m*3 7.5 C 3.2 km/h
1370 26-02-2014 22:45:00 7.6 C 6.85 g/m*3 7.6 C 1.6 km/h
1371 26-02-2014 22:50:00 7.6 C 6.85 g/m*3 7.6 C 0 km/h
1372 26-02-2014 22:55:00 7.4 C 6.76 g/m*3 7.4 C 0 km/h
1373 26-02-2014 23:00:00 7.4 C 6.76 g/m*3 7.4 C 0 km/h
1374 26-02-2014 23:05:00 7.3 C 6.79 g/m*3 7.3 C 1.6 km/h
1375 26-02-2014 23:10:00 7.3 C 6.79 g/m*3 7.3 C 0 km/h
Sensor: Nr:Datum:Temp:Abs-Feuchte:Windchill:Wind:
Aussen-T/F 1376 26-02-2014 23:15:00 7.2 C 6.83 g/m*3 7.2 C 0 km/h
1377 26-02-2014 23:20:00 7.1 C 6.79 g/m*3 7.1 C 3.2 km/h
1378 26-02-2014 23:25:00 7.1 C 6.79 g/m*3 7.1 C 0 km/h
1379 26-02-2014 23:30:00 7 C 6.66 g/m*3 7 C 1.6 km/h
1380 26-02-2014 23:35:00 6.9 C 6.7 g/m*3 6.9 C 0 km/h
1381 26-02-2014 23:40:00 6.8 C 6.65 g/m*3 6.8 C 3.2 km/h
1382 26-02-2014 23:45:00 6.6 C 6.57 g/m*3 6.6 C 4.8 km/h
1383 26-02-2014 23:50:00 6.5 C 6.52 g/m*3 6.5 C 4.8 km/h
1384 26-02-2014 23:55:00 6.4 C 6.56 g/m*3 6.4 C 4.8 km/h
1385 27-02-2014 00:00:00 6.3 C 6.51 g/m*3 5.1 C 6.4 km/h
1386 27-02-2014 00:05:00 6.3 C 6.51 g/m*3 6.3 C 4.8 km/h
1387 27-02-2014 00:10:00 6.3 C 6.59 g/m*3 6.3 C 3.2 km/h
1388 27-02-2014 00:15:00 6.2 C 6.47 g/m*3 6.2 C 3.2 km/h
1389 27-02-2014 00:20:00 6.1 C 6.5 g/m*3 6.1 C 3.2 km/h
1390 27-02-2014 00:25:00 5.9 C 6.42 g/m*3 5.9 C 4.8 km/h
1391 27-02-2014 00:30:00 5.8 C 6.45 g/m*3 5.8 C 1.6 km/h
1392 27-02-2014 00:35:00 5.8 C 6.45 g/m*3 5.8 C 0 km/h
1393 27-02-2014 00:40:00 5.8 C 6.45 g/m*3 5.8 C 0 km/h
1394 27-02-2014 00:45:00 5.7 C 6.4 g/m*3 5.7 C 0 km/h
1395 27-02-2014 00:50:00 5.6 C 6.36 g/m*3 5.6 C 0 km/h
1396 27-02-2014 00:55:00 5.6 C 6.36 g/m*3 5.6 C 1.6 km/h
1397 27-02-2014 01:00:00 5.5 C 6.39 g/m*3 5.5 C 3.2 km/h
1398 27-02-2014 01:05:00 5.6 C 6.43 g/m*3 5.6 C 3.2 km/h
1399 27-02-2014 01:10:00 5.6 C 6.43 g/m*3 5.6 C 3.2 km/h
1400 27-02-2014 01:15:00 5.4 C 6.28 g/m*3 5.4 C 1.6 km/h
Sensor: Nr:Datum:Temp:Abs-Feuchte:Windchill:Wind:
Aussen-T/F 1401 27-02-2014 01:20:00 5.3 C 6.24 g/m*3 5.3 C 0 km/h
1402 27-02-2014 01:25:00 5.1 C 6.16 g/m*3 5.1 C 0 km/h
1403 27-02-2014 01:30:00 4.9 C 6.14 g/m*3 4.9 C 0 km/h
1404 27-02-2014 01:35:00 4.7 C 6.06 g/m*3 4.7 C 0 km/h
1405 27-02-2014 01:40:00 4.6 C 6.09 g/m*3 4.6 C 0 km/h
1406 27-02-2014 01:45:00 4.6 C 6.09 g/m*3 4.6 C 0 km/h
1407 27-02-2014 01:50:00 4.4 C 6.01 g/m*3 4.4 C 1.6 km/h
1408 27-02-2014 01:55:00 4.3 C 5.97 g/m*3 4.3 C 3.2 km/h
1409 27-02-2014 02:00:00 4.2 C 5.93 g/m*3 4.2 C 0 km/h
1410 27-02-2014 02:05:00 4.2 C 5.99 g/m*3 4.2 C 0 km/h
1411 27-02-2014 02:10:00 4.2 C 5.99 g/m*3 4.2 C 1.6 km/h
1412 27-02-2014 02:15:00 4.1 C 5.95 g/m*3 4.1 C 1.6 km/h
1413 27-02-2014 02:20:00 4.1 C 5.95 g/m*3 4.1 C 0 km/h
1414 27-02-2014 02:25:00 4.1 C 5.95 g/m*3 4.1 C 0 km/h
1415 27-02-2014 02:30:00 4.1 C 5.95 g/m*3 4.1 C 3.2 km/h
1416 27-02-2014 02:35:00 4.1 C 5.95 g/m*3 4.1 C 1.6 km/h
1417 27-02-2014 02:40:00 3.9 C 5.87 g/m*3 3.9 C 1.6 km/h
1418 27-02-2014 02:45:00 3.8 C 5.83 g/m*3 3.8 C 0 km/h
1419 27-02-2014 02:50:00 3.8 C 5.83 g/m*3 3.8 C 0 km/h
1420 27-02-2014 02:55:00 3.8 C 5.83 g/m*3 3.8 C 0 km/h
1421 27-02-2014 03:00:00 3.8 C 5.83 g/m*3 3.8 C 0 km/h
1422 27-02-2014 03:05:00 3.5 C 5.72 g/m*3 3.5 C 0 km/h
1423 27-02-2014 03:10:00 3.4 C 5.74 g/m*3 3.4 C 0 km/h
1424 27-02-2014 03:15:00 3.4 C 5.74 g/m*3 3.4 C 0 km/h
1425 27-02-2014 03:20:00 3.3 C 5.7 g/m*3 3.3 C 0 km/h
Sensor: Nr:Datum:Temp:Abs-Feuchte:Windchill:Wind:
Aussen-T/F 1426 27-02-2014 03:25:00 3.3 C 5.7 g/m*3 3.3 C 0 km/h
1427 27-02-2014 03:30:00 3.2 C 5.66 g/m*3 3.2 C 0 km/h
1428 27-02-2014 03:35:00 3.2 C 5.66 g/m*3 3.2 C 1.6 km/h
1429 27-02-2014 03:40:00 3.1 C 5.63 g/m*3 3.1 C 0 km/h
1430 27-02-2014 03:45:00 3.1 C 5.63 g/m*3 3.1 C 0 km/h
1431 27-02-2014 03:50:00 2.9 C 5.55 g/m*3 2.9 C 0 km/h
1432 27-02-2014 03:55:00 2.9 C 5.55 g/m*3 2.9 C 0 km/h
1433 27-02-2014 04:00:00 2.8 C 5.51 g/m*3 2.8 C 0 km/h
1434 27-02-2014 04:05:00 2.8 C 5.51 g/m*3 2.8 C 0 km/h
1435 27-02-2014 04:10:00 2.7 C 5.48 g/m*3 2.7 C 0 km/h
1436 27-02-2014 04:15:00 2.6 C 5.44 g/m*3 2.6 C 0 km/h
1437 27-02-2014 04:20:00 2.4 C 5.42 g/m*3 2.4 C 1.6 km/h
1438 27-02-2014 04:25:00 2.4 C 5.42 g/m*3 2.4 C 1.6 km/h
1439 27-02-2014 04:30:00 2.6 C 5.5 g/m*3 2.6 C 3.2 km/h
1440 27-02-2014 04:35:00 2.7 C 5.59 g/m*3 2.7 C 1.6 km/h
1441 27-02-2014 04:40:00 2.8 C 5.63 g/m*3 2.8 C 3.2 km/h
1442 27-02-2014 04:45:00 2.8 C 5.57 g/m*3 2.8 C 1.6 km/h
1443 27-02-2014 04:50:00 2.7 C 5.54 g/m*3 2.7 C 1.6 km/h
1444 27-02-2014 04:55:00 2.6 C 5.5 g/m*3 2.6 C 0 km/h
1445 27-02-2014 05:00:00 2.4 C 5.42 g/m*3 2.4 C 0 km/h
1446 27-02-2014 05:05:00 2.2 C 5.35 g/m*3 2.2 C 0 km/h
1447 27-02-2014 05:10:00 2.1 C 5.31 g/m*3 2.1 C 0 km/h
1448 27-02-2014 05:15:00 2 C 5.28 g/m*3 2 C 0 km/h
1449 27-02-2014 05:20:00 1.9 C 5.24 g/m*3 1.9 C 1.6 km/h
1450 27-02-2014 05:25:00 1.9 C 5.24 g/m*3 1.9 C 0 km/h
Sensor: Nr:Datum:Temp:Abs-Feuchte:Windchill:Wind:
Aussen-T/F 1451 27-02-2014 05:30:00 1.8 C 5.21 g/m*3 1.8 C 3.2 km/h
1452 27-02-2014 05:35:00 1.9 C 5.24 g/m*3 1.9 C 1.6 km/h
1453 27-02-2014 05:40:00 1.8 C 5.21 g/m*3 1.8 C 1.6 km/h
1454 27-02-2014 05:45:00 1.7 C 5.17 g/m*3 1.7 C 0 km/h
1455 27-02-2014 05:50:00 1.7 C 5.17 g/m*3 1.7 C 0 km/h
1456 27-02-2014 05:55:00 1.6 C 5.14 g/m*3 1.6 C 3.2 km/h
1457 27-02-2014 06:00:00 1.6 C 5.19 g/m*3 1.6 C 0 km/h
1458 27-02-2014 06:05:00 1.7 C 5.23 g/m*3 1.7 C 0 km/h
1459 27-02-2014 06:10:00 1.7 C 5.23 g/m*3 1.7 C 0 km/h
1460 27-02-2014 06:15:00 1.7 C 5.23 g/m*3 1.7 C 0 km/h
1461 27-02-2014 06:20:00 1.7 C 5.23 g/m*3 1.7 C 0 km/h
1462 27-02-2014 06:25:00 1.7 C 5.23 g/m*3 1.7 C 0 km/h
1463 27-02-2014 06:30:00 1.5 C 5.16 g/m*3 1.5 C 3.2 km/h
1464 27-02-2014 06:35:00 1.4 C 5.07 g/m*3 1.4 C 0 km/h
1465 27-02-2014 06:40:00 1.4 C 5.12 g/m*3 1.4 C 1.6 km/h
1466 27-02-2014 06:45:00 1.5 C 5.16 g/m*3 1.5 C 3.2 km/h
1467 27-02-2014 06:50:00 1.5 C 5.16 g/m*3 1.5 C 3.2 km/h
1468 27-02-2014 06:55:00 1.5 C 5.16 g/m*3 1.5 C 0 km/h
1469 27-02-2014 07:00:00 1.4 C 5.12 g/m*3 1.4 C 1.6 km/h
1470 27-02-2014 07:05:00 1.4 C 5.12 g/m*3 1.4 C 0 km/h
1471 27-02-2014 07:10:00 1.4 C 5.12 g/m*3 -1.12 C 8.1 km/h
1472 27-02-2014 07:15:00 1.4 C 5.12 g/m*3 1.4 C 3.2 km/h
1473 27-02-2014 07:20:00 1.4 C 5.12 g/m*3 1.4 C 0 km/h
1474 27-02-2014 07:25:00 1.3 C 5.09 g/m*3 1.3 C 0 km/h
1475 27-02-2014 07:30:00 1.3 C 5.09 g/m*3 1.3 C 0 km/h
Sensor: Nr:Datum:Temp:Abs-Feuchte:Windchill:Wind:
Aussen-T/F 1476 27-02-2014 07:35:00 1.3 C 5.09 g/m*3 1.3 C 0 km/h
1477 27-02-2014 07:40:00 1.3 C 5.09 g/m*3 1.3 C 0 km/h
1478 27-02-2014 07:45:00 1.2 C 5.05 g/m*3 1.2 C 0 km/h
1479 27-02-2014 07:50:00 1.2 C 5.05 g/m*3 1.2 C 0 km/h
1480 27-02-2014 07:55:00 1.2 C 5.05 g/m*3 1.2 C 1.6 km/h
1481 27-02-2014 08:00:00 1.1 C 5.02 g/m*3 1.1 C 0 km/h
1482 27-02-2014 08:05:00 1.1 C 5.02 g/m*3 1.1 C 0 km/h
1483 27-02-2014 08:10:00 1.1 C 5.02 g/m*3 1.1 C 0 km/h
1484 27-02-2014 08:15:00 1.1 C 5.02 g/m*3 1.1 C 0 km/h
1485 27-02-2014 09:20:00 1.6 C 5.25 g/m*3 1.6 C 0 km/h
1486 27-02-2014 09:25:00 1.6 C 5.25 g/m*3 1.6 C 3.2 km/h
1487 27-02-2014 09:30:00 1.6 C 5.25 g/m*3 1.6 C 0 km/h
1488 27-02-2014 11:20:00 5.9 C 7.21 g/m*3 5.9 C 3.2 km/h
1489 27-02-2014 11:25:00 6.4 C 6.85 g/m*3 6.4 C 1.6 km/h
1490 27-02-2014 11:30:00 6.7 C 6.99 g/m*3 6.7 C 3.2 km/h
1491 27-02-2014 11:35:00 7.1 C 7.02 g/m*3 4.92 C 11.3 km/h
1492 27-02-2014 11:40:00 7.8 C 6.86 g/m*3 5.77 C 11.3 km/h
1493 27-02-2014 11:45:00 8.4 C 6.62 g/m*3 7.11 C 8.1 km/h
1494 27-02-2014 11:50:00 8.8 C 6.53 g/m*3 6.5 C 14.5 km/h
1495 27-02-2014 11:55:00 9.1 C 6.48 g/m*3 8.33 C 6.4 km/h
1496 27-02-2014 12:00:00 9.3 C 6.38 g/m*3 7.33 C 12.9 km/h
1497 27-02-2014 12:05:00 9.4 C 6.42 g/m*3 7.97 C 9.7 km/h
1498 27-02-2014 12:10:00 9.6 C 6.41 g/m*3 7.94 C 11.3 km/h
1499 27-02-2014 12:15:00 9.7 C 6.55 g/m*3 9.02 C 6.4 km/h
1500 27-02-2014 12:20:00 9.8 C 6.59 g/m*3 9.14 C 6.4 km/h
Sensor: Nr:Datum:Temp:Abs-Feuchte:Windchill:Wind:
Aussen-T/F 1501 27-02-2014 12:25:00 10.1 C 6.52 g/m*3 8.54 C 11.3 km/h
1502 27-02-2014 12:30:00 10.1 C 6.43 g/m*3 8.1 C 14.5 km/h
1503 27-02-2014 12:35:00 10.1 C 6.43 g/m*3 8.1 C 14.5 km/h
1504 27-02-2014 12:40:00 10.1 C 6.34 g/m*3 8.8 C 9.7 km/h
1505 27-02-2014 12:45:00 9.9 C 6.26 g/m*3 7.32 C 19.3 km/h
1506 27-02-2014 12:50:00 10 C 6.48 g/m*3 9.37 C 6.4 km/h
1507 27-02-2014 12:55:00 10.1 C 6.34 g/m*3 8.8 C 9.7 km/h
1508 27-02-2014 13:00:00 10 C 6.39 g/m*3 7.98 C 14.5 km/h
1509 27-02-2014 13:05:00 10.1 C 6.43 g/m*3 8.8 C 9.7 km/h
1510 27-02-2014 13:10:00 10.1 C 6.34 g/m*3 10.1 C 4.8 km/h
1511 27-02-2014 13:15:00 10.1 C 6.34 g/m*3 8.54 C 11.3 km/h
1512 27-02-2014 13:20:00 10 C 6.2 g/m*3 8.19 C 12.9 km/h
1513 27-02-2014 13:25:00 9.9 C 6.16 g/m*3 8.06 C 12.9 km/h
1514 27-02-2014 13:30:00 9.7 C 6.08 g/m*3 7.82 C 12.9 km/h
1515 27-02-2014 13:35:00 9.6 C 6.14 g/m*3 7.48 C 14.5 km/h
1516 27-02-2014 13:40:00 9.6 C 6.14 g/m*3 8.21 C 9.7 km/h
1517 27-02-2014 13:45:00 9.6 C 6.23 g/m*3 7.48 C 14.5 km/h
1518 27-02-2014 13:50:00 9.6 C 6.23 g/m*3 7.7 C 12.9 km/h
1519 27-02-2014 13:55:00 9.6 C 6.23 g/m*3 8.21 C 9.7 km/h
1520 27-02-2014 14:00:00 9.6 C 6.23 g/m*3 8.52 C 8.1 km/h
1521 27-02-2014 14:05:00 9.7 C 6.36 g/m*3 7.61 C 14.5 km/h
1522 27-02-2014 14:10:00 9.8 C 6.22 g/m*3 9.14 C 6.4 km/h
1523 27-02-2014 14:15:00 9.9 C 6.26 g/m*3 8.87 C 8.1 km/h
1524 27-02-2014 14:20:00 10 C 6.2 g/m*3 10 C 4.8 km/h
1525 27-02-2014 14:25:00 10.1 C 6.34 g/m*3 9.1 C 8.1 km/h
Sensor: Nr:Datum:Temp:Abs-Feuchte:Windchill:Wind:
Aussen-T/F 1526 27-02-2014 14:30:00 10.1 C 6.43 g/m*3 8.54 C 11.3 km/h
1527 27-02-2014 14:35:00 10.2 C 6.19 g/m*3 9.6 C 6.4 km/h
1528 27-02-2014 14:40:00 10.2 C 6.19 g/m*3 9.22 C 8.1 km/h
1529 27-02-2014 14:45:00 10.2 C 6.19 g/m*3 9.6 C 6.4 km/h
1530 27-02-2014 14:50:00 10.3 C 6.22 g/m*3 8.55 C 12.9 km/h
1531 27-02-2014 14:55:00 10.4 C 6.26 g/m*3 9.46 C 8.1 km/h
1532 27-02-2014 15:00:00 10.6 C 6.15 g/m*3 8.92 C 12.9 km/h
1533 27-02-2014 15:05:00 10.7 C 6.38 g/m*3 9.81 C 8.1 km/h
1534 27-02-2014 15:10:00 10.7 C 6.19 g/m*3 9.04 C 12.9 km/h
1535 27-02-2014 15:15:00 10.7 C 6.19 g/m*3 10.18 C 6.4 km/h
1536 27-02-2014 15:20:00 10.7 C 6.09 g/m*3 9.81 C 8.1 km/h
1537 27-02-2014 15:25:00 10.7 C 6.09 g/m*3 9.26 C 11.3 km/h
1538 27-02-2014 15:30:00 10.6 C 6.05 g/m*3 9.69 C 8.1 km/h
1539 27-02-2014 15:35:00 10.6 C 6.05 g/m*3 9.14 C 11.3 km/h
1540 27-02-2014 15:40:00 10.6 C 6.05 g/m*3 8.92 C 12.9 km/h
1541 27-02-2014 15:45:00 10.5 C 6.01 g/m*3 9.95 C 6.4 km/h
1542 27-02-2014 15:50:00 10.4 C 5.98 g/m*3 9.83 C 6.4 km/h
1543 27-02-2014 15:55:00 10.4 C 5.88 g/m*3 9.16 C 9.7 km/h
1544 27-02-2014 16:00:00 10.3 C 5.84 g/m*3 8.78 C 11.3 km/h
1545 27-02-2014 16:05:00 10.2 C 5.71 g/m*3 8.66 C 11.3 km/h
1546 27-02-2014 16:10:00 10.1 C 5.67 g/m*3 9.1 C 8.1 km/h
1547 27-02-2014 16:15:00 10 C 5.64 g/m*3 10 C 1.6 km/h
1548 27-02-2014 16:20:00 9.9 C 5.79 g/m*3 9.9 C 3.2 km/h
1549 27-02-2014 16:25:00 9.8 C 5.66 g/m*3 9.14 C 6.4 km/h
1550 27-02-2014 16:30:00 9.8 C 5.57 g/m*3 8.45 C 9.7 km/h
Sensor: Nr:Datum:Temp:Abs-Feuchte:Windchill:Wind:
Aussen-T/F 1551 27-02-2014 16:35:00 9.8 C 5.66 g/m*3 9.8 C 3.2 km/h
1552 27-02-2014 16:40:00 9.7 C 5.62 g/m*3 8.33 C 9.7 km/h
1553 27-02-2014 16:45:00 9.7 C 5.62 g/m*3 9.7 C 3.2 km/h
1554 27-02-2014 16:50:00 9.6 C 5.77 g/m*3 9.6 C 4.8 km/h
1555 27-02-2014 16:55:00 9.6 C 5.77 g/m*3 8.91 C 6.4 km/h
1556 27-02-2014 17:00:00 9.5 C 5.83 g/m*3 8.4 C 8.1 km/h
1557 27-02-2014 17:05:00 9.4 C 5.88 g/m*3 9.4 C 4.8 km/h
1558 27-02-2014 17:10:00 9.4 C 5.79 g/m*3 9.4 C 4.8 km/h
1559 27-02-2014 17:15:00 9.4 C 5.79 g/m*3 9.4 C 3.2 km/h
1560 27-02-2014 17:20:00 9.3 C 5.93 g/m*3 9.3 C 4.8 km/h
1561 27-02-2014 17:25:00 9.3 C 5.84 g/m*3 9.3 C 4.8 km/h
1562 27-02-2014 17:30:00 9.3 C 5.84 g/m*3 8.56 C 6.4 km/h
1563 27-02-2014 17:35:00 9.3 C 5.75 g/m*3 9.3 C 4.8 km/h
1564 27-02-2014 17:40:00 9.3 C 5.75 g/m*3 9.3 C 3.2 km/h
1565 27-02-2014 17:45:00 9.2 C 5.89 g/m*3 9.2 C 1.6 km/h
1566 27-02-2014 17:50:00 9.1 C 5.86 g/m*3 9.1 C 4.8 km/h
1567 27-02-2014 17:55:00 9.1 C 5.94 g/m*3 9.1 C 3.2 km/h
1568 27-02-2014 18:00:00 8.9 C 5.87 g/m*3 7.09 C 11.3 km/h
1569 27-02-2014 18:05:00 8.9 C 5.87 g/m*3 6.62 C 14.5 km/h
1570 27-02-2014 18:10:00 8.8 C 5.92 g/m*3 6.11 C 17.7 km/h
1571 27-02-2014 18:15:00 8.4 C 6.28 g/m*3 6.01 C 14.5 km/h
1572 27-02-2014 18:20:00 7.9 C 6.32 g/m*3 5.89 C 11.3 km/h
1573 27-02-2014 18:25:00 7.6 C 6.44 g/m*3 6.16 C 8.1 km/h
1574 27-02-2014 18:30:00 7.3 C 6.32 g/m*3 7.3 C 4.8 km/h
1575 27-02-2014 18:35:00 7.2 C 6.36 g/m*3 7.2 C 1.6 km/h
Sensor: Nr:Datum:Temp:Abs-Feuchte:Windchill:Wind:
Aussen-T/F 1576 27-02-2014 18:40:00 7.2 C 6.28 g/m*3 7.2 C 1.6 km/h
1577 27-02-2014 18:45:00 7.1 C 6.4 g/m*3 6.02 C 6.4 km/h
1578 27-02-2014 18:50:00 7 C 6.28 g/m*3 5.46 C 8.1 km/h
1579 27-02-2014 18:55:00 6.9 C 6.39 g/m*3 6.9 C 0 km/h
1580 27-02-2014 19:00:00 6.8 C 6.35 g/m*3 5.22 C 8.1 km/h
1581 27-02-2014 19:05:00 6.8 C 6.42 g/m*3 6.8 C 1.6 km/h
1582 27-02-2014 19:10:00 6.7 C 6.31 g/m*3 5.56 C 6.4 km/h
1583 27-02-2014 19:15:00 6.7 C 6.38 g/m*3 5.11 C 8.1 km/h
1584 27-02-2014 19:20:00 6.5 C 6.37 g/m*3 4.87 C 8.1 km/h
1585 27-02-2014 19:25:00 6.4 C 6.33 g/m*3 6.4 C 1.6 km/h
1586 27-02-2014 19:30:00 6.3 C 6.37 g/m*3 6.3 C 3.2 km/h
1587 27-02-2014 19:35:00 6.2 C 6.32 g/m*3 6.2 C 3.2 km/h
1588 27-02-2014 19:40:00 6.1 C 6.43 g/m*3 6.1 C 1.6 km/h
1589 27-02-2014 19:45:00 6 C 6.31 g/m*3 6 C 1.6 km/h
1590 27-02-2014 19:50:00 5.9 C 6.27 g/m*3 5.9 C 4.8 km/h
1591 27-02-2014 19:55:00 5.9 C 6.35 g/m*3 5.9 C 3.2 km/h
1592 27-02-2014 20:00:00 5.9 C 6.42 g/m*3 5.9 C 3.2 km/h
1593 27-02-2014 20:05:00 5.8 C 6.38 g/m*3 5.8 C 3.2 km/h
1594 27-02-2014 20:10:00 5.7 C 6.4 g/m*3 5.7 C 0 km/h
1595 27-02-2014 20:15:00 5.6 C 6.43 g/m*3 5.6 C 3.2 km/h
1596 27-02-2014 20:20:00 5.5 C 6.32 g/m*3 5.5 C 4.8 km/h
1597 27-02-2014 20:25:00 5.5 C 6.39 g/m*3 5.5 C 1.6 km/h
1598 27-02-2014 20:30:00 5.4 C 6.42 g/m*3 5.4 C 0 km/h
1599 27-02-2014 20:35:00 5.4 C 6.42 g/m*3 5.4 C 0 km/h
1600 27-02-2014 20:40:00 5.3 C 6.38 g/m*3 5.3 C 0 km/h
Sensor: Nr:Datum:Temp:Abs-Feuchte:Windchill:Wind:
Aussen-T/F 1601 27-02-2014 20:45:00 5.2 C 6.4 g/m*3 5.2 C 1.6 km/h
1602 27-02-2014 20:50:00 5.2 C 6.4 g/m*3 5.2 C 0 km/h
1603 27-02-2014 20:55:00 5.2 C 6.47 g/m*3 5.2 C 0 km/h
1604 27-02-2014 21:00:00 5.1 C 6.43 g/m*3 5.1 C 0 km/h
1605 27-02-2014 21:05:00 5.1 C 6.43 g/m*3 5.1 C 0 km/h
1606 27-02-2014 21:10:00 5.1 C 6.43 g/m*3 5.1 C 0 km/h
1607 27-02-2014 21:15:00 5 C 6.39 g/m*3 5 C 0 km/h
1608 27-02-2014 21:20:00 5 C 6.39 g/m*3 5 C 0 km/h
1609 27-02-2014 21:25:00 4.9 C 6.41 g/m*3 4.9 C 3.2 km/h
1610 27-02-2014 21:30:00 4.9 C 6.41 g/m*3 4.9 C 0 km/h
1611 27-02-2014 21:35:00 4.9 C 6.41 g/m*3 4.9 C 0 km/h
1612 27-02-2014 21:40:00 4.9 C 6.41 g/m*3 4.9 C 0 km/h
1613 27-02-2014 21:45:00 4.9 C 6.41 g/m*3 4.9 C 0 km/h
1614 27-02-2014 21:50:00 4.9 C 6.41 g/m*3 4.9 C 3.2 km/h
1615 27-02-2014 21:55:00 4.9 C 6.41 g/m*3 4.9 C 3.2 km/h
1616 27-02-2014 22:00:00 4.8 C 6.37 g/m*3 4.8 C 0 km/h
1617 27-02-2014 22:05:00 4.8 C 6.37 g/m*3 4.8 C 0 km/h
1618 27-02-2014 22:10:00 4.8 C 6.37 g/m*3 4.8 C 0 km/h
1619 27-02-2014 22:15:00 4.7 C 6.33 g/m*3 4.7 C 1.6 km/h
1620 27-02-2014 22:20:00 4.7 C 6.33 g/m*3 4.7 C 0 km/h
1621 27-02-2014 22:25:00 4.6 C 6.29 g/m*3 4.6 C 0 km/h
1622 27-02-2014 22:30:00 4.6 C 6.29 g/m*3 4.6 C 4.8 km/h
1623 27-02-2014 22:35:00 4.5 C 6.24 g/m*3 4.5 C 4.8 km/h
1624 27-02-2014 22:40:00 4.5 C 6.24 g/m*3 4.5 C 3.2 km/h
1625 27-02-2014 22:45:00 4.5 C 6.18 g/m*3 4.5 C 0 km/h
Sensor: Nr:Datum:Temp:Abs-Feuchte:Windchill:Wind:
Aussen-T/F 1626 27-02-2014 22:50:00 4.5 C 6.18 g/m*3 4.5 C 0 km/h
1627 27-02-2014 22:55:00 4.5 C 6.18 g/m*3 4.5 C 4.8 km/h
1628 27-02-2014 23:00:00 4.5 C 6.11 g/m*3 4.5 C 1.6 km/h
1629 27-02-2014 23:05:00 4.5 C 6.18 g/m*3 4.5 C 1.6 km/h
1630 27-02-2014 23:10:00 4.5 C 6.11 g/m*3 4.5 C 3.2 km/h
1631 27-02-2014 23:15:00 4.4 C 6.07 g/m*3 4.4 C 1.6 km/h
1632 27-02-2014 23:20:00 4.4 C 6.07 g/m*3 4.4 C 4.8 km/h
1633 27-02-2014 23:25:00 4.4 C 6.07 g/m*3 4.4 C 1.6 km/h
1634 27-02-2014 23:30:00 4.4 C 6.07 g/m*3 4.4 C 4.8 km/h
1635 27-02-2014 23:35:00 4.3 C 6.03 g/m*3 2.78 C 6.4 km/h
1636 27-02-2014 23:40:00 4.3 C 6.03 g/m*3 4.3 C 4.8 km/h
1637 27-02-2014 23:45:00 4.4 C 6.07 g/m*3 4.4 C 4.8 km/h
1638 27-02-2014 23:50:00 4.4 C 6.07 g/m*3 4.4 C 4.8 km/h
1639 27-02-2014 23:55:00 4.4 C 6.07 g/m*3 2.9 C 6.4 km/h
1640 28-02-2014 00:00:00 4.5 C 6.11 g/m*3 4.5 C 4.8 km/h
1641 28-02-2014 00:05:00 4.5 C 6.11 g/m*3 2.52 C 8.1 km/h
1642 28-02-2014 00:10:00 4.5 C 6.11 g/m*3 2.52 C 8.1 km/h
1643 28-02-2014 00:15:00 4.5 C 6.11 g/m*3 2.52 C 8.1 km/h
1644 28-02-2014 00:20:00 4.5 C 6.11 g/m*3 4.5 C 4.8 km/h
1645 28-02-2014 00:25:00 4.5 C 6.05 g/m*3 3.02 C 6.4 km/h
1646 28-02-2014 00:30:00 4.5 C 6.11 g/m*3 4.5 C 4.8 km/h
1647 28-02-2014 00:35:00 4.4 C 6.07 g/m*3 2.9 C 6.4 km/h
1648 28-02-2014 00:40:00 4.4 C 6.07 g/m*3 2.4 C 8.1 km/h
1649 28-02-2014 00:45:00 4.4 C 6.07 g/m*3 2.9 C 6.4 km/h
1650 28-02-2014 00:50:00 4.5 C 6.11 g/m*3 4.5 C 4.8 km/h
Sensor: Nr:Datum:Temp:Abs-Feuchte:Windchill:Wind:
Aussen-T/F 1651 28-02-2014 00:55:00 4.6 C 6.15 g/m*3 3.13 C 6.4 km/h
1652 28-02-2014 01:00:00 4.7 C 6.19 g/m*3 4.7 C 4.8 km/h
1653 28-02-2014 01:05:00 4.7 C 6.19 g/m*3 3.25 C 6.4 km/h
1654 28-02-2014 01:10:00 4.7 C 6.19 g/m*3 4.7 C 4.8 km/h
1655 28-02-2014 01:15:00 4.7 C 6.19 g/m*3 4.7 C 3.2 km/h
1656 28-02-2014 01:20:00 4.7 C 6.19 g/m*3 3.25 C 6.4 km/h
1657 28-02-2014 01:25:00 4.7 C 6.19 g/m*3 4.7 C 3.2 km/h
1658 28-02-2014 01:30:00 4.8 C 6.24 g/m*3 4.8 C 4.8 km/h
1659 28-02-2014 01:35:00 4.8 C 6.24 g/m*3 3.36 C 6.4 km/h
1660 28-02-2014 01:40:00 4.8 C 6.17 g/m*3 2.87 C 8.1 km/h
1661 28-02-2014 01:45:00 4.9 C 6.21 g/m*3 2.61 C 9.7 km/h
1662 28-02-2014 01:50:00 4.9 C 6.21 g/m*3 3.48 C 6.4 km/h
1663 28-02-2014 01:55:00 4.9 C 6.21 g/m*3 3.48 C 6.4 km/h
1664 28-02-2014 02:00:00 5 C 6.18 g/m*3 2.09 C 12.9 km/h
1665 28-02-2014 02:05:00 5 C 6.18 g/m*3 2.39 C 11.3 km/h
1666 28-02-2014 02:10:00 5 C 6.18 g/m*3 3.59 C 6.4 km/h
1667 28-02-2014 02:15:00 5 C 6.18 g/m*3 3.11 C 8.1 km/h
1668 28-02-2014 02:20:00 4.9 C 6.08 g/m*3 2.61 C 9.7 km/h
1669 28-02-2014 02:25:00 4.9 C 6.08 g/m*3 2.27 C 11.3 km/h
1670 28-02-2014 02:30:00 4.8 C 6.1 g/m*3 3.36 C 6.4 km/h
1671 28-02-2014 02:35:00 4.8 C 6.1 g/m*3 2.87 C 8.1 km/h
1672 28-02-2014 02:40:00 4.7 C 6.06 g/m*3 2.76 C 8.1 km/h
1673 28-02-2014 02:45:00 4.7 C 6 g/m*3 2.37 C 9.7 km/h
1674 28-02-2014 02:50:00 4.7 C 6 g/m*3 3.25 C 6.4 km/h
1675 28-02-2014 02:55:00 4.7 C 6 g/m*3 2.37 C 9.7 km/h
Sensor: Nr:Datum:Temp:Abs-Feuchte:Windchill:Wind:
Aussen-T/F 1676 28-02-2014 03:00:00 4.6 C 5.96 g/m*3 2.25 C 9.7 km/h
1677 28-02-2014 03:05:00 4.6 C 5.96 g/m*3 2.25 C 9.7 km/h
1678 28-02-2014 03:10:00 4.7 C 6 g/m*3 2.03 C 11.3 km/h
1679 28-02-2014 03:15:00 4.6 C 6.02 g/m*3 3.13 C 6.4 km/h
1680 28-02-2014 03:20:00 4.4 C 5.94 g/m*3 2.9 C 6.4 km/h
1681 28-02-2014 03:25:00 4.3 C 5.9 g/m*3 4.3 C 4.8 km/h
1682 28-02-2014 03:30:00 4.1 C 5.89 g/m*3 4.1 C 4.8 km/h
1683 28-02-2014 03:35:00 3.8 C 5.77 g/m*3 2.21 C 6.4 km/h
1684 28-02-2014 03:40:00 3.6 C 5.76 g/m*3 3.6 C 3.2 km/h
1685 28-02-2014 03:45:00 3.5 C 5.78 g/m*3 1.86 C 6.4 km/h
1686 28-02-2014 03:50:00 3.4 C 5.74 g/m*3 1.75 C 6.4 km/h
1687 28-02-2014 03:55:00 3.6 C 5.88 g/m*3 1.98 C 6.4 km/h
1688 28-02-2014 04:00:00 3.7 C 5.86 g/m*3 3.7 C 3.2 km/h
1689 28-02-2014 04:05:00 3.8 C 5.96 g/m*3 3.8 C 3.2 km/h
1690 28-02-2014 04:10:00 3.9 C 5.94 g/m*3 3.9 C 4.8 km/h
1691 28-02-2014 04:15:00 4 C 5.98 g/m*3 4 C 4.8 km/h
1692 28-02-2014 04:20:00 4.1 C 6.02 g/m*3 4.1 C 3.2 km/h
1693 28-02-2014 04:25:00 4.1 C 5.95 g/m*3 4.1 C 4.8 km/h
1694 28-02-2014 04:30:00 4.2 C 5.99 g/m*3 4.2 C 4.8 km/h
1695 28-02-2014 04:35:00 4.2 C 5.99 g/m*3 4.2 C 3.2 km/h
1696 28-02-2014 04:40:00 4 C 5.91 g/m*3 4 C 3.2 km/h
1697 28-02-2014 04:45:00 3.8 C 5.9 g/m*3 3.8 C 3.2 km/h
1698 28-02-2014 04:50:00 3.7 C 5.86 g/m*3 3.7 C 3.2 km/h
1699 28-02-2014 04:55:00 3.5 C 5.78 g/m*3 3.5 C 3.2 km/h
1700 28-02-2014 05:00:00 3.5 C 5.84 g/m*3 3.5 C 3.2 km/h
Sensor: Nr:Datum:Temp:Abs-Feuchte:Windchill:Wind:
Aussen-T/F 1701 28-02-2014 05:05:00 3.5 C 5.84 g/m*3 3.5 C 1.6 km/h
1702 28-02-2014 05:10:00 3.5 C 5.84 g/m*3 3.5 C 1.6 km/h
1703 28-02-2014 05:15:00 3.6 C 5.88 g/m*3 3.6 C 1.6 km/h
1704 28-02-2014 05:20:00 3.6 C 5.88 g/m*3 3.6 C 1.6 km/h
1705 28-02-2014 05:25:00 3.6 C 5.88 g/m*3 3.6 C 1.6 km/h
1706 28-02-2014 05:30:00 3.6 C 5.88 g/m*3 3.6 C 1.6 km/h
1707 28-02-2014 05:35:00 3.6 C 5.88 g/m*3 3.6 C 1.6 km/h
1708 28-02-2014 05:40:00 3.6 C 5.88 g/m*3 3.6 C 1.6 km/h
1709 28-02-2014 05:45:00 3.6 C 5.88 g/m*3 3.6 C 1.6 km/h
1710 28-02-2014 05:50:00 3.6 C 5.94 g/m*3 3.6 C 0 km/h
1711 28-02-2014 05:55:00 3.7 C 5.98 g/m*3 3.7 C 1.6 km/h
1712 28-02-2014 06:00:00 3.7 C 5.98 g/m*3 3.7 C 1.6 km/h
1713 28-02-2014 06:05:00 3.7 C 5.98 g/m*3 3.7 C 1.6 km/h
1714 28-02-2014 06:10:00 3.8 C 6.02 g/m*3 3.8 C 1.6 km/h
1715 28-02-2014 06:15:00 3.8 C 6.02 g/m*3 3.8 C 1.6 km/h
1716 28-02-2014 06:20:00 3.9 C 6.06 g/m*3 3.9 C 0 km/h
1717 28-02-2014 06:25:00 3.9 C 6.06 g/m*3 3.9 C 0 km/h
1718 28-02-2014 06:30:00 3.9 C 6 g/m*3 3.9 C 0 km/h
1719 28-02-2014 06:35:00 3.9 C 6 g/m*3 3.9 C 0 km/h
1720 28-02-2014 06:40:00 3.9 C 6 g/m*3 3.9 C 0 km/h
1721 28-02-2014 06:45:00 3.9 C 6 g/m*3 3.9 C 3.2 km/h
1722 28-02-2014 06:50:00 4 C 6.1 g/m*3 4 C 1.6 km/h
1723 28-02-2014 06:55:00 4 C 6.1 g/m*3 4 C 1.6 km/h
1724 28-02-2014 07:00:00 4.1 C 6.14 g/m*3 4.1 C 0 km/h
1725 28-02-2014 07:05:00 4.1 C 6.14 g/m*3 4.1 C 0 km/h
Sensor: Nr:Datum:Temp:Abs-Feuchte:Windchill:Wind:
Aussen-T/F 1726 28-02-2014 07:10:00 4.1 C 6.14 g/m*3 4.1 C 0 km/h
1727 28-02-2014 07:15:00 4.1 C 6.14 g/m*3 4.1 C 0 km/h
1728 28-02-2014 07:20:00 4.1 C 6.14 g/m*3 4.1 C 0 km/h
1729 28-02-2014 07:25:00 4.1 C 6.14 g/m*3 4.1 C 0 km/h
1730 28-02-2014 07:30:00 4.2 C 6.19 g/m*3 4.2 C 0 km/h
1731 28-02-2014 07:35:00 4.2 C 6.19 g/m*3 4.2 C 0 km/h
1732 28-02-2014 07:40:00 4.2 C 6.19 g/m*3 4.2 C 1.6 km/h
1733 28-02-2014 07:45:00 4.1 C 6.14 g/m*3 4.1 C 0 km/h
1734 28-02-2014 07:50:00 4.1 C 6.08 g/m*3 4.1 C 3.2 km/h
1735 28-02-2014 07:55:00 4.1 C 6.08 g/m*3 4.1 C 3.2 km/h
1736 28-02-2014 08:00:00 4.2 C 6.19 g/m*3 4.2 C 3.2 km/h
1737 28-02-2014 08:05:00 4.3 C 6.16 g/m*3 4.3 C 1.6 km/h
1738 28-02-2014 08:10:00 4.4 C 6.2 g/m*3 4.4 C 0 km/h
1739 28-02-2014 08:15:00 4.4 C 6.2 g/m*3 4.4 C 1.6 km/h
1740 28-02-2014 08:20:00 4.6 C 6.29 g/m*3 4.6 C 0 km/h
1741 28-02-2014 08:25:00 4.7 C 6.33 g/m*3 4.7 C 1.6 km/h
1742 28-02-2014 08:30:00 4.7 C 6.33 g/m*3 4.7 C 0 km/h
1743 28-02-2014 08:35:00 4.8 C 6.3 g/m*3 4.8 C 0 km/h
1744 28-02-2014 08:40:00 4.9 C 6.35 g/m*3 4.9 C 3.2 km/h
1745 28-02-2014 08:45:00 5 C 6.32 g/m*3 5 C 1.6 km/h
1746 28-02-2014 08:50:00 5.1 C 6.36 g/m*3 5.1 C 0 km/h
1747 28-02-2014 08:55:00 5.2 C 6.33 g/m*3 5.2 C 1.6 km/h
1748 28-02-2014 09:00:00 5.3 C 6.38 g/m*3 5.3 C 4.8 km/h
1749 28-02-2014 09:05:00 5.4 C 6.42 g/m*3 5.4 C 3.2 km/h
1750 28-02-2014 09:10:00 5.6 C 6.43 g/m*3 5.6 C 1.6 km/h
Sensor: Nr:Datum:Temp:Abs-Feuchte:Windchill:Wind:
Aussen-T/F 1751 28-02-2014 09:15:00 5.6 C 6.43 g/m*3 5.6 C 0 km/h
1752 28-02-2014 09:20:00 5.6 C 6.36 g/m*3 5.6 C 4.8 km/h
1753 28-02-2014 09:25:00 5.7 C 6.4 g/m*3 5.7 C 3.2 km/h
1754 28-02-2014 09:30:00 5.7 C 6.4 g/m*3 5.7 C 1.6 km/h
1755 28-02-2014 09:35:00 5.7 C 6.4 g/m*3 5.7 C 4.8 km/h
1756 28-02-2014 09:40:00 5.8 C 6.38 g/m*3 5.8 C 3.2 km/h
1757 28-02-2014 09:45:00 5.8 C 6.45 g/m*3 5.8 C 3.2 km/h
1758 28-02-2014 09:50:00 5.9 C 6.42 g/m*3 5.9 C 0 km/h
1759 28-02-2014 09:55:00 6.1 C 6.5 g/m*3 4.86 C 6.4 km/h
1760 28-02-2014 10:00:00 6.2 C 6.55 g/m*3 6.2 C 1.6 km/h
1761 28-02-2014 10:05:00 6.4 C 6.63 g/m*3 6.4 C 3.2 km/h
1762 28-02-2014 10:10:00 6.6 C 6.64 g/m*3 6.6 C 1.6 km/h
1763 28-02-2014 10:15:00 6.7 C 6.61 g/m*3 6.7 C 4.8 km/h
1764 28-02-2014 10:20:00 6.8 C 6.65 g/m*3 6.8 C 1.6 km/h
1765 28-02-2014 10:25:00 6.8 C 6.5 g/m*3 6.8 C 4.8 km/h
1766 28-02-2014 10:30:00 6.8 C 6.58 g/m*3 6.8 C 4.8 km/h
1767 28-02-2014 10:35:00 6.9 C 6.62 g/m*3 6.9 C 4.8 km/h
1768 28-02-2014 10:40:00 6.9 C 6.62 g/m*3 6.9 C 4.8 km/h
1769 28-02-2014 10:45:00 6.9 C 6.62 g/m*3 6.9 C 3.2 km/h
1770 28-02-2014 10:50:00 7 C 6.66 g/m*3 7 C 4.8 km/h
1771 28-02-2014 10:55:00 7.1 C 6.63 g/m*3 7.1 C 4.8 km/h
1772 28-02-2014 11:00:00 7.2 C 6.75 g/m*3 7.2 C 4.8 km/h
1773 28-02-2014 11:05:00 7.4 C 6.68 g/m*3 6.37 C 6.4 km/h
1774 28-02-2014 11:10:00 7.6 C 6.69 g/m*3 6.16 C 8.1 km/h
1775 28-02-2014 11:15:00 7.7 C 6.65 g/m*3 6.28 C 8.1 km/h
Sensor: Nr:Datum:Temp:Abs-Feuchte:Windchill:Wind:
Aussen-T/F 1776 28-02-2014 11:20:00 7.7 C 6.65 g/m*3 7.7 C 4.8 km/h
1777 28-02-2014 11:25:00 7.7 C 6.57 g/m*3 5.94 C 9.7 km/h
1778 28-02-2014 11:30:00 7.7 C 6.65 g/m*3 5.94 C 9.7 km/h
1779 28-02-2014 11:35:00 7.9 C 6.82 g/m*3 7.9 C 4.8 km/h
1780 28-02-2014 11:40:00 8 C 6.78 g/m*3 7.06 C 6.4 km/h
1781 28-02-2014 11:45:00 8.1 C 6.82 g/m*3 6.42 C 9.7 km/h
1782 28-02-2014 11:50:00 8.2 C 6.78 g/m*3 7.29 C 6.4 km/h
1783 28-02-2014 11:55:00 8.2 C 6.87 g/m*3 6.54 C 9.7 km/h
1784 28-02-2014 12:00:00 8.2 C 6.7 g/m*3 6.54 C 9.7 km/h
1785 28-02-2014 12:05:00 8.2 C 6.7 g/m*3 8.2 C 4.8 km/h
1786 28-02-2014 12:10:00 8.2 C 6.78 g/m*3 7.29 C 6.4 km/h
1787 28-02-2014 12:15:00 8.3 C 6.74 g/m*3 8.3 C 3.2 km/h
1788 28-02-2014 12:20:00 8.2 C 6.7 g/m*3 6.54 C 9.7 km/h
1789 28-02-2014 12:25:00 8 C 6.61 g/m*3 6.64 C 8.1 km/h
1790 28-02-2014 12:30:00 7.9 C 6.65 g/m*3 6.52 C 8.1 km/h
1791 28-02-2014 12:35:00 7.9 C 6.82 g/m*3 7.9 C 4.8 km/h
1792 28-02-2014 12:40:00 7.8 C 6.77 g/m*3 6.83 C 6.4 km/h
1793 28-02-2014 12:45:00 7.7 C 6.97 g/m*3 7.7 C 3.2 km/h
1794 28-02-2014 12:50:00 7.7 C 6.81 g/m*3 7.7 C 4.8 km/h
1795 28-02-2014 12:55:00 7.8 C 7.1 g/m*3 7.8 C 3.2 km/h
1796 28-02-2014 13:00:00 7.8 C 6.94 g/m*3 7.8 C 4.8 km/h
1797 28-02-2014 13:05:00 7.9 C 6.98 g/m*3 7.9 C 4.8 km/h
1798 28-02-2014 13:10:00 8.1 C 7.07 g/m*3 6.75 C 8.1 km/h
1799 28-02-2014 13:15:00 8.2 C 6.78 g/m*3 8.2 C 4.8 km/h
1800 28-02-2014 13:20:00 8.4 C 6.96 g/m*3 6.78 C 9.7 km/h
Sensor: Nr:Datum:Temp:Abs-Feuchte:Windchill:Wind:
Aussen-T/F 1801 28-02-2014 13:25:00 8.6 C 6.87 g/m*3 6.73 C 11.3 km/h
1802 28-02-2014 13:30:00 8.5 C 6.74 g/m*3 8.5 C 4.8 km/h
1803 28-02-2014 13:35:00 8.5 C 6.57 g/m*3 7.64 C 6.4 km/h
1804 28-02-2014 13:40:00 8.8 C 6.96 g/m*3 7.58 C 8.1 km/h
1805 28-02-2014 13:45:00 8.9 C 6.83 g/m*3 7.09 C 11.3 km/h
1806 28-02-2014 13:50:00 9 C 6.7 g/m*3 9 C 4.8 km/h
1807 28-02-2014 13:55:00 9.1 C 6.83 g/m*3 8.33 C 6.4 km/h
1808 28-02-2014 14:00:00 9.1 C 6.74 g/m*3 7.61 C 9.7 km/h
1809 28-02-2014 14:05:00 9.1 C 6.83 g/m*3 7.61 C 9.7 km/h
1810 28-02-2014 14:10:00 9.3 C 6.74 g/m*3 8.56 C 6.4 km/h
1811 28-02-2014 14:15:00 9.4 C 6.42 g/m*3 8.68 C 6.4 km/h
1812 28-02-2014 14:20:00 9.2 C 6.52 g/m*3 8.45 C 6.4 km/h
1813 28-02-2014 14:25:00 9.2 C 6.79 g/m*3 8.45 C 6.4 km/h
1814 28-02-2014 14:30:00 9.4 C 6.96 g/m*3 9.4 C 4.8 km/h
1815 28-02-2014 14:35:00 9.7 C 7.01 g/m*3 9.02 C 6.4 km/h
1816 28-02-2014 14:40:00 9.8 C 6.59 g/m*3 9.14 C 6.4 km/h
1817 28-02-2014 14:45:00 9.7 C 6.82 g/m*3 8.33 C 9.7 km/h
1818 28-02-2014 14:50:00 9.7 C 6.64 g/m*3 8.63 C 8.1 km/h
1819 28-02-2014 14:55:00 9.6 C 6.5 g/m*3 8.91 C 6.4 km/h
1820 28-02-2014 15:00:00 9.5 C 6.64 g/m*3 9.5 C 4.8 km/h
1821 28-02-2014 15:05:00 9.4 C 6.6 g/m*3 9.4 C 4.8 km/h
1822 28-02-2014 15:10:00 9.3 C 6.56 g/m*3 9.3 C 4.8 km/h
1823 28-02-2014 15:15:00 9.2 C 6.43 g/m*3 9.2 C 3.2 km/h
1824 28-02-2014 15:20:00 9.1 C 6.48 g/m*3 9.1 C 0 km/h
1825 28-02-2014 15:25:00 9.1 C 6.57 g/m*3 9.1 C 4.8 km/h
Sensor: Nr:Datum:Temp:Abs-Feuchte:Windchill:Wind:
Aussen-T/F 1826 28-02-2014 15:30:00 9.1 C 6.57 g/m*3 9.1 C 4.8 km/h
1827 28-02-2014 15:35:00 9.1 C 6.57 g/m*3 9.1 C 4.8 km/h
1828 28-02-2014 16:15:00 9.3 C 6.65 g/m*3 8.56 C 6.4 km/h
1829 28-02-2014 16:20:00 9.3 C 6.47 g/m*3 9.3 C 4.8 km/h
1830 28-02-2014 16:25:00 9.3 C 6.47 g/m*3 9.3 C 4.8 km/h
1831 28-02-2014 17:05:00 9.4 C 6.6 g/m*3 8.28 C 8.1 km/h
1832 28-02-2014 17:10:00 9.4 C 6.69 g/m*3 8.68 C 6.4 km/h
1833 28-02-2014 17:15:00 9.3 C 6.65 g/m*3 8.56 C 6.4 km/h
1834 28-02-2014 17:20:00 9.2 C 6.61 g/m*3 9.2 C 3.2 km/h
1835 28-02-2014 17:25:00 9.1 C 6.65 g/m*3 8.33 C 6.4 km/h
1836 28-02-2014 17:30:00 9.1 C 6.65 g/m*3 9.1 C 4.8 km/h
1837 28-02-2014 17:35:00 9 C 6.52 g/m*3 9 C 3.2 km/h
1838 28-02-2014 17:40:00 8.9 C 6.66 g/m*3 8.1 C 6.4 km/h
1839 28-02-2014 17:45:00 8.9 C 6.75 g/m*3 8.9 C 3.2 km/h
1840 28-02-2014 17:50:00 8.8 C 6.7 g/m*3 8.8 C 1.6 km/h
1841 28-02-2014 17:55:00 8.7 C 6.66 g/m*3 8.7 C 1.6 km/h
1842 28-02-2014 18:00:00 8.7 C 6.75 g/m*3 8.7 C 1.6 km/h
1843 28-02-2014 18:05:00 8.6 C 6.62 g/m*3 8.6 C 3.2 km/h
1844 28-02-2014 18:10:00 8.5 C 6.74 g/m*3 8.5 C 1.6 km/h
1845 28-02-2014 18:15:00 8.3 C 6.74 g/m*3 8.3 C 0 km/h
1846 28-02-2014 18:20:00 8.2 C 6.78 g/m*3 8.2 C 1.6 km/h
1847 28-02-2014 18:25:00 8.1 C 6.82 g/m*3 8.1 C 1.6 km/h
1848 28-02-2014 18:30:00 7.9 C 6.74 g/m*3 7.9 C 0 km/h
1849 28-02-2014 18:35:00 7.8 C 6.61 g/m*3 7.8 C 3.2 km/h
1850 28-02-2014 18:40:00 7.9 C 6.74 g/m*3 7.9 C 1.6 km/h
Sensor: Nr:Datum:Temp:Abs-Feuchte:Windchill:Wind:
Aussen-T/F 1851 28-02-2014 18:45:00 7.8 C 6.77 g/m*3 7.8 C 1.6 km/h
1852 28-02-2014 18:50:00 7.7 C 6.73 g/m*3 7.7 C 3.2 km/h
1853 28-02-2014 18:55:00 7.7 C 6.81 g/m*3 7.7 C 3.2 km/h
1854 28-02-2014 19:00:00 7.6 C 6.61 g/m*3 7.6 C 4.8 km/h
1855 28-02-2014 19:05:00 7.6 C 6.69 g/m*3 7.6 C 3.2 km/h
1856 28-02-2014 19:10:00 7.6 C 6.77 g/m*3 7.6 C 1.6 km/h
1857 28-02-2014 19:15:00 7.4 C 6.68 g/m*3 7.4 C 0 km/h
1858 28-02-2014 19:20:00 7.2 C 6.67 g/m*3 7.2 C 1.6 km/h
1859 28-02-2014 19:25:00 7 C 6.59 g/m*3 7 C 3.2 km/h
1860 28-02-2014 19:30:00 6.8 C 6.5 g/m*3 5.67 C 6.4 km/h
1861 28-02-2014 19:35:00 6.7 C 6.61 g/m*3 6.7 C 4.8 km/h
1862 28-02-2014 19:40:00 6.7 C 6.53 g/m*3 6.7 C 1.6 km/h
1863 28-02-2014 19:45:00 6.6 C 6.57 g/m*3 6.6 C 4.8 km/h
1864 28-02-2014 19:50:00 6.5 C 6.52 g/m*3 6.5 C 4.8 km/h
1865 28-02-2014 19:55:00 6.4 C 6.56 g/m*3 6.4 C 3.2 km/h
1866 28-02-2014 20:00:00 6.4 C 6.56 g/m*3 6.4 C 4.8 km/h
1867 28-02-2014 20:05:00 6.4 C 6.56 g/m*3 6.4 C 3.2 km/h
1868 28-02-2014 20:10:00 6.5 C 6.6 g/m*3 6.5 C 4.8 km/h
1869 28-02-2014 20:15:00 6.6 C 6.72 g/m*3 6.6 C 3.2 km/h
1870 28-02-2014 20:20:00 6.6 C 6.72 g/m*3 6.6 C 3.2 km/h
1871 28-02-2014 20:25:00 6.6 C 6.72 g/m*3 6.6 C 4.8 km/h
1872 28-02-2014 20:30:00 6.7 C 6.76 g/m*3 6.7 C 4.8 km/h
1873 28-02-2014 20:35:00 6.7 C 6.69 g/m*3 6.7 C 3.2 km/h
1874 28-02-2014 20:40:00 6.7 C 6.69 g/m*3 6.7 C 1.6 km/h
1875 28-02-2014 20:45:00 6.7 C 6.69 g/m*3 6.7 C 3.2 km/h
Sensor: Nr:Datum:Temp:Abs-Feuchte:Windchill:Wind:
Aussen-T/F 1876 28-02-2014 20:50:00 6.8 C 6.65 g/m*3 6.8 C 3.2 km/h
1877 28-02-2014 20:55:00 6.9 C 6.62 g/m*3 6.9 C 3.2 km/h
1878 28-02-2014 21:00:00 7.1 C 6.79 g/m*3 7.1 C 0 km/h
1879 28-02-2014 21:05:00 7.1 C 6.71 g/m*3 7.1 C 3.2 km/h
1880 28-02-2014 21:10:00 7.1 C 6.79 g/m*3 7.1 C 0 km/h
1881 28-02-2014 21:15:00 7.1 C 6.79 g/m*3 7.1 C 1.6 km/h
1882 28-02-2014 21:20:00 7 C 6.82 g/m*3 7 C 0 km/h
1883 28-02-2014 21:25:00 6.9 C 6.77 g/m*3 6.9 C 1.6 km/h
1884 28-02-2014 21:30:00 6.9 C 6.85 g/m*3 6.9 C 3.2 km/h
1885 28-02-2014 21:35:00 6.8 C 6.88 g/m*3 6.8 C 0 km/h
1886 28-02-2014 21:40:00 6.8 C 6.88 g/m*3 6.8 C 0 km/h
1887 28-02-2014 21:45:00 6.7 C 6.91 g/m*3 6.7 C 0 km/h
1888 28-02-2014 21:50:00 6.6 C 6.95 g/m*3 6.6 C 0 km/h
1889 28-02-2014 21:55:00 6.6 C 6.95 g/m*3 6.6 C 0 km/h
1890 28-02-2014 22:00:00 6.5 C 6.9 g/m*3 6.5 C 1.6 km/h
1891 28-02-2014 22:05:00 6.4 C 6.93 g/m*3 6.4 C 4.8 km/h
1892 28-02-2014 22:10:00 6.4 C 6.93 g/m*3 6.4 C 0 km/h
1893 28-02-2014 22:15:00 6.4 C 6.93 g/m*3 6.4 C 0 km/h
1894 28-02-2014 22:20:00 6.4 C 6.93 g/m*3 6.4 C 1.6 km/h
1895 28-02-2014 22:25:00 6.4 C 7 g/m*3 6.4 C 1.6 km/h
1896 28-02-2014 22:30:00 6.3 C 6.96 g/m*3 6.3 C 3.2 km/h
1897 28-02-2014 22:35:00 6.2 C 6.84 g/m*3 4.52 C 8.1 km/h
1898 28-02-2014 22:40:00 6.2 C 6.77 g/m*3 4.52 C 8.1 km/h
1899 28-02-2014 22:45:00 6.2 C 6.77 g/m*3 6.2 C 1.6 km/h
1900 28-02-2014 22:50:00 6.1 C 6.79 g/m*3 6.1 C 3.2 km/h
Sensor: Nr:Datum:Temp:Abs-Feuchte:Windchill:Wind:
Aussen-T/F 1901 28-02-2014 22:55:00 6.1 C 6.79 g/m*3 6.1 C 3.2 km/h
1902 28-02-2014 23:00:00 5.9 C 6.78 g/m*3 5.9 C 3.2 km/h
1903 28-02-2014 23:05:00 5.9 C 6.78 g/m*3 5.9 C 3.2 km/h
1904 28-02-2014 23:10:00 5.8 C 6.73 g/m*3 5.8 C 3.2 km/h
1905 28-02-2014 23:15:00 5.8 C 6.73 g/m*3 5.8 C 1.6 km/h
1906 28-02-2014 23:20:00 5.8 C 6.73 g/m*3 5.8 C 0 km/h
1907 28-02-2014 23:25:00 5.7 C 6.69 g/m*3 5.7 C 0 km/h
1908 28-02-2014 23:30:00 5.7 C 6.76 g/m*3 5.7 C 0 km/h
1909 28-02-2014 23:35:00 5.6 C 6.72 g/m*3 5.6 C 3.2 km/h
1910 28-02-2014 23:40:00 5.5 C 6.67 g/m*3 5.5 C 0 km/h
1911 28-02-2014 23:45:00 5.4 C 6.63 g/m*3 5.4 C 3.2 km/h
1912 28-02-2014 23:50:00 5.4 C 6.63 g/m*3 5.4 C 1.6 km/h
1913 28-02-2014 23:55:00 5.3 C 6.58 g/m*3 5.3 C 3.2 km/h

Legende:
   Min
   Max


Maximal/Minimal-Werte vom 22.02.2014 - 28.02.2014

Sensor Min Max Avg
Temp
(Aussen-T/F)
-0.6 °C
24-02-2014  07:00:00
14.3 °C
24-02-2014  15:40:00
6.31 °C
Abs-Feuchte
(Aussen-T/F)
4.46 g/m*3
24-02-2014  07:00:00
9.46 g/m*3
23-02-2014  12:40:00
6.18 g/m*3
Windchill
(Aussen-T/F)
-2.89 C
24-02-2014  08:15:00
14.3 C
24-02-2014  15:40:00
5.97 C

Die Daten stammen von einer Davis Vantage Pro 2 Wetter-Station und werden unter Linux mit der Software wview2wettercgi und aufbereitet. Alle Angaben erfolgen ohne Gewähr für ihre Vollständigkeit oder Richtigkeit.
Kontakt: Rainer Krienke krienke@uni-koblenz.de . Meine Webseiten an der Uni Koblenz oder privat.
Version: $Revision: 0.78 $